<?xml version="1.0" encoding="UTF-8" standalone="no" ?>
<gpx xmlns="http://www.topografix.com/GPX/1/1" xmlns:xsi="http://www.w3.org/2001/XMLSchema-instance" xsi:schemaLocation="http://www.topografix.com/GPX/1/1 http://www.topografix.com/GPX/1/1/gpx.xsd" version="1.1" creator="VisuGPX - https://www.visugpx.com">
  <metadata>
    <name>Randonnées biertoises : mont ceint et retour par crète de Bège</name>
    <desc><![CDATA[Départ port de Lers
Mont Ceint
Port de Saleix
Col de la Crouzette (commune d'Auzat)
Crète de Bège
Roc de Souberqué
Port de Lers
Attention les altitudes dans la trace sont totalement fausses. Il y a au moins 1000m de dénivelé positif.]]></desc>
  </metadata>
  <trk>
    <name><![CDATA[25 août 2026 à 07:07:59]]></name>
    <cmt><![CDATA[25 août 2026 à 07:07:59]]></cmt>
    <trkseg>
      <trkpt lat="42.8061" lon="1.41138">
        <ele>588</ele>
        <time>2026-08-25T05:07:59Z</time>
      </trkpt>
      <trkpt lat="42.80593" lon="1.41125">
        <ele>588</ele>
        <time>2026-08-25T05:08:19Z</time>
      </trkpt>
      <trkpt lat="42.80589" lon="1.41123">
        <ele>588</ele>
        <time>2026-08-25T05:08:23Z</time>
      </trkpt>
      <trkpt lat="42.80584" lon="1.41119">
        <ele>588</ele>
        <time>2026-08-25T05:08:31Z</time>
      </trkpt>
      <trkpt lat="42.80558" lon="1.411">
        <ele>588</ele>
        <time>2026-08-25T05:09:05Z</time>
      </trkpt>
      <trkpt lat="42.80531" lon="1.4108">
        <ele>589</ele>
        <time>2026-08-25T05:09:36Z</time>
      </trkpt>
      <trkpt lat="42.80517" lon="1.41072">
        <ele>589</ele>
        <time>2026-08-25T05:09:50Z</time>
      </trkpt>
      <trkpt lat="42.80515" lon="1.41067">
        <ele>589</ele>
        <time>2026-08-25T05:09:54Z</time>
      </trkpt>
      <trkpt lat="42.80511" lon="1.41063">
        <ele>589</ele>
        <time>2026-08-25T05:09:59Z</time>
      </trkpt>
      <trkpt lat="42.80507" lon="1.41057">
        <ele>589</ele>
        <time>2026-08-25T05:10:07Z</time>
      </trkpt>
      <trkpt lat="42.80503" lon="1.41052">
        <ele>589</ele>
        <time>2026-08-25T05:10:10Z</time>
      </trkpt>
      <trkpt lat="42.80475" lon="1.41041">
        <ele>589</ele>
        <time>2026-08-25T05:10:43Z</time>
      </trkpt>
      <trkpt lat="42.80471" lon="1.41037">
        <ele>589</ele>
        <time>2026-08-25T05:10:47Z</time>
      </trkpt>
      <trkpt lat="42.80465" lon="1.41037">
        <ele>589</ele>
        <time>2026-08-25T05:10:54Z</time>
      </trkpt>
      <trkpt lat="42.80453" lon="1.41026">
        <ele>590</ele>
        <time>2026-08-25T05:11:11Z</time>
      </trkpt>
      <trkpt lat="42.80449" lon="1.41024">
        <ele>590</ele>
        <time>2026-08-25T05:11:15Z</time>
      </trkpt>
      <trkpt lat="42.80419" lon="1.41003">
        <ele>590</ele>
        <time>2026-08-25T05:11:47Z</time>
      </trkpt>
      <trkpt lat="42.80393" lon="1.40987">
        <ele>590</ele>
        <time>2026-08-25T05:12:24Z</time>
      </trkpt>
      <trkpt lat="42.8039" lon="1.40982">
        <ele>590</ele>
        <time>2026-08-25T05:12:34Z</time>
      </trkpt>
      <trkpt lat="42.8038" lon="1.40975">
        <ele>591</ele>
        <time>2026-08-25T05:13:05Z</time>
      </trkpt>
      <trkpt lat="42.80376" lon="1.40969">
        <ele>591</ele>
        <time>2026-08-25T05:13:25Z</time>
      </trkpt>
      <trkpt lat="42.80366" lon="1.4098">
        <ele>591</ele>
        <time>2026-08-25T05:13:50Z</time>
      </trkpt>
      <trkpt lat="42.80361" lon="1.40985">
        <ele>591</ele>
        <time>2026-08-25T05:13:56Z</time>
      </trkpt>
      <trkpt lat="42.8035" lon="1.40991">
        <ele>591</ele>
        <time>2026-08-25T05:14:18Z</time>
      </trkpt>
      <trkpt lat="42.80347" lon="1.40986">
        <ele>592</ele>
        <time>2026-08-25T05:14:28Z</time>
      </trkpt>
      <trkpt lat="42.80344" lon="1.40982">
        <ele>592</ele>
        <time>2026-08-25T05:14:38Z</time>
      </trkpt>
      <trkpt lat="42.80339" lon="1.4098">
        <ele>592</ele>
        <time>2026-08-25T05:14:53Z</time>
      </trkpt>
      <trkpt lat="42.80335" lon="1.40976">
        <ele>592</ele>
        <time>2026-08-25T05:15:03Z</time>
      </trkpt>
      <trkpt lat="42.8033" lon="1.40975">
        <ele>592</ele>
        <time>2026-08-25T05:15:13Z</time>
      </trkpt>
      <trkpt lat="42.80326" lon="1.40978">
        <ele>592</ele>
        <time>2026-08-25T05:15:28Z</time>
      </trkpt>
      <trkpt lat="42.80323" lon="1.4097">
        <ele>592</ele>
        <time>2026-08-25T05:15:48Z</time>
      </trkpt>
      <trkpt lat="42.80323" lon="1.40963">
        <ele>593</ele>
        <time>2026-08-25T05:15:59Z</time>
      </trkpt>
      <trkpt lat="42.80322" lon="1.40955">
        <ele>593</ele>
        <time>2026-08-25T05:16:14Z</time>
      </trkpt>
      <trkpt lat="42.80327" lon="1.40951">
        <ele>593</ele>
        <time>2026-08-25T05:16:29Z</time>
      </trkpt>
      <trkpt lat="42.80329" lon="1.40946">
        <ele>593</ele>
        <time>2026-08-25T05:16:39Z</time>
      </trkpt>
      <trkpt lat="42.80333" lon="1.40939">
        <ele>593</ele>
        <time>2026-08-25T05:16:54Z</time>
      </trkpt>
      <trkpt lat="42.80339" lon="1.40929">
        <ele>593</ele>
        <time>2026-08-25T05:17:14Z</time>
      </trkpt>
      <trkpt lat="42.80342" lon="1.40921">
        <ele>593</ele>
        <time>2026-08-25T05:17:29Z</time>
      </trkpt>
      <trkpt lat="42.80345" lon="1.40914">
        <ele>594</ele>
        <time>2026-08-25T05:17:39Z</time>
      </trkpt>
      <trkpt lat="42.80347" lon="1.40907">
        <ele>594</ele>
        <time>2026-08-25T05:17:49Z</time>
      </trkpt>
      <trkpt lat="42.80351" lon="1.409">
        <ele>594</ele>
        <time>2026-08-25T05:17:59Z</time>
      </trkpt>
      <trkpt lat="42.8035" lon="1.40893">
        <ele>594</ele>
        <time>2026-08-25T05:18:09Z</time>
      </trkpt>
      <trkpt lat="42.80345" lon="1.40894">
        <ele>594</ele>
        <time>2026-08-25T05:18:29Z</time>
      </trkpt>
      <trkpt lat="42.8034" lon="1.4089">
        <ele>594</ele>
        <time>2026-08-25T05:18:44Z</time>
      </trkpt>
      <trkpt lat="42.80337" lon="1.40885">
        <ele>594</ele>
        <time>2026-08-25T05:18:54Z</time>
      </trkpt>
      <trkpt lat="42.80334" lon="1.40877">
        <ele>594</ele>
        <time>2026-08-25T05:19:05Z</time>
      </trkpt>
      <trkpt lat="42.80323" lon="1.40876">
        <ele>595</ele>
        <time>2026-08-25T05:19:25Z</time>
      </trkpt>
      <trkpt lat="42.8032" lon="1.40872">
        <ele>595</ele>
        <time>2026-08-25T05:19:35Z</time>
      </trkpt>
      <trkpt lat="42.80317" lon="1.40867">
        <ele>595</ele>
        <time>2026-08-25T05:19:45Z</time>
      </trkpt>
      <trkpt lat="42.80312" lon="1.40863">
        <ele>595</ele>
        <time>2026-08-25T05:19:55Z</time>
      </trkpt>
      <trkpt lat="42.80308" lon="1.40859">
        <ele>595</ele>
        <time>2026-08-25T05:20:05Z</time>
      </trkpt>
      <trkpt lat="42.80302" lon="1.40852">
        <ele>595</ele>
        <time>2026-08-25T05:20:15Z</time>
      </trkpt>
      <trkpt lat="42.80298" lon="1.40854">
        <ele>595</ele>
        <time>2026-08-25T05:20:25Z</time>
      </trkpt>
      <trkpt lat="42.80292" lon="1.40856">
        <ele>595</ele>
        <time>2026-08-25T05:20:40Z</time>
      </trkpt>
      <trkpt lat="42.80289" lon="1.40862">
        <ele>595</ele>
        <time>2026-08-25T05:20:50Z</time>
      </trkpt>
      <trkpt lat="42.80285" lon="1.40856">
        <ele>596</ele>
        <time>2026-08-25T05:21:10Z</time>
      </trkpt>
      <trkpt lat="42.80268" lon="1.40861">
        <ele>596</ele>
        <time>2026-08-25T05:21:37Z</time>
      </trkpt>
      <trkpt lat="42.80262" lon="1.40863">
        <ele>596</ele>
        <time>2026-08-25T05:21:45Z</time>
      </trkpt>
      <trkpt lat="42.80252" lon="1.40869">
        <ele>596</ele>
        <time>2026-08-25T05:22:01Z</time>
      </trkpt>
      <trkpt lat="42.80248" lon="1.40871">
        <ele>596</ele>
        <time>2026-08-25T05:22:09Z</time>
      </trkpt>
      <trkpt lat="42.80242" lon="1.40866">
        <ele>596</ele>
        <time>2026-08-25T05:22:19Z</time>
      </trkpt>
      <trkpt lat="42.80239" lon="1.40861">
        <ele>596</ele>
        <time>2026-08-25T05:22:34Z</time>
      </trkpt>
      <trkpt lat="42.80235" lon="1.40852">
        <ele>597</ele>
        <time>2026-08-25T05:22:49Z</time>
      </trkpt>
      <trkpt lat="42.80238" lon="1.40845">
        <ele>597</ele>
        <time>2026-08-25T05:22:59Z</time>
      </trkpt>
      <trkpt lat="42.80233" lon="1.40832">
        <ele>597</ele>
        <time>2026-08-25T05:23:29Z</time>
      </trkpt>
      <trkpt lat="42.80231" lon="1.40823">
        <ele>597</ele>
        <time>2026-08-25T05:23:44Z</time>
      </trkpt>
      <trkpt lat="42.8023" lon="1.40815">
        <ele>597</ele>
        <time>2026-08-25T05:23:55Z</time>
      </trkpt>
      <trkpt lat="42.80232" lon="1.40808">
        <ele>597</ele>
        <time>2026-08-25T05:24:05Z</time>
      </trkpt>
      <trkpt lat="42.80238" lon="1.40807">
        <ele>598</ele>
        <time>2026-08-25T05:24:20Z</time>
      </trkpt>
      <trkpt lat="42.80241" lon="1.40802">
        <ele>598</ele>
        <time>2026-08-25T05:24:35Z</time>
      </trkpt>
      <trkpt lat="42.80247" lon="1.40788">
        <ele>598</ele>
        <time>2026-08-25T05:25:00Z</time>
      </trkpt>
      <trkpt lat="42.80251" lon="1.40781">
        <ele>598</ele>
        <time>2026-08-25T05:25:10Z</time>
      </trkpt>
      <trkpt lat="42.80253" lon="1.40774">
        <ele>598</ele>
        <time>2026-08-25T05:25:20Z</time>
      </trkpt>
      <trkpt lat="42.80255" lon="1.40765">
        <ele>598</ele>
        <time>2026-08-25T05:25:30Z</time>
      </trkpt>
      <trkpt lat="42.80253" lon="1.40757">
        <ele>598</ele>
        <time>2026-08-25T05:25:40Z</time>
      </trkpt>
      <trkpt lat="42.80253" lon="1.40748">
        <ele>598</ele>
        <time>2026-08-25T05:25:50Z</time>
      </trkpt>
      <trkpt lat="42.80253" lon="1.40741">
        <ele>599</ele>
        <time>2026-08-25T05:26:05Z</time>
      </trkpt>
      <trkpt lat="42.80255" lon="1.40736">
        <ele>599</ele>
        <time>2026-08-25T05:26:15Z</time>
      </trkpt>
      <trkpt lat="42.80251" lon="1.40722">
        <ele>599</ele>
        <time>2026-08-25T05:26:40Z</time>
      </trkpt>
      <trkpt lat="42.80252" lon="1.40715">
        <ele>599</ele>
        <time>2026-08-25T05:26:55Z</time>
      </trkpt>
      <trkpt lat="42.80252" lon="1.40708">
        <ele>599</ele>
        <time>2026-08-25T05:27:05Z</time>
      </trkpt>
      <trkpt lat="42.80248" lon="1.40702">
        <ele>599</ele>
        <time>2026-08-25T05:27:20Z</time>
      </trkpt>
      <trkpt lat="42.80253" lon="1.40689">
        <ele>600</ele>
        <time>2026-08-25T05:27:41Z</time>
      </trkpt>
      <trkpt lat="42.80254" lon="1.4068">
        <ele>600</ele>
        <time>2026-08-25T05:27:51Z</time>
      </trkpt>
      <trkpt lat="42.80252" lon="1.40673">
        <ele>600</ele>
        <time>2026-08-25T05:28:17Z</time>
      </trkpt>
      <trkpt lat="42.8025" lon="1.40667">
        <ele>600</ele>
        <time>2026-08-25T05:28:27Z</time>
      </trkpt>
      <trkpt lat="42.80249" lon="1.40658">
        <ele>600</ele>
        <time>2026-08-25T05:28:37Z</time>
      </trkpt>
      <trkpt lat="42.80249" lon="1.40648">
        <ele>600</ele>
        <time>2026-08-25T05:28:47Z</time>
      </trkpt>
      <trkpt lat="42.80253" lon="1.40638">
        <ele>600</ele>
        <time>2026-08-25T05:28:58Z</time>
      </trkpt>
      <trkpt lat="42.80254" lon="1.4063">
        <ele>600</ele>
        <time>2026-08-25T05:29:11Z</time>
      </trkpt>
      <trkpt lat="42.80252" lon="1.40624">
        <ele>601</ele>
        <time>2026-08-25T05:29:21Z</time>
      </trkpt>
      <trkpt lat="42.80256" lon="1.40617">
        <ele>601</ele>
        <time>2026-08-25T05:29:31Z</time>
      </trkpt>
      <trkpt lat="42.80256" lon="1.40596">
        <ele>601</ele>
        <time>2026-08-25T05:29:51Z</time>
      </trkpt>
      <trkpt lat="42.80246" lon="1.40577">
        <ele>601</ele>
        <time>2026-08-25T05:30:11Z</time>
      </trkpt>
      <trkpt lat="42.8024" lon="1.40561">
        <ele>601</ele>
        <time>2026-08-25T05:30:31Z</time>
      </trkpt>
      <trkpt lat="42.80236" lon="1.40556">
        <ele>601</ele>
        <time>2026-08-25T05:30:46Z</time>
      </trkpt>
      <trkpt lat="42.80232" lon="1.40531">
        <ele>602</ele>
        <time>2026-08-25T05:31:25Z</time>
      </trkpt>
      <trkpt lat="42.8023" lon="1.40525">
        <ele>602</ele>
        <time>2026-08-25T05:31:35Z</time>
      </trkpt>
      <trkpt lat="42.80229" lon="1.40519">
        <ele>602</ele>
        <time>2026-08-25T05:31:41Z</time>
      </trkpt>
      <trkpt lat="42.80217" lon="1.40498">
        <ele>602</ele>
        <time>2026-08-25T05:32:12Z</time>
      </trkpt>
      <trkpt lat="42.80215" lon="1.40492">
        <ele>602</ele>
        <time>2026-08-25T05:32:18Z</time>
      </trkpt>
      <trkpt lat="42.80206" lon="1.40472">
        <ele>603</ele>
        <time>2026-08-25T05:32:43Z</time>
      </trkpt>
      <trkpt lat="42.80204" lon="1.40463">
        <ele>603</ele>
        <time>2026-08-25T05:32:53Z</time>
      </trkpt>
      <trkpt lat="42.80205" lon="1.40455">
        <ele>603</ele>
        <time>2026-08-25T05:33:03Z</time>
      </trkpt>
      <trkpt lat="42.80202" lon="1.40441">
        <ele>603</ele>
        <time>2026-08-25T05:33:25Z</time>
      </trkpt>
      <trkpt lat="42.80191" lon="1.40423">
        <ele>603</ele>
        <time>2026-08-25T05:33:56Z</time>
      </trkpt>
      <trkpt lat="42.80187" lon="1.40419">
        <ele>603</ele>
        <time>2026-08-25T05:34:06Z</time>
      </trkpt>
      <trkpt lat="42.80183" lon="1.40415">
        <ele>603</ele>
        <time>2026-08-25T05:34:16Z</time>
      </trkpt>
      <trkpt lat="42.80181" lon="1.40408">
        <ele>604</ele>
        <time>2026-08-25T05:34:26Z</time>
      </trkpt>
      <trkpt lat="42.80171" lon="1.40397">
        <ele>604</ele>
        <time>2026-08-25T05:35:01Z</time>
      </trkpt>
      <trkpt lat="42.8016" lon="1.40392">
        <ele>604</ele>
        <time>2026-08-25T05:35:17Z</time>
      </trkpt>
      <trkpt lat="42.80154" lon="1.40388">
        <ele>604</ele>
        <time>2026-08-25T05:35:28Z</time>
      </trkpt>
      <trkpt lat="42.80146" lon="1.40377">
        <ele>604</ele>
        <time>2026-08-25T05:35:44Z</time>
      </trkpt>
      <trkpt lat="42.80141" lon="1.40373">
        <ele>604</ele>
        <time>2026-08-25T05:35:54Z</time>
      </trkpt>
      <trkpt lat="42.80135" lon="1.40368">
        <ele>605</ele>
        <time>2026-08-25T05:36:05Z</time>
      </trkpt>
      <trkpt lat="42.80129" lon="1.40368">
        <ele>605</ele>
        <time>2026-08-25T05:36:16Z</time>
      </trkpt>
      <trkpt lat="42.80124" lon="1.40362">
        <ele>605</ele>
        <time>2026-08-25T05:36:27Z</time>
      </trkpt>
      <trkpt lat="42.80118" lon="1.40359">
        <ele>605</ele>
        <time>2026-08-25T05:36:42Z</time>
      </trkpt>
      <trkpt lat="42.80113" lon="1.40362">
        <ele>605</ele>
        <time>2026-08-25T05:36:57Z</time>
      </trkpt>
      <trkpt lat="42.80107" lon="1.40362">
        <ele>605</ele>
        <time>2026-08-25T05:37:08Z</time>
      </trkpt>
      <trkpt lat="42.80093" lon="1.40359">
        <ele>606</ele>
        <time>2026-08-25T05:37:45Z</time>
      </trkpt>
      <trkpt lat="42.80087" lon="1.40359">
        <ele>606</ele>
        <time>2026-08-25T05:38:00Z</time>
      </trkpt>
      <trkpt lat="42.80082" lon="1.40364">
        <ele>606</ele>
        <time>2026-08-25T05:38:15Z</time>
      </trkpt>
      <trkpt lat="42.80077" lon="1.40365">
        <ele>606</ele>
        <time>2026-08-25T05:38:30Z</time>
      </trkpt>
      <trkpt lat="42.80073" lon="1.40359">
        <ele>606</ele>
        <time>2026-08-25T05:38:45Z</time>
      </trkpt>
      <trkpt lat="42.80069" lon="1.40355">
        <ele>606</ele>
        <time>2026-08-25T05:39:00Z</time>
      </trkpt>
      <trkpt lat="42.80066" lon="1.40348">
        <ele>606</ele>
        <time>2026-08-25T05:39:15Z</time>
      </trkpt>
      <trkpt lat="42.80061" lon="1.40346">
        <ele>607</ele>
        <time>2026-08-25T05:39:25Z</time>
      </trkpt>
      <trkpt lat="42.80056" lon="1.4035">
        <ele>607</ele>
        <time>2026-08-25T05:39:43Z</time>
      </trkpt>
      <trkpt lat="42.80047" lon="1.40357">
        <ele>607</ele>
        <time>2026-08-25T05:40:05Z</time>
      </trkpt>
      <trkpt lat="42.80043" lon="1.40351">
        <ele>607</ele>
        <time>2026-08-25T05:40:25Z</time>
      </trkpt>
      <trkpt lat="42.80042" lon="1.40359">
        <ele>607</ele>
        <time>2026-08-25T05:40:40Z</time>
      </trkpt>
      <trkpt lat="42.80038" lon="1.40365">
        <ele>607</ele>
        <time>2026-08-25T05:40:50Z</time>
      </trkpt>
      <trkpt lat="42.80034" lon="1.40361">
        <ele>608</ele>
        <time>2026-08-25T05:41:00Z</time>
      </trkpt>
      <trkpt lat="42.8003" lon="1.40356">
        <ele>608</ele>
        <time>2026-08-25T05:41:15Z</time>
      </trkpt>
      <trkpt lat="42.80025" lon="1.40354">
        <ele>608</ele>
        <time>2026-08-25T05:41:30Z</time>
      </trkpt>
      <trkpt lat="42.80021" lon="1.40351">
        <ele>608</ele>
        <time>2026-08-25T05:41:46Z</time>
      </trkpt>
      <trkpt lat="42.8002" lon="1.40345">
        <ele>608</ele>
        <time>2026-08-25T05:41:57Z</time>
      </trkpt>
      <trkpt lat="42.80019" lon="1.40339">
        <ele>608</ele>
        <time>2026-08-25T05:42:07Z</time>
      </trkpt>
      <trkpt lat="42.80013" lon="1.40333">
        <ele>608</ele>
        <time>2026-08-25T05:42:17Z</time>
      </trkpt>
      <trkpt lat="42.80008" lon="1.40327">
        <ele>609</ele>
        <time>2026-08-25T05:43:14Z</time>
      </trkpt>
      <trkpt lat="42.79999" lon="1.40307">
        <ele>609</ele>
        <time>2026-08-25T05:43:42Z</time>
      </trkpt>
      <trkpt lat="42.79996" lon="1.40302">
        <ele>609</ele>
        <time>2026-08-25T05:43:53Z</time>
      </trkpt>
      <trkpt lat="42.7999" lon="1.40304">
        <ele>609</ele>
        <time>2026-08-25T05:44:14Z</time>
      </trkpt>
      <trkpt lat="42.79988" lon="1.40298">
        <ele>610</ele>
        <time>2026-08-25T05:44:24Z</time>
      </trkpt>
      <trkpt lat="42.79982" lon="1.40298">
        <ele>610</ele>
        <time>2026-08-25T05:44:44Z</time>
      </trkpt>
      <trkpt lat="42.79977" lon="1.40298">
        <ele>610</ele>
        <time>2026-08-25T05:44:54Z</time>
      </trkpt>
      <trkpt lat="42.79969" lon="1.4029">
        <ele>610</ele>
        <time>2026-08-25T05:45:19Z</time>
      </trkpt>
      <trkpt lat="42.79964" lon="1.40289">
        <ele>610</ele>
        <time>2026-08-25T05:45:34Z</time>
      </trkpt>
      <trkpt lat="42.7996" lon="1.40286">
        <ele>610</ele>
        <time>2026-08-25T05:45:44Z</time>
      </trkpt>
      <trkpt lat="42.79953" lon="1.40285">
        <ele>611</ele>
        <time>2026-08-25T05:46:01Z</time>
      </trkpt>
      <trkpt lat="42.79944" lon="1.40286">
        <ele>611</ele>
        <time>2026-08-25T05:46:21Z</time>
      </trkpt>
      <trkpt lat="42.79938" lon="1.40282">
        <ele>611</ele>
        <time>2026-08-25T05:46:39Z</time>
      </trkpt>
      <trkpt lat="42.79934" lon="1.40276">
        <ele>611</ele>
        <time>2026-08-25T05:46:51Z</time>
      </trkpt>
      <trkpt lat="42.79929" lon="1.40265">
        <ele>611</ele>
        <time>2026-08-25T05:47:21Z</time>
      </trkpt>
      <trkpt lat="42.79928" lon="1.4026">
        <ele>611</ele>
        <time>2026-08-25T05:47:31Z</time>
      </trkpt>
      <trkpt lat="42.79926" lon="1.40256">
        <ele>611</ele>
        <time>2026-08-25T05:47:36Z</time>
      </trkpt>
      <trkpt lat="42.79923" lon="1.40252">
        <ele>612</ele>
        <time>2026-08-25T05:47:41Z</time>
      </trkpt>
      <trkpt lat="42.79913" lon="1.40243">
        <ele>612</ele>
        <time>2026-08-25T05:47:52Z</time>
      </trkpt>
      <trkpt lat="42.79898" lon="1.4022">
        <ele>612</ele>
        <time>2026-08-25T05:48:19Z</time>
      </trkpt>
      <trkpt lat="42.79895" lon="1.40218">
        <ele>612</ele>
        <time>2026-08-25T05:48:29Z</time>
      </trkpt>
      <trkpt lat="42.79893" lon="1.40212">
        <ele>612</ele>
        <time>2026-08-25T05:48:39Z</time>
      </trkpt>
      <trkpt lat="42.79892" lon="1.40206">
        <ele>612</ele>
        <time>2026-08-25T05:48:49Z</time>
      </trkpt>
      <trkpt lat="42.79895" lon="1.40202">
        <ele>612</ele>
        <time>2026-08-25T05:48:59Z</time>
      </trkpt>
      <trkpt lat="42.79894" lon="1.40196">
        <ele>612</ele>
        <time>2026-08-25T05:49:09Z</time>
      </trkpt>
      <trkpt lat="42.79893" lon="1.40191">
        <ele>613</ele>
        <time>2026-08-25T05:49:24Z</time>
      </trkpt>
      <trkpt lat="42.7989" lon="1.40186">
        <ele>613</ele>
        <time>2026-08-25T05:49:44Z</time>
      </trkpt>
      <trkpt lat="42.79887" lon="1.40181">
        <ele>613</ele>
        <time>2026-08-25T05:49:59Z</time>
      </trkpt>
      <trkpt lat="42.79883" lon="1.40176">
        <ele>613</ele>
        <time>2026-08-25T05:50:22Z</time>
      </trkpt>
      <trkpt lat="42.79875" lon="1.40177">
        <ele>613</ele>
        <time>2026-08-25T05:50:57Z</time>
      </trkpt>
      <trkpt lat="42.79872" lon="1.40176">
        <ele>614</ele>
        <time>2026-08-25T05:51:07Z</time>
      </trkpt>
      <trkpt lat="42.79869" lon="1.40173">
        <ele>614</ele>
        <time>2026-08-25T05:51:32Z</time>
      </trkpt>
      <trkpt lat="42.79869" lon="1.40168">
        <ele>614</ele>
        <time>2026-08-25T05:51:42Z</time>
      </trkpt>
      <trkpt lat="42.79871" lon="1.40162">
        <ele>614</ele>
        <time>2026-08-25T05:51:57Z</time>
      </trkpt>
      <trkpt lat="42.79869" lon="1.40155">
        <ele>614</ele>
        <time>2026-08-25T05:52:19Z</time>
      </trkpt>
      <trkpt lat="42.79869" lon="1.4015">
        <ele>614</ele>
        <time>2026-08-25T05:52:35Z</time>
      </trkpt>
      <trkpt lat="42.79866" lon="1.40147">
        <ele>615</ele>
        <time>2026-08-25T05:52:45Z</time>
      </trkpt>
      <trkpt lat="42.79863" lon="1.40145">
        <ele>615</ele>
        <time>2026-08-25T05:53:05Z</time>
      </trkpt>
      <trkpt lat="42.79859" lon="1.40139">
        <ele>615</ele>
        <time>2026-08-25T05:53:20Z</time>
      </trkpt>
      <trkpt lat="42.79857" lon="1.40136">
        <ele>615</ele>
        <time>2026-08-25T05:53:25Z</time>
      </trkpt>
      <trkpt lat="42.7985" lon="1.40127">
        <ele>615</ele>
        <time>2026-08-25T05:53:45Z</time>
      </trkpt>
      <trkpt lat="42.79847" lon="1.40121">
        <ele>615</ele>
        <time>2026-08-25T05:53:55Z</time>
      </trkpt>
      <trkpt lat="42.79846" lon="1.40116">
        <ele>617</ele>
        <time>2026-08-25T05:56:58Z</time>
      </trkpt>
      <trkpt lat="42.79846" lon="1.40118">
        <ele>620</ele>
        <time>2026-08-25T06:01:43Z</time>
      </trkpt>
      <trkpt lat="42.79846" lon="1.40128">
        <ele>621</ele>
        <time>2026-08-25T06:03:20Z</time>
      </trkpt>
      <trkpt lat="42.79841" lon="1.4013">
        <ele>621</ele>
        <time>2026-08-25T06:03:30Z</time>
      </trkpt>
      <trkpt lat="42.79833" lon="1.40137">
        <ele>621</ele>
        <time>2026-08-25T06:03:50Z</time>
      </trkpt>
      <trkpt lat="42.79832" lon="1.40144">
        <ele>621</ele>
        <time>2026-08-25T06:04:00Z</time>
      </trkpt>
      <trkpt lat="42.79832" lon="1.40147">
        <ele>621</ele>
        <time>2026-08-25T06:04:04Z</time>
      </trkpt>
      <trkpt lat="42.79832" lon="1.4015">
        <ele>621</ele>
        <time>2026-08-25T06:04:09Z</time>
      </trkpt>
      <trkpt lat="42.79832" lon="1.40156">
        <ele>622</ele>
        <time>2026-08-25T06:04:19Z</time>
      </trkpt>
      <trkpt lat="42.79828" lon="1.40156">
        <ele>622</ele>
        <time>2026-08-25T06:04:27Z</time>
      </trkpt>
      <trkpt lat="42.79827" lon="1.40161">
        <ele>622</ele>
        <time>2026-08-25T06:04:37Z</time>
      </trkpt>
      <trkpt lat="42.79825" lon="1.40163">
        <ele>622</ele>
        <time>2026-08-25T06:04:47Z</time>
      </trkpt>
      <trkpt lat="42.79819" lon="1.40166">
        <ele>622</ele>
        <time>2026-08-25T06:05:01Z</time>
      </trkpt>
      <trkpt lat="42.79817" lon="1.40167">
        <ele>622</ele>
        <time>2026-08-25T06:05:05Z</time>
      </trkpt>
      <trkpt lat="42.79815" lon="1.40175">
        <ele>622</ele>
        <time>2026-08-25T06:05:21Z</time>
      </trkpt>
      <trkpt lat="42.79814" lon="1.40177">
        <ele>622</ele>
        <time>2026-08-25T06:05:26Z</time>
      </trkpt>
      <trkpt lat="42.79813" lon="1.40181">
        <ele>622</ele>
        <time>2026-08-25T06:05:36Z</time>
      </trkpt>
      <trkpt lat="42.79815" lon="1.40184">
        <ele>622</ele>
        <time>2026-08-25T06:05:40Z</time>
      </trkpt>
      <trkpt lat="42.79813" lon="1.40188">
        <ele>622</ele>
        <time>2026-08-25T06:05:50Z</time>
      </trkpt>
      <trkpt lat="42.79814" lon="1.40191">
        <ele>622</ele>
        <time>2026-08-25T06:05:54Z</time>
      </trkpt>
      <trkpt lat="42.79811" lon="1.40195">
        <ele>623</ele>
        <time>2026-08-25T06:06:04Z</time>
      </trkpt>
      <trkpt lat="42.79807" lon="1.40196">
        <ele>623</ele>
        <time>2026-08-25T06:06:14Z</time>
      </trkpt>
      <trkpt lat="42.79802" lon="1.402">
        <ele>623</ele>
        <time>2026-08-25T06:06:28Z</time>
      </trkpt>
      <trkpt lat="42.798" lon="1.40201">
        <ele>623</ele>
        <time>2026-08-25T06:06:32Z</time>
      </trkpt>
      <trkpt lat="42.79796" lon="1.40204">
        <ele>623</ele>
        <time>2026-08-25T06:06:42Z</time>
      </trkpt>
      <trkpt lat="42.79798" lon="1.40206">
        <ele>623</ele>
        <time>2026-08-25T06:06:46Z</time>
      </trkpt>
      <trkpt lat="42.79796" lon="1.40211">
        <ele>623</ele>
        <time>2026-08-25T06:06:56Z</time>
      </trkpt>
      <trkpt lat="42.79793" lon="1.40218">
        <ele>623</ele>
        <time>2026-08-25T06:07:11Z</time>
      </trkpt>
      <trkpt lat="42.79792" lon="1.4022">
        <ele>623</ele>
        <time>2026-08-25T06:07:16Z</time>
      </trkpt>
      <trkpt lat="42.79792" lon="1.40225">
        <ele>623</ele>
        <time>2026-08-25T06:07:26Z</time>
      </trkpt>
      <trkpt lat="42.7979" lon="1.40229">
        <ele>623</ele>
        <time>2026-08-25T06:07:36Z</time>
      </trkpt>
      <trkpt lat="42.79788" lon="1.40233">
        <ele>624</ele>
        <time>2026-08-25T06:07:46Z</time>
      </trkpt>
      <trkpt lat="42.7979" lon="1.40234">
        <ele>624</ele>
        <time>2026-08-25T06:07:50Z</time>
      </trkpt>
      <trkpt lat="42.79791" lon="1.40237">
        <ele>624</ele>
        <time>2026-08-25T06:07:55Z</time>
      </trkpt>
      <trkpt lat="42.79793" lon="1.40239">
        <ele>624</ele>
        <time>2026-08-25T06:08:00Z</time>
      </trkpt>
      <trkpt lat="42.79793" lon="1.40242">
        <ele>624</ele>
        <time>2026-08-25T06:08:05Z</time>
      </trkpt>
      <trkpt lat="42.79791" lon="1.40246">
        <ele>624</ele>
        <time>2026-08-25T06:08:15Z</time>
      </trkpt>
      <trkpt lat="42.7979" lon="1.40249">
        <ele>624</ele>
        <time>2026-08-25T06:08:25Z</time>
      </trkpt>
      <trkpt lat="42.79791" lon="1.40254">
        <ele>624</ele>
        <time>2026-08-25T06:08:35Z</time>
      </trkpt>
      <trkpt lat="42.79793" lon="1.40258">
        <ele>624</ele>
        <time>2026-08-25T06:08:45Z</time>
      </trkpt>
      <trkpt lat="42.79791" lon="1.40267">
        <ele>624</ele>
        <time>2026-08-25T06:09:06Z</time>
      </trkpt>
      <trkpt lat="42.7979" lon="1.4027">
        <ele>624</ele>
        <time>2026-08-25T06:09:16Z</time>
      </trkpt>
      <trkpt lat="42.79789" lon="1.40274">
        <ele>625</ele>
        <time>2026-08-25T06:09:26Z</time>
      </trkpt>
      <trkpt lat="42.7979" lon="1.40277">
        <ele>625</ele>
        <time>2026-08-25T06:09:36Z</time>
      </trkpt>
      <trkpt lat="42.79791" lon="1.40279">
        <ele>625</ele>
        <time>2026-08-25T06:09:41Z</time>
      </trkpt>
      <trkpt lat="42.79789" lon="1.40283">
        <ele>625</ele>
        <time>2026-08-25T06:09:51Z</time>
      </trkpt>
      <trkpt lat="42.79788" lon="1.40286">
        <ele>625</ele>
        <time>2026-08-25T06:10:01Z</time>
      </trkpt>
      <trkpt lat="42.79784" lon="1.40288">
        <ele>625</ele>
        <time>2026-08-25T06:10:11Z</time>
      </trkpt>
      <trkpt lat="42.79783" lon="1.40291">
        <ele>625</ele>
        <time>2026-08-25T06:10:16Z</time>
      </trkpt>
      <trkpt lat="42.7978" lon="1.40301">
        <ele>625</ele>
        <time>2026-08-25T06:10:41Z</time>
      </trkpt>
      <trkpt lat="42.79779" lon="1.40305">
        <ele>625</ele>
        <time>2026-08-25T06:10:51Z</time>
      </trkpt>
      <trkpt lat="42.79774" lon="1.40311">
        <ele>626</ele>
        <time>2026-08-25T06:11:05Z</time>
      </trkpt>
      <trkpt lat="42.79773" lon="1.40313">
        <ele>626</ele>
        <time>2026-08-25T06:11:10Z</time>
      </trkpt>
      <trkpt lat="42.79764" lon="1.40321">
        <ele>626</ele>
        <time>2026-08-25T06:11:34Z</time>
      </trkpt>
      <trkpt lat="42.79762" lon="1.40323">
        <ele>626</ele>
        <time>2026-08-25T06:11:39Z</time>
      </trkpt>
      <trkpt lat="42.79759" lon="1.40326">
        <ele>626</ele>
        <time>2026-08-25T06:11:49Z</time>
      </trkpt>
      <trkpt lat="42.79756" lon="1.40329">
        <ele>626</ele>
        <time>2026-08-25T06:11:59Z</time>
      </trkpt>
      <trkpt lat="42.79746" lon="1.4034">
        <ele>626</ele>
        <time>2026-08-25T06:12:29Z</time>
      </trkpt>
      <trkpt lat="42.79741" lon="1.40345">
        <ele>627</ele>
        <time>2026-08-25T06:12:44Z</time>
      </trkpt>
      <trkpt lat="42.79735" lon="1.4035">
        <ele>627</ele>
        <time>2026-08-25T06:12:59Z</time>
      </trkpt>
      <trkpt lat="42.79728" lon="1.40358">
        <ele>627</ele>
        <time>2026-08-25T06:13:20Z</time>
      </trkpt>
      <trkpt lat="42.79721" lon="1.40365">
        <ele>627</ele>
        <time>2026-08-25T06:13:39Z</time>
      </trkpt>
      <trkpt lat="42.79718" lon="1.40373">
        <ele>627</ele>
        <time>2026-08-25T06:14:09Z</time>
      </trkpt>
      <trkpt lat="42.79713" lon="1.40378">
        <ele>628</ele>
        <time>2026-08-25T06:14:29Z</time>
      </trkpt>
      <trkpt lat="42.79707" lon="1.40389">
        <ele>628</ele>
        <time>2026-08-25T06:15:10Z</time>
      </trkpt>
      <trkpt lat="42.79703" lon="1.40396">
        <ele>628</ele>
        <time>2026-08-25T06:15:26Z</time>
      </trkpt>
      <trkpt lat="42.79698" lon="1.404">
        <ele>628</ele>
        <time>2026-08-25T06:15:41Z</time>
      </trkpt>
      <trkpt lat="42.79698" lon="1.40405">
        <ele>628</ele>
        <time>2026-08-25T06:15:56Z</time>
      </trkpt>
      <trkpt lat="42.79687" lon="1.40417">
        <ele>629</ele>
        <time>2026-08-25T06:16:26Z</time>
      </trkpt>
      <trkpt lat="42.79675" lon="1.40427">
        <ele>629</ele>
        <time>2026-08-25T06:16:54Z</time>
      </trkpt>
      <trkpt lat="42.79671" lon="1.4043">
        <ele>629</ele>
        <time>2026-08-25T06:17:02Z</time>
      </trkpt>
      <trkpt lat="42.79668" lon="1.40435">
        <ele>629</ele>
        <time>2026-08-25T06:17:11Z</time>
      </trkpt>
      <trkpt lat="42.79655" lon="1.40446">
        <ele>630</ele>
        <time>2026-08-25T06:17:40Z</time>
      </trkpt>
      <trkpt lat="42.79653" lon="1.40451">
        <ele>630</ele>
        <time>2026-08-25T06:17:48Z</time>
      </trkpt>
      <trkpt lat="42.79645" lon="1.40453">
        <ele>630</ele>
        <time>2026-08-25T06:18:12Z</time>
      </trkpt>
      <trkpt lat="42.79643" lon="1.40456">
        <ele>630</ele>
        <time>2026-08-25T06:18:17Z</time>
      </trkpt>
      <trkpt lat="42.79631" lon="1.4046">
        <ele>630</ele>
        <time>2026-08-25T06:18:34Z</time>
      </trkpt>
      <trkpt lat="42.79628" lon="1.4046">
        <ele>630</ele>
        <time>2026-08-25T06:18:38Z</time>
      </trkpt>
      <trkpt lat="42.79625" lon="1.40461">
        <ele>630</ele>
        <time>2026-08-25T06:18:48Z</time>
      </trkpt>
      <trkpt lat="42.79621" lon="1.40466">
        <ele>630</ele>
        <time>2026-08-25T06:18:57Z</time>
      </trkpt>
      <trkpt lat="42.79618" lon="1.40467">
        <ele>630</ele>
        <time>2026-08-25T06:19:07Z</time>
      </trkpt>
      <trkpt lat="42.79615" lon="1.40469">
        <ele>630</ele>
        <time>2026-08-25T06:19:11Z</time>
      </trkpt>
      <trkpt lat="42.79613" lon="1.4047">
        <ele>630</ele>
        <time>2026-08-25T06:19:17Z</time>
      </trkpt>
      <trkpt lat="42.79608" lon="1.40472">
        <ele>631</ele>
        <time>2026-08-25T06:19:25Z</time>
      </trkpt>
      <trkpt lat="42.79605" lon="1.40473">
        <ele>631</ele>
        <time>2026-08-25T06:19:28Z</time>
      </trkpt>
      <trkpt lat="42.796" lon="1.40474">
        <ele>631</ele>
        <time>2026-08-25T06:19:33Z</time>
      </trkpt>
      <trkpt lat="42.79598" lon="1.40475">
        <ele>631</ele>
        <time>2026-08-25T06:19:36Z</time>
      </trkpt>
      <trkpt lat="42.79587" lon="1.40474">
        <ele>631</ele>
        <time>2026-08-25T06:19:46Z</time>
      </trkpt>
      <trkpt lat="42.79583" lon="1.40475">
        <ele>631</ele>
        <time>2026-08-25T06:19:49Z</time>
      </trkpt>
      <trkpt lat="42.7958" lon="1.40475">
        <ele>631</ele>
        <time>2026-08-25T06:19:52Z</time>
      </trkpt>
      <trkpt lat="42.79575" lon="1.40476">
        <ele>631</ele>
        <time>2026-08-25T06:19:57Z</time>
      </trkpt>
      <trkpt lat="42.79563" lon="1.40478">
        <ele>631</ele>
        <time>2026-08-25T06:20:07Z</time>
      </trkpt>
      <trkpt lat="42.7956" lon="1.40481">
        <ele>631</ele>
        <time>2026-08-25T06:20:10Z</time>
      </trkpt>
      <trkpt lat="42.79557" lon="1.40481">
        <ele>631</ele>
        <time>2026-08-25T06:20:13Z</time>
      </trkpt>
      <trkpt lat="42.79552" lon="1.40483">
        <ele>631</ele>
        <time>2026-08-25T06:20:18Z</time>
      </trkpt>
      <trkpt lat="42.79546" lon="1.40483">
        <ele>631</ele>
        <time>2026-08-25T06:20:24Z</time>
      </trkpt>
      <trkpt lat="42.79543" lon="1.40485">
        <ele>631</ele>
        <time>2026-08-25T06:20:27Z</time>
      </trkpt>
      <trkpt lat="42.79523" lon="1.40487">
        <ele>631</ele>
        <time>2026-08-25T06:20:48Z</time>
      </trkpt>
      <trkpt lat="42.79518" lon="1.4049">
        <ele>631</ele>
        <time>2026-08-25T06:20:52Z</time>
      </trkpt>
      <trkpt lat="42.79513" lon="1.40497">
        <ele>632</ele>
        <time>2026-08-25T06:20:59Z</time>
      </trkpt>
      <trkpt lat="42.7951" lon="1.40501">
        <ele>632</ele>
        <time>2026-08-25T06:21:06Z</time>
      </trkpt>
      <trkpt lat="42.79509" lon="1.40504">
        <ele>632</ele>
        <time>2026-08-25T06:21:10Z</time>
      </trkpt>
      <trkpt lat="42.79511" lon="1.4051">
        <ele>632</ele>
        <time>2026-08-25T06:21:19Z</time>
      </trkpt>
      <trkpt lat="42.79512" lon="1.40515">
        <ele>632</ele>
        <time>2026-08-25T06:21:23Z</time>
      </trkpt>
      <trkpt lat="42.79509" lon="1.40527">
        <ele>632</ele>
        <time>2026-08-25T06:21:32Z</time>
      </trkpt>
      <trkpt lat="42.79507" lon="1.4053">
        <ele>632</ele>
        <time>2026-08-25T06:21:34Z</time>
      </trkpt>
      <trkpt lat="42.79501" lon="1.40535">
        <ele>632</ele>
        <time>2026-08-25T06:21:40Z</time>
      </trkpt>
      <trkpt lat="42.79495" lon="1.40536">
        <ele>632</ele>
        <time>2026-08-25T06:21:46Z</time>
      </trkpt>
      <trkpt lat="42.79493" lon="1.40537">
        <ele>632</ele>
        <time>2026-08-25T06:21:49Z</time>
      </trkpt>
      <trkpt lat="42.79492" lon="1.4054">
        <ele>632</ele>
        <time>2026-08-25T06:21:52Z</time>
      </trkpt>
      <trkpt lat="42.79484" lon="1.40547">
        <ele>632</ele>
        <time>2026-08-25T06:22:01Z</time>
      </trkpt>
      <trkpt lat="42.79475" lon="1.4056">
        <ele>632</ele>
        <time>2026-08-25T06:22:14Z</time>
      </trkpt>
      <trkpt lat="42.79473" lon="1.40561">
        <ele>632</ele>
        <time>2026-08-25T06:22:17Z</time>
      </trkpt>
      <trkpt lat="42.79469" lon="1.40565">
        <ele>632</ele>
        <time>2026-08-25T06:22:22Z</time>
      </trkpt>
      <trkpt lat="42.79464" lon="1.40569">
        <ele>632</ele>
        <time>2026-08-25T06:22:28Z</time>
      </trkpt>
      <trkpt lat="42.79456" lon="1.40581">
        <ele>632</ele>
        <time>2026-08-25T06:22:38Z</time>
      </trkpt>
      <trkpt lat="42.79445" lon="1.40591">
        <ele>633</ele>
        <time>2026-08-25T06:22:53Z</time>
      </trkpt>
      <trkpt lat="42.79434" lon="1.40607">
        <ele>633</ele>
        <time>2026-08-25T06:23:11Z</time>
      </trkpt>
      <trkpt lat="42.7943" lon="1.40612">
        <ele>633</ele>
        <time>2026-08-25T06:23:18Z</time>
      </trkpt>
      <trkpt lat="42.79424" lon="1.40612">
        <ele>633</ele>
        <time>2026-08-25T06:23:26Z</time>
      </trkpt>
      <trkpt lat="42.79417" lon="1.40613">
        <ele>633</ele>
        <time>2026-08-25T06:23:37Z</time>
      </trkpt>
      <trkpt lat="42.79412" lon="1.40614">
        <ele>633</ele>
        <time>2026-08-25T06:23:44Z</time>
      </trkpt>
      <trkpt lat="42.79408" lon="1.40617">
        <ele>633</ele>
        <time>2026-08-25T06:23:49Z</time>
      </trkpt>
      <trkpt lat="42.79406" lon="1.40617">
        <ele>633</ele>
        <time>2026-08-25T06:23:52Z</time>
      </trkpt>
      <trkpt lat="42.79397" lon="1.40619">
        <ele>633</ele>
        <time>2026-08-25T06:24:12Z</time>
      </trkpt>
      <trkpt lat="42.79392" lon="1.40622">
        <ele>634</ele>
        <time>2026-08-25T06:24:22Z</time>
      </trkpt>
      <trkpt lat="42.79386" lon="1.40622">
        <ele>634</ele>
        <time>2026-08-25T06:24:29Z</time>
      </trkpt>
      <trkpt lat="42.79383" lon="1.40623">
        <ele>634</ele>
        <time>2026-08-25T06:24:35Z</time>
      </trkpt>
      <trkpt lat="42.79381" lon="1.40624">
        <ele>634</ele>
        <time>2026-08-25T06:24:38Z</time>
      </trkpt>
      <trkpt lat="42.79379" lon="1.40623">
        <ele>634</ele>
        <time>2026-08-25T06:24:43Z</time>
      </trkpt>
      <trkpt lat="42.79371" lon="1.40625">
        <ele>634</ele>
        <time>2026-08-25T06:24:57Z</time>
      </trkpt>
      <trkpt lat="42.79364" lon="1.40621">
        <ele>634</ele>
        <time>2026-08-25T06:25:12Z</time>
      </trkpt>
      <trkpt lat="42.79361" lon="1.40618">
        <ele>634</ele>
        <time>2026-08-25T06:25:19Z</time>
      </trkpt>
      <trkpt lat="42.79358" lon="1.40618">
        <ele>634</ele>
        <time>2026-08-25T06:25:24Z</time>
      </trkpt>
      <trkpt lat="42.79351" lon="1.40617">
        <ele>634</ele>
        <time>2026-08-25T06:25:39Z</time>
      </trkpt>
      <trkpt lat="42.79347" lon="1.40619">
        <ele>634</ele>
        <time>2026-08-25T06:25:50Z</time>
      </trkpt>
      <trkpt lat="42.79342" lon="1.40621">
        <ele>635</ele>
        <time>2026-08-25T06:26:01Z</time>
      </trkpt>
      <trkpt lat="42.79339" lon="1.4062">
        <ele>635</ele>
        <time>2026-08-25T06:26:06Z</time>
      </trkpt>
      <trkpt lat="42.79329" lon="1.40622">
        <ele>635</ele>
        <time>2026-08-25T06:26:35Z</time>
      </trkpt>
      <trkpt lat="42.79327" lon="1.40625">
        <ele>635</ele>
        <time>2026-08-25T06:26:40Z</time>
      </trkpt>
      <trkpt lat="42.79324" lon="1.40626">
        <ele>635</ele>
        <time>2026-08-25T06:26:46Z</time>
      </trkpt>
      <trkpt lat="42.79321" lon="1.40624">
        <ele>635</ele>
        <time>2026-08-25T06:26:51Z</time>
      </trkpt>
      <trkpt lat="42.79317" lon="1.40625">
        <ele>635</ele>
        <time>2026-08-25T06:26:56Z</time>
      </trkpt>
      <trkpt lat="42.79311" lon="1.40629">
        <ele>635</ele>
        <time>2026-08-25T06:27:09Z</time>
      </trkpt>
      <trkpt lat="42.79308" lon="1.4063">
        <ele>635</ele>
        <time>2026-08-25T06:27:14Z</time>
      </trkpt>
      <trkpt lat="42.79293" lon="1.40627">
        <ele>636</ele>
        <time>2026-08-25T06:27:49Z</time>
      </trkpt>
      <trkpt lat="42.7929" lon="1.40628">
        <ele>636</ele>
        <time>2026-08-25T06:27:59Z</time>
      </trkpt>
      <trkpt lat="42.79288" lon="1.40628">
        <ele>636</ele>
        <time>2026-08-25T06:28:05Z</time>
      </trkpt>
      <trkpt lat="42.79284" lon="1.40626">
        <ele>636</ele>
        <time>2026-08-25T06:28:15Z</time>
      </trkpt>
      <trkpt lat="42.79281" lon="1.40625">
        <ele>636</ele>
        <time>2026-08-25T06:28:25Z</time>
      </trkpt>
      <trkpt lat="42.79278" lon="1.40625">
        <ele>636</ele>
        <time>2026-08-25T06:28:30Z</time>
      </trkpt>
      <trkpt lat="42.79274" lon="1.40626">
        <ele>636</ele>
        <time>2026-08-25T06:28:40Z</time>
      </trkpt>
      <trkpt lat="42.79267" lon="1.40632">
        <ele>636</ele>
        <time>2026-08-25T06:29:01Z</time>
      </trkpt>
      <trkpt lat="42.79263" lon="1.40634">
        <ele>636</ele>
        <time>2026-08-25T06:29:11Z</time>
      </trkpt>
      <trkpt lat="42.79259" lon="1.40637">
        <ele>637</ele>
        <time>2026-08-25T06:29:21Z</time>
      </trkpt>
      <trkpt lat="42.79249" lon="1.40649">
        <ele>637</ele>
        <time>2026-08-25T06:29:51Z</time>
      </trkpt>
      <trkpt lat="42.79247" lon="1.40652">
        <ele>637</ele>
        <time>2026-08-25T06:29:56Z</time>
      </trkpt>
      <trkpt lat="42.79244" lon="1.40657">
        <ele>637</ele>
        <time>2026-08-25T06:30:07Z</time>
      </trkpt>
      <trkpt lat="42.79233" lon="1.40673">
        <ele>637</ele>
        <time>2026-08-25T06:30:42Z</time>
      </trkpt>
      <trkpt lat="42.79229" lon="1.40677">
        <ele>637</ele>
        <time>2026-08-25T06:30:52Z</time>
      </trkpt>
      <trkpt lat="42.79222" lon="1.40688">
        <ele>638</ele>
        <time>2026-08-25T06:31:12Z</time>
      </trkpt>
      <trkpt lat="42.79212" lon="1.40698">
        <ele>638</ele>
        <time>2026-08-25T06:31:38Z</time>
      </trkpt>
      <trkpt lat="42.79206" lon="1.40707">
        <ele>638</ele>
        <time>2026-08-25T06:31:52Z</time>
      </trkpt>
      <trkpt lat="42.79203" lon="1.40712">
        <ele>638</ele>
        <time>2026-08-25T06:32:01Z</time>
      </trkpt>
      <trkpt lat="42.79201" lon="1.40715">
        <ele>638</ele>
        <time>2026-08-25T06:32:06Z</time>
      </trkpt>
      <trkpt lat="42.792" lon="1.40722">
        <ele>638</ele>
        <time>2026-08-25T06:32:14Z</time>
      </trkpt>
      <trkpt lat="42.79193" lon="1.4073">
        <ele>638</ele>
        <time>2026-08-25T06:32:29Z</time>
      </trkpt>
      <trkpt lat="42.79182" lon="1.40734">
        <ele>639</ele>
        <time>2026-08-25T06:32:54Z</time>
      </trkpt>
      <trkpt lat="42.79175" lon="1.40735">
        <ele>639</ele>
        <time>2026-08-25T06:33:09Z</time>
      </trkpt>
      <trkpt lat="42.79172" lon="1.40737">
        <ele>639</ele>
        <time>2026-08-25T06:33:19Z</time>
      </trkpt>
      <trkpt lat="42.7917" lon="1.40737">
        <ele>639</ele>
        <time>2026-08-25T06:33:24Z</time>
      </trkpt>
      <trkpt lat="42.79163" lon="1.40742">
        <ele>639</ele>
        <time>2026-08-25T06:33:39Z</time>
      </trkpt>
      <trkpt lat="42.79159" lon="1.40742">
        <ele>639</ele>
        <time>2026-08-25T06:33:49Z</time>
      </trkpt>
      <trkpt lat="42.79155" lon="1.40744">
        <ele>639</ele>
        <time>2026-08-25T06:34:08Z</time>
      </trkpt>
      <trkpt lat="42.79152" lon="1.40743">
        <ele>639</ele>
        <time>2026-08-25T06:34:14Z</time>
      </trkpt>
      <trkpt lat="42.79148" lon="1.40742">
        <ele>640</ele>
        <time>2026-08-25T06:34:23Z</time>
      </trkpt>
      <trkpt lat="42.79144" lon="1.40743">
        <ele>640</ele>
        <time>2026-08-25T06:34:33Z</time>
      </trkpt>
      <trkpt lat="42.79142" lon="1.40745">
        <ele>640</ele>
        <time>2026-08-25T06:34:37Z</time>
      </trkpt>
      <trkpt lat="42.79137" lon="1.40745">
        <ele>640</ele>
        <time>2026-08-25T06:34:47Z</time>
      </trkpt>
      <trkpt lat="42.79133" lon="1.40747">
        <ele>640</ele>
        <time>2026-08-25T06:34:56Z</time>
      </trkpt>
      <trkpt lat="42.79129" lon="1.40749">
        <ele>640</ele>
        <time>2026-08-25T06:35:06Z</time>
      </trkpt>
      <trkpt lat="42.79125" lon="1.40749">
        <ele>640</ele>
        <time>2026-08-25T06:35:16Z</time>
      </trkpt>
      <trkpt lat="42.79115" lon="1.4075">
        <ele>640</ele>
        <time>2026-08-25T06:35:41Z</time>
      </trkpt>
      <trkpt lat="42.79111" lon="1.40746">
        <ele>640</ele>
        <time>2026-08-25T06:35:51Z</time>
      </trkpt>
      <trkpt lat="42.79109" lon="1.40745">
        <ele>640</ele>
        <time>2026-08-25T06:35:56Z</time>
      </trkpt>
      <trkpt lat="42.79107" lon="1.40743">
        <ele>641</ele>
        <time>2026-08-25T06:36:06Z</time>
      </trkpt>
      <trkpt lat="42.79104" lon="1.40743">
        <ele>641</ele>
        <time>2026-08-25T06:36:11Z</time>
      </trkpt>
      <trkpt lat="42.79102" lon="1.40739">
        <ele>641</ele>
        <time>2026-08-25T06:36:19Z</time>
      </trkpt>
      <trkpt lat="42.79099" lon="1.40738">
        <ele>641</ele>
        <time>2026-08-25T06:36:29Z</time>
      </trkpt>
      <trkpt lat="42.79096" lon="1.40737">
        <ele>641</ele>
        <time>2026-08-25T06:36:34Z</time>
      </trkpt>
      <trkpt lat="42.79092" lon="1.40737">
        <ele>641</ele>
        <time>2026-08-25T06:36:44Z</time>
      </trkpt>
      <trkpt lat="42.79088" lon="1.40734">
        <ele>641</ele>
        <time>2026-08-25T06:36:54Z</time>
      </trkpt>
      <trkpt lat="42.79085" lon="1.40733">
        <ele>641</ele>
        <time>2026-08-25T06:37:04Z</time>
      </trkpt>
      <trkpt lat="42.79082" lon="1.4073">
        <ele>641</ele>
        <time>2026-08-25T06:37:14Z</time>
      </trkpt>
      <trkpt lat="42.79078" lon="1.40729">
        <ele>641</ele>
        <time>2026-08-25T06:37:24Z</time>
      </trkpt>
      <trkpt lat="42.79072" lon="1.40723">
        <ele>642</ele>
        <time>2026-08-25T06:37:39Z</time>
      </trkpt>
      <trkpt lat="42.7907" lon="1.40722">
        <ele>642</ele>
        <time>2026-08-25T06:37:43Z</time>
      </trkpt>
      <trkpt lat="42.79067" lon="1.40722">
        <ele>642</ele>
        <time>2026-08-25T06:37:48Z</time>
      </trkpt>
      <trkpt lat="42.79063" lon="1.40719">
        <ele>642</ele>
        <time>2026-08-25T06:37:58Z</time>
      </trkpt>
      <trkpt lat="42.79061" lon="1.40716">
        <ele>642</ele>
        <time>2026-08-25T06:38:08Z</time>
      </trkpt>
      <trkpt lat="42.79058" lon="1.40716">
        <ele>642</ele>
        <time>2026-08-25T06:38:12Z</time>
      </trkpt>
      <trkpt lat="42.79056" lon="1.40714">
        <ele>642</ele>
        <time>2026-08-25T06:38:16Z</time>
      </trkpt>
      <trkpt lat="42.7905" lon="1.40708">
        <ele>642</ele>
        <time>2026-08-25T06:38:32Z</time>
      </trkpt>
      <trkpt lat="42.79048" lon="1.40704">
        <ele>642</ele>
        <time>2026-08-25T06:38:37Z</time>
      </trkpt>
      <trkpt lat="42.79045" lon="1.407">
        <ele>642</ele>
        <time>2026-08-25T06:38:47Z</time>
      </trkpt>
      <trkpt lat="42.79042" lon="1.40699">
        <ele>642</ele>
        <time>2026-08-25T06:38:52Z</time>
      </trkpt>
      <trkpt lat="42.79037" lon="1.40695">
        <ele>642</ele>
        <time>2026-08-25T06:39:02Z</time>
      </trkpt>
      <trkpt lat="42.79032" lon="1.40689">
        <ele>642</ele>
        <time>2026-08-25T06:39:12Z</time>
      </trkpt>
      <trkpt lat="42.79027" lon="1.40686">
        <ele>643</ele>
        <time>2026-08-25T06:39:22Z</time>
      </trkpt>
      <trkpt lat="42.79021" lon="1.40676">
        <ele>643</ele>
        <time>2026-08-25T06:39:42Z</time>
      </trkpt>
      <trkpt lat="42.7902" lon="1.4067">
        <ele>643</ele>
        <time>2026-08-25T06:39:52Z</time>
      </trkpt>
      <trkpt lat="42.79018" lon="1.40666">
        <ele>643</ele>
        <time>2026-08-25T06:40:02Z</time>
      </trkpt>
      <trkpt lat="42.79007" lon="1.40667">
        <ele>646</ele>
        <time>2026-08-25T06:45:33Z</time>
      </trkpt>
      <trkpt lat="42.79" lon="1.40668">
        <ele>647</ele>
        <time>2026-08-25T06:47:12Z</time>
      </trkpt>
      <trkpt lat="42.78981" lon="1.40677">
        <ele>648</ele>
        <time>2026-08-25T06:47:40Z</time>
      </trkpt>
      <trkpt lat="42.78964" lon="1.40674">
        <ele>648</ele>
        <time>2026-08-25T06:48:06Z</time>
      </trkpt>
      <trkpt lat="42.78956" lon="1.40677">
        <ele>648</ele>
        <time>2026-08-25T06:48:15Z</time>
      </trkpt>
      <trkpt lat="42.78951" lon="1.40678">
        <ele>648</ele>
        <time>2026-08-25T06:48:21Z</time>
      </trkpt>
      <trkpt lat="42.78946" lon="1.40681">
        <ele>648</ele>
        <time>2026-08-25T06:48:27Z</time>
      </trkpt>
      <trkpt lat="42.78941" lon="1.40682">
        <ele>648</ele>
        <time>2026-08-25T06:48:33Z</time>
      </trkpt>
      <trkpt lat="42.78928" lon="1.40695">
        <ele>648</ele>
        <time>2026-08-25T06:48:53Z</time>
      </trkpt>
      <trkpt lat="42.78925" lon="1.40694">
        <ele>648</ele>
        <time>2026-08-25T06:48:57Z</time>
      </trkpt>
      <trkpt lat="42.78919" lon="1.40693">
        <ele>648</ele>
        <time>2026-08-25T06:49:06Z</time>
      </trkpt>
      <trkpt lat="42.78918" lon="1.40689">
        <ele>648</ele>
        <time>2026-08-25T06:49:11Z</time>
      </trkpt>
      <trkpt lat="42.78915" lon="1.40687">
        <ele>649</ele>
        <time>2026-08-25T06:49:22Z</time>
      </trkpt>
      <trkpt lat="42.78913" lon="1.40682">
        <ele>649</ele>
        <time>2026-08-25T06:49:32Z</time>
      </trkpt>
      <trkpt lat="42.78907" lon="1.40685">
        <ele>649</ele>
        <time>2026-08-25T06:49:42Z</time>
      </trkpt>
      <trkpt lat="42.78903" lon="1.40689">
        <ele>649</ele>
        <time>2026-08-25T06:49:50Z</time>
      </trkpt>
      <trkpt lat="42.78899" lon="1.40691">
        <ele>649</ele>
        <time>2026-08-25T06:49:59Z</time>
      </trkpt>
      <trkpt lat="42.78897" lon="1.40685">
        <ele>649</ele>
        <time>2026-08-25T06:50:08Z</time>
      </trkpt>
      <trkpt lat="42.78892" lon="1.40683">
        <ele>649</ele>
        <time>2026-08-25T06:50:23Z</time>
      </trkpt>
      <trkpt lat="42.78889" lon="1.40684">
        <ele>649</ele>
        <time>2026-08-25T06:50:29Z</time>
      </trkpt>
      <trkpt lat="42.78884" lon="1.40687">
        <ele>649</ele>
        <time>2026-08-25T06:50:39Z</time>
      </trkpt>
      <trkpt lat="42.7888" lon="1.40688">
        <ele>649</ele>
        <time>2026-08-25T06:50:49Z</time>
      </trkpt>
      <trkpt lat="42.78878" lon="1.40684">
        <ele>649</ele>
        <time>2026-08-25T06:50:54Z</time>
      </trkpt>
      <trkpt lat="42.78872" lon="1.40678">
        <ele>650</ele>
        <time>2026-08-25T06:51:09Z</time>
      </trkpt>
      <trkpt lat="42.78869" lon="1.40679">
        <ele>650</ele>
        <time>2026-08-25T06:51:13Z</time>
      </trkpt>
      <trkpt lat="42.78865" lon="1.40678">
        <ele>650</ele>
        <time>2026-08-25T06:51:16Z</time>
      </trkpt>
      <trkpt lat="42.78863" lon="1.40681">
        <ele>650</ele>
        <time>2026-08-25T06:51:21Z</time>
      </trkpt>
      <trkpt lat="42.7886" lon="1.40681">
        <ele>650</ele>
        <time>2026-08-25T06:51:25Z</time>
      </trkpt>
      <trkpt lat="42.78858" lon="1.40684">
        <ele>650</ele>
        <time>2026-08-25T06:51:28Z</time>
      </trkpt>
      <trkpt lat="42.78854" lon="1.40685">
        <ele>650</ele>
        <time>2026-08-25T06:51:34Z</time>
      </trkpt>
      <trkpt lat="42.78853" lon="1.40687">
        <ele>650</ele>
        <time>2026-08-25T06:51:38Z</time>
      </trkpt>
      <trkpt lat="42.78849" lon="1.40685">
        <ele>650</ele>
        <time>2026-08-25T06:51:48Z</time>
      </trkpt>
      <trkpt lat="42.78844" lon="1.40683">
        <ele>650</ele>
        <time>2026-08-25T06:51:58Z</time>
      </trkpt>
      <trkpt lat="42.78827" lon="1.40687">
        <ele>650</ele>
        <time>2026-08-25T06:52:23Z</time>
      </trkpt>
      <trkpt lat="42.78819" lon="1.40686">
        <ele>650</ele>
        <time>2026-08-25T06:52:34Z</time>
      </trkpt>
      <trkpt lat="42.78814" lon="1.4069">
        <ele>651</ele>
        <time>2026-08-25T06:52:43Z</time>
      </trkpt>
      <trkpt lat="42.78811" lon="1.40689">
        <ele>651</ele>
        <time>2026-08-25T06:52:48Z</time>
      </trkpt>
      <trkpt lat="42.78802" lon="1.4068">
        <ele>651</ele>
        <time>2026-08-25T06:53:03Z</time>
      </trkpt>
      <trkpt lat="42.78798" lon="1.40672">
        <ele>651</ele>
        <time>2026-08-25T06:53:14Z</time>
      </trkpt>
      <trkpt lat="42.78786" lon="1.40682">
        <ele>651</ele>
        <time>2026-08-25T06:53:39Z</time>
      </trkpt>
      <trkpt lat="42.78785" lon="1.40686">
        <ele>651</ele>
        <time>2026-08-25T06:53:43Z</time>
      </trkpt>
      <trkpt lat="42.78781" lon="1.4069">
        <ele>651</ele>
        <time>2026-08-25T06:53:53Z</time>
      </trkpt>
      <trkpt lat="42.78779" lon="1.40688">
        <ele>651</ele>
        <time>2026-08-25T06:53:58Z</time>
      </trkpt>
      <trkpt lat="42.78776" lon="1.4069">
        <ele>651</ele>
        <time>2026-08-25T06:54:03Z</time>
      </trkpt>
      <trkpt lat="42.78772" lon="1.40693">
        <ele>651</ele>
        <time>2026-08-25T06:54:10Z</time>
      </trkpt>
      <trkpt lat="42.78769" lon="1.40693">
        <ele>651</ele>
        <time>2026-08-25T06:54:15Z</time>
      </trkpt>
      <trkpt lat="42.78766" lon="1.40695">
        <ele>652</ele>
        <time>2026-08-25T06:54:20Z</time>
      </trkpt>
      <trkpt lat="42.78763" lon="1.40696">
        <ele>652</ele>
        <time>2026-08-25T06:54:25Z</time>
      </trkpt>
      <trkpt lat="42.78761" lon="1.40692">
        <ele>652</ele>
        <time>2026-08-25T06:54:29Z</time>
      </trkpt>
      <trkpt lat="42.78758" lon="1.40691">
        <ele>652</ele>
        <time>2026-08-25T06:54:36Z</time>
      </trkpt>
      <trkpt lat="42.78752" lon="1.40691">
        <ele>652</ele>
        <time>2026-08-25T06:54:45Z</time>
      </trkpt>
      <trkpt lat="42.78741" lon="1.40694">
        <ele>652</ele>
        <time>2026-08-25T06:54:58Z</time>
      </trkpt>
      <trkpt lat="42.78738" lon="1.40693">
        <ele>652</ele>
        <time>2026-08-25T06:55:02Z</time>
      </trkpt>
      <trkpt lat="42.78733" lon="1.40695">
        <ele>652</ele>
        <time>2026-08-25T06:55:09Z</time>
      </trkpt>
      <trkpt lat="42.78727" lon="1.40694">
        <ele>652</ele>
        <time>2026-08-25T06:55:17Z</time>
      </trkpt>
      <trkpt lat="42.78724" lon="1.40695">
        <ele>652</ele>
        <time>2026-08-25T06:55:52Z</time>
      </trkpt>
      <trkpt lat="42.78722" lon="1.40693">
        <ele>652</ele>
        <time>2026-08-25T06:55:55Z</time>
      </trkpt>
      <trkpt lat="42.78719" lon="1.40693">
        <ele>653</ele>
        <time>2026-08-25T06:56:01Z</time>
      </trkpt>
      <trkpt lat="42.78712" lon="1.40693">
        <ele>653</ele>
        <time>2026-08-25T06:56:09Z</time>
      </trkpt>
      <trkpt lat="42.78707" lon="1.4069">
        <ele>653</ele>
        <time>2026-08-25T06:56:17Z</time>
      </trkpt>
      <trkpt lat="42.78702" lon="1.40691">
        <ele>653</ele>
        <time>2026-08-25T06:56:24Z</time>
      </trkpt>
      <trkpt lat="42.78699" lon="1.40689">
        <ele>653</ele>
        <time>2026-08-25T06:56:30Z</time>
      </trkpt>
      <trkpt lat="42.78694" lon="1.40686">
        <ele>653</ele>
        <time>2026-08-25T06:56:39Z</time>
      </trkpt>
      <trkpt lat="42.78679" lon="1.40683">
        <ele>653</ele>
        <time>2026-08-25T06:56:55Z</time>
      </trkpt>
      <trkpt lat="42.78675" lon="1.40682">
        <ele>653</ele>
        <time>2026-08-25T06:57:00Z</time>
      </trkpt>
      <trkpt lat="42.78672" lon="1.40681">
        <ele>653</ele>
        <time>2026-08-25T06:57:04Z</time>
      </trkpt>
      <trkpt lat="42.78667" lon="1.40679">
        <ele>653</ele>
        <time>2026-08-25T06:57:11Z</time>
      </trkpt>
      <trkpt lat="42.78658" lon="1.4068">
        <ele>653</ele>
        <time>2026-08-25T06:57:23Z</time>
      </trkpt>
      <trkpt lat="42.78652" lon="1.40676">
        <ele>653</ele>
        <time>2026-08-25T06:57:31Z</time>
      </trkpt>
      <trkpt lat="42.78647" lon="1.40676">
        <ele>653</ele>
        <time>2026-08-25T06:57:37Z</time>
      </trkpt>
      <trkpt lat="42.78642" lon="1.40672">
        <ele>654</ele>
        <time>2026-08-25T06:57:41Z</time>
      </trkpt>
      <trkpt lat="42.78634" lon="1.40672">
        <ele>654</ele>
        <time>2026-08-25T06:57:49Z</time>
      </trkpt>
      <trkpt lat="42.78631" lon="1.40671">
        <ele>654</ele>
        <time>2026-08-25T06:57:52Z</time>
      </trkpt>
      <trkpt lat="42.78629" lon="1.40668">
        <ele>654</ele>
        <time>2026-08-25T06:57:54Z</time>
      </trkpt>
      <trkpt lat="42.78626" lon="1.40666">
        <ele>654</ele>
        <time>2026-08-25T06:57:57Z</time>
      </trkpt>
      <trkpt lat="42.78623" lon="1.40666">
        <ele>654</ele>
        <time>2026-08-25T06:58:00Z</time>
      </trkpt>
      <trkpt lat="42.78588" lon="1.40659">
        <ele>654</ele>
        <time>2026-08-25T06:58:33Z</time>
      </trkpt>
      <trkpt lat="42.7857" lon="1.40653">
        <ele>654</ele>
        <time>2026-08-25T06:59:10Z</time>
      </trkpt>
      <trkpt lat="42.78563" lon="1.40649">
        <ele>655</ele>
        <time>2026-08-25T06:59:19Z</time>
      </trkpt>
      <trkpt lat="42.7856" lon="1.40644">
        <ele>655</ele>
        <time>2026-08-25T06:59:23Z</time>
      </trkpt>
      <trkpt lat="42.7855" lon="1.40642">
        <ele>655</ele>
        <time>2026-08-25T06:59:37Z</time>
      </trkpt>
      <trkpt lat="42.78546" lon="1.40635">
        <ele>655</ele>
        <time>2026-08-25T06:59:43Z</time>
      </trkpt>
      <trkpt lat="42.78544" lon="1.4063">
        <ele>655</ele>
        <time>2026-08-25T06:59:49Z</time>
      </trkpt>
      <trkpt lat="42.78542" lon="1.40627">
        <ele>655</ele>
        <time>2026-08-25T06:59:53Z</time>
      </trkpt>
      <trkpt lat="42.78533" lon="1.40609">
        <ele>655</ele>
        <time>2026-08-25T07:00:13Z</time>
      </trkpt>
      <trkpt lat="42.78531" lon="1.40603">
        <ele>655</ele>
        <time>2026-08-25T07:00:19Z</time>
      </trkpt>
      <trkpt lat="42.78528" lon="1.40601">
        <ele>655</ele>
        <time>2026-08-25T07:00:26Z</time>
      </trkpt>
      <trkpt lat="42.78519" lon="1.40599">
        <ele>655</ele>
        <time>2026-08-25T07:00:36Z</time>
      </trkpt>
      <trkpt lat="42.78517" lon="1.40597">
        <ele>655</ele>
        <time>2026-08-25T07:00:39Z</time>
      </trkpt>
      <trkpt lat="42.78507" lon="1.40594">
        <ele>655</ele>
        <time>2026-08-25T07:00:54Z</time>
      </trkpt>
      <trkpt lat="42.78499" lon="1.40589">
        <ele>656</ele>
        <time>2026-08-25T07:01:02Z</time>
      </trkpt>
      <trkpt lat="42.78496" lon="1.40591">
        <ele>656</ele>
        <time>2026-08-25T07:01:05Z</time>
      </trkpt>
      <trkpt lat="42.78473" lon="1.40577">
        <ele>656</ele>
        <time>2026-08-25T07:01:36Z</time>
      </trkpt>
      <trkpt lat="42.78465" lon="1.40576">
        <ele>656</ele>
        <time>2026-08-25T07:01:46Z</time>
      </trkpt>
      <trkpt lat="42.78464" lon="1.40572">
        <ele>656</ele>
        <time>2026-08-25T07:01:49Z</time>
      </trkpt>
      <trkpt lat="42.78459" lon="1.40572">
        <ele>656</ele>
        <time>2026-08-25T07:01:57Z</time>
      </trkpt>
      <trkpt lat="42.78457" lon="1.4057">
        <ele>656</ele>
        <time>2026-08-25T07:02:01Z</time>
      </trkpt>
      <trkpt lat="42.78455" lon="1.40567">
        <ele>656</ele>
        <time>2026-08-25T07:02:04Z</time>
      </trkpt>
      <trkpt lat="42.78452" lon="1.40567">
        <ele>656</ele>
        <time>2026-08-25T07:02:07Z</time>
      </trkpt>
      <trkpt lat="42.78446" lon="1.40564">
        <ele>656</ele>
        <time>2026-08-25T07:02:13Z</time>
      </trkpt>
      <trkpt lat="42.78437" lon="1.40555">
        <ele>656</ele>
        <time>2026-08-25T07:02:24Z</time>
      </trkpt>
      <trkpt lat="42.78418" lon="1.40544">
        <ele>657</ele>
        <time>2026-08-25T07:02:46Z</time>
      </trkpt>
      <trkpt lat="42.7841" lon="1.4053">
        <ele>657</ele>
        <time>2026-08-25T07:03:00Z</time>
      </trkpt>
      <trkpt lat="42.78406" lon="1.40527">
        <ele>657</ele>
        <time>2026-08-25T07:03:03Z</time>
      </trkpt>
      <trkpt lat="42.78405" lon="1.40523">
        <ele>657</ele>
        <time>2026-08-25T07:03:07Z</time>
      </trkpt>
      <trkpt lat="42.78402" lon="1.40519">
        <ele>657</ele>
        <time>2026-08-25T07:03:11Z</time>
      </trkpt>
      <trkpt lat="42.78399" lon="1.40517">
        <ele>657</ele>
        <time>2026-08-25T07:03:15Z</time>
      </trkpt>
      <trkpt lat="42.78395" lon="1.40513">
        <ele>657</ele>
        <time>2026-08-25T07:03:21Z</time>
      </trkpt>
      <trkpt lat="42.78384" lon="1.40504">
        <ele>657</ele>
        <time>2026-08-25T07:03:42Z</time>
      </trkpt>
      <trkpt lat="42.78381" lon="1.40506">
        <ele>657</ele>
        <time>2026-08-25T07:03:45Z</time>
      </trkpt>
      <trkpt lat="42.78378" lon="1.40505">
        <ele>657</ele>
        <time>2026-08-25T07:03:48Z</time>
      </trkpt>
      <trkpt lat="42.78352" lon="1.40493">
        <ele>657</ele>
        <time>2026-08-25T07:04:15Z</time>
      </trkpt>
      <trkpt lat="42.78347" lon="1.40488">
        <ele>658</ele>
        <time>2026-08-25T07:04:21Z</time>
      </trkpt>
      <trkpt lat="42.78344" lon="1.40486">
        <ele>658</ele>
        <time>2026-08-25T07:04:24Z</time>
      </trkpt>
      <trkpt lat="42.78333" lon="1.4048">
        <ele>658</ele>
        <time>2026-08-25T07:04:35Z</time>
      </trkpt>
      <trkpt lat="42.78326" lon="1.40474">
        <ele>658</ele>
        <time>2026-08-25T07:04:44Z</time>
      </trkpt>
      <trkpt lat="42.78305" lon="1.40465">
        <ele>658</ele>
        <time>2026-08-25T07:05:10Z</time>
      </trkpt>
      <trkpt lat="42.78285" lon="1.4044">
        <ele>658</ele>
        <time>2026-08-25T07:05:41Z</time>
      </trkpt>
      <trkpt lat="42.78283" lon="1.40437">
        <ele>658</ele>
        <time>2026-08-25T07:05:46Z</time>
      </trkpt>
      <trkpt lat="42.78279" lon="1.40436">
        <ele>658</ele>
        <time>2026-08-25T07:05:51Z</time>
      </trkpt>
      <trkpt lat="42.78276" lon="1.40438">
        <ele>658</ele>
        <time>2026-08-25T07:05:54Z</time>
      </trkpt>
      <trkpt lat="42.78274" lon="1.40439">
        <ele>658</ele>
        <time>2026-08-25T07:05:57Z</time>
      </trkpt>
      <trkpt lat="42.78247" lon="1.40455">
        <ele>659</ele>
        <time>2026-08-25T07:06:24Z</time>
      </trkpt>
      <trkpt lat="42.78237" lon="1.40459">
        <ele>659</ele>
        <time>2026-08-25T07:06:34Z</time>
      </trkpt>
      <trkpt lat="42.78234" lon="1.40462">
        <ele>659</ele>
        <time>2026-08-25T07:06:38Z</time>
      </trkpt>
      <trkpt lat="42.78231" lon="1.40456">
        <ele>659</ele>
        <time>2026-08-25T07:07:08Z</time>
      </trkpt>
      <trkpt lat="42.78242" lon="1.4046">
        <ele>660</ele>
        <time>2026-08-25T07:08:28Z</time>
      </trkpt>
      <trkpt lat="42.78272" lon="1.40465">
        <ele>660</ele>
        <time>2026-08-25T07:08:56Z</time>
      </trkpt>
      <trkpt lat="42.78277" lon="1.40467">
        <ele>660</ele>
        <time>2026-08-25T07:09:00Z</time>
      </trkpt>
      <trkpt lat="42.78279" lon="1.40472">
        <ele>660</ele>
        <time>2026-08-25T07:09:03Z</time>
      </trkpt>
      <trkpt lat="42.78284" lon="1.40484">
        <ele>660</ele>
        <time>2026-08-25T07:09:12Z</time>
      </trkpt>
      <trkpt lat="42.78293" lon="1.40499">
        <ele>661</ele>
        <time>2026-08-25T07:09:27Z</time>
      </trkpt>
      <trkpt lat="42.78304" lon="1.40505">
        <ele>661</ele>
        <time>2026-08-25T07:09:39Z</time>
      </trkpt>
      <trkpt lat="42.7832" lon="1.40521">
        <ele>661</ele>
        <time>2026-08-25T07:09:56Z</time>
      </trkpt>
      <trkpt lat="42.78324" lon="1.4053">
        <ele>661</ele>
        <time>2026-08-25T07:10:02Z</time>
      </trkpt>
      <trkpt lat="42.78339" lon="1.40561">
        <ele>661</ele>
        <time>2026-08-25T07:10:28Z</time>
      </trkpt>
      <trkpt lat="42.78349" lon="1.40571">
        <ele>661</ele>
        <time>2026-08-25T07:10:39Z</time>
      </trkpt>
      <trkpt lat="42.78351" lon="1.40576">
        <ele>661</ele>
        <time>2026-08-25T07:10:42Z</time>
      </trkpt>
      <trkpt lat="42.78353" lon="1.40582">
        <ele>661</ele>
        <time>2026-08-25T07:10:46Z</time>
      </trkpt>
      <trkpt lat="42.78353" lon="1.40587">
        <ele>661</ele>
        <time>2026-08-25T07:10:50Z</time>
      </trkpt>
      <trkpt lat="42.78355" lon="1.40599">
        <ele>662</ele>
        <time>2026-08-25T07:10:58Z</time>
      </trkpt>
      <trkpt lat="42.78357" lon="1.40616">
        <ele>662</ele>
        <time>2026-08-25T07:11:10Z</time>
      </trkpt>
      <trkpt lat="42.78364" lon="1.40628">
        <ele>662</ele>
        <time>2026-08-25T07:11:40Z</time>
      </trkpt>
      <trkpt lat="42.78365" lon="1.40633">
        <ele>662</ele>
        <time>2026-08-25T07:11:43Z</time>
      </trkpt>
      <trkpt lat="42.78378" lon="1.40653">
        <ele>662</ele>
        <time>2026-08-25T07:12:04Z</time>
      </trkpt>
      <trkpt lat="42.7838" lon="1.40661">
        <ele>662</ele>
        <time>2026-08-25T07:12:09Z</time>
      </trkpt>
      <trkpt lat="42.78397" lon="1.40686">
        <ele>662</ele>
        <time>2026-08-25T07:12:31Z</time>
      </trkpt>
      <trkpt lat="42.784" lon="1.40688">
        <ele>662</ele>
        <time>2026-08-25T07:12:35Z</time>
      </trkpt>
      <trkpt lat="42.78406" lon="1.40697">
        <ele>663</ele>
        <time>2026-08-25T07:12:43Z</time>
      </trkpt>
      <trkpt lat="42.78407" lon="1.40702">
        <ele>663</ele>
        <time>2026-08-25T07:12:46Z</time>
      </trkpt>
      <trkpt lat="42.78408" lon="1.40708">
        <ele>663</ele>
        <time>2026-08-25T07:12:50Z</time>
      </trkpt>
      <trkpt lat="42.78413" lon="1.40718">
        <ele>663</ele>
        <time>2026-08-25T07:13:00Z</time>
      </trkpt>
      <trkpt lat="42.78413" lon="1.40722">
        <ele>663</ele>
        <time>2026-08-25T07:13:03Z</time>
      </trkpt>
      <trkpt lat="42.78421" lon="1.40734">
        <ele>663</ele>
        <time>2026-08-25T07:13:15Z</time>
      </trkpt>
      <trkpt lat="42.78425" lon="1.40739">
        <ele>663</ele>
        <time>2026-08-25T07:13:19Z</time>
      </trkpt>
      <trkpt lat="42.7845" lon="1.40752">
        <ele>663</ele>
        <time>2026-08-25T07:13:45Z</time>
      </trkpt>
      <trkpt lat="42.78479" lon="1.40785">
        <ele>663</ele>
        <time>2026-08-25T07:14:16Z</time>
      </trkpt>
      <trkpt lat="42.78499" lon="1.40814">
        <ele>664</ele>
        <time>2026-08-25T07:14:41Z</time>
      </trkpt>
      <trkpt lat="42.78501" lon="1.40819">
        <ele>664</ele>
        <time>2026-08-25T07:14:44Z</time>
      </trkpt>
      <trkpt lat="42.78501" lon="1.40862">
        <ele>664</ele>
        <time>2026-08-25T07:15:11Z</time>
      </trkpt>
      <trkpt lat="42.78502" lon="1.40868">
        <ele>664</ele>
        <time>2026-08-25T07:15:15Z</time>
      </trkpt>
      <trkpt lat="42.785" lon="1.40882">
        <ele>664</ele>
        <time>2026-08-25T07:15:25Z</time>
      </trkpt>
      <trkpt lat="42.785" lon="1.40893">
        <ele>664</ele>
        <time>2026-08-25T07:15:32Z</time>
      </trkpt>
      <trkpt lat="42.78497" lon="1.40905">
        <ele>664</ele>
        <time>2026-08-25T07:15:41Z</time>
      </trkpt>
      <trkpt lat="42.78495" lon="1.40931">
        <ele>664</ele>
        <time>2026-08-25T07:15:56Z</time>
      </trkpt>
      <trkpt lat="42.78494" lon="1.40936">
        <ele>665</ele>
        <time>2026-08-25T07:15:59Z</time>
      </trkpt>
      <trkpt lat="42.78493" lon="1.40941">
        <ele>665</ele>
        <time>2026-08-25T07:16:02Z</time>
      </trkpt>
      <trkpt lat="42.78491" lon="1.40946">
        <ele>665</ele>
        <time>2026-08-25T07:16:05Z</time>
      </trkpt>
      <trkpt lat="42.7849" lon="1.40962">
        <ele>665</ele>
        <time>2026-08-25T07:16:21Z</time>
      </trkpt>
      <trkpt lat="42.78487" lon="1.40972">
        <ele>665</ele>
        <time>2026-08-25T07:16:28Z</time>
      </trkpt>
      <trkpt lat="42.78485" lon="1.40985">
        <ele>665</ele>
        <time>2026-08-25T07:16:37Z</time>
      </trkpt>
      <trkpt lat="42.78473" lon="1.41022">
        <ele>665</ele>
        <time>2026-08-25T07:17:05Z</time>
      </trkpt>
      <trkpt lat="42.78471" lon="1.41035">
        <ele>665</ele>
        <time>2026-08-25T07:17:14Z</time>
      </trkpt>
      <trkpt lat="42.7847" lon="1.41039">
        <ele>665</ele>
        <time>2026-08-25T07:17:17Z</time>
      </trkpt>
      <trkpt lat="42.7847" lon="1.41048">
        <ele>665</ele>
        <time>2026-08-25T07:17:24Z</time>
      </trkpt>
      <trkpt lat="42.7847" lon="1.41052">
        <ele>665</ele>
        <time>2026-08-25T07:17:27Z</time>
      </trkpt>
      <trkpt lat="42.7847" lon="1.41061">
        <ele>665</ele>
        <time>2026-08-25T07:17:32Z</time>
      </trkpt>
      <trkpt lat="42.78469" lon="1.4107">
        <ele>666</ele>
        <time>2026-08-25T07:17:38Z</time>
      </trkpt>
      <trkpt lat="42.78473" lon="1.41083">
        <ele>666</ele>
        <time>2026-08-25T07:17:47Z</time>
      </trkpt>
      <trkpt lat="42.78491" lon="1.41101">
        <ele>666</ele>
        <time>2026-08-25T07:18:07Z</time>
      </trkpt>
      <trkpt lat="42.78501" lon="1.41105">
        <ele>666</ele>
        <time>2026-08-25T07:18:37Z</time>
      </trkpt>
      <trkpt lat="42.78508" lon="1.41113">
        <ele>666</ele>
        <time>2026-08-25T07:18:45Z</time>
      </trkpt>
      <trkpt lat="42.78522" lon="1.41123">
        <ele>666</ele>
        <time>2026-08-25T07:19:01Z</time>
      </trkpt>
      <trkpt lat="42.78532" lon="1.41134">
        <ele>666</ele>
        <time>2026-08-25T07:19:14Z</time>
      </trkpt>
      <trkpt lat="42.78538" lon="1.4115">
        <ele>667</ele>
        <time>2026-08-25T07:19:25Z</time>
      </trkpt>
      <trkpt lat="42.78541" lon="1.41153">
        <ele>667</ele>
        <time>2026-08-25T07:19:29Z</time>
      </trkpt>
      <trkpt lat="42.78546" lon="1.41164">
        <ele>667</ele>
        <time>2026-08-25T07:19:37Z</time>
      </trkpt>
      <trkpt lat="42.78548" lon="1.4117">
        <ele>667</ele>
        <time>2026-08-25T07:19:41Z</time>
      </trkpt>
      <trkpt lat="42.78553" lon="1.41172">
        <ele>667</ele>
        <time>2026-08-25T07:19:47Z</time>
      </trkpt>
      <trkpt lat="42.7854" lon="1.41176">
        <ele>667</ele>
        <time>2026-08-25T07:20:33Z</time>
      </trkpt>
      <trkpt lat="42.78539" lon="1.41166">
        <ele>667</ele>
        <time>2026-08-25T07:20:56Z</time>
      </trkpt>
      <trkpt lat="42.78534" lon="1.41162">
        <ele>668</ele>
        <time>2026-08-25T07:21:02Z</time>
      </trkpt>
      <trkpt lat="42.78528" lon="1.41166">
        <ele>668</ele>
        <time>2026-08-25T07:21:11Z</time>
      </trkpt>
      <trkpt lat="42.78524" lon="1.41166">
        <ele>668</ele>
        <time>2026-08-25T07:21:16Z</time>
      </trkpt>
      <trkpt lat="42.78514" lon="1.41174">
        <ele>668</ele>
        <time>2026-08-25T07:22:02Z</time>
      </trkpt>
      <trkpt lat="42.78513" lon="1.41194">
        <ele>668</ele>
        <time>2026-08-25T07:22:21Z</time>
      </trkpt>
      <trkpt lat="42.78518" lon="1.412">
        <ele>668</ele>
        <time>2026-08-25T07:22:27Z</time>
      </trkpt>
      <trkpt lat="42.78524" lon="1.4122">
        <ele>669</ele>
        <time>2026-08-25T07:22:41Z</time>
      </trkpt>
      <trkpt lat="42.78524" lon="1.41226">
        <ele>669</ele>
        <time>2026-08-25T07:22:45Z</time>
      </trkpt>
      <trkpt lat="42.78529" lon="1.41232">
        <ele>669</ele>
        <time>2026-08-25T07:22:52Z</time>
      </trkpt>
      <trkpt lat="42.78546" lon="1.41246">
        <ele>669</ele>
        <time>2026-08-25T07:23:08Z</time>
      </trkpt>
      <trkpt lat="42.78551" lon="1.41254">
        <ele>669</ele>
        <time>2026-08-25T07:23:14Z</time>
      </trkpt>
      <trkpt lat="42.78555" lon="1.41264">
        <ele>669</ele>
        <time>2026-08-25T07:23:21Z</time>
      </trkpt>
      <trkpt lat="42.78558" lon="1.41268">
        <ele>669</ele>
        <time>2026-08-25T07:23:24Z</time>
      </trkpt>
      <trkpt lat="42.78562" lon="1.41278">
        <ele>669</ele>
        <time>2026-08-25T07:23:30Z</time>
      </trkpt>
      <trkpt lat="42.78564" lon="1.4129">
        <ele>669</ele>
        <time>2026-08-25T07:23:37Z</time>
      </trkpt>
      <trkpt lat="42.78566" lon="1.41296">
        <ele>669</ele>
        <time>2026-08-25T07:23:42Z</time>
      </trkpt>
      <trkpt lat="42.78567" lon="1.41302">
        <ele>669</ele>
        <time>2026-08-25T07:23:49Z</time>
      </trkpt>
      <trkpt lat="42.78567" lon="1.41307">
        <ele>669</ele>
        <time>2026-08-25T07:23:55Z</time>
      </trkpt>
      <trkpt lat="42.78568" lon="1.41315">
        <ele>669</ele>
        <time>2026-08-25T07:24:02Z</time>
      </trkpt>
      <trkpt lat="42.78568" lon="1.4132">
        <ele>669</ele>
        <time>2026-08-25T07:24:06Z</time>
      </trkpt>
      <trkpt lat="42.78567" lon="1.41326">
        <ele>669</ele>
        <time>2026-08-25T07:24:09Z</time>
      </trkpt>
      <trkpt lat="42.78567" lon="1.41331">
        <ele>669</ele>
        <time>2026-08-25T07:24:13Z</time>
      </trkpt>
      <trkpt lat="42.78566" lon="1.41337">
        <ele>669</ele>
        <time>2026-08-25T07:24:17Z</time>
      </trkpt>
      <trkpt lat="42.78567" lon="1.41325">
        <ele>670</ele>
        <time>2026-08-25T07:25:09Z</time>
      </trkpt>
      <trkpt lat="42.78568" lon="1.41306">
        <ele>670</ele>
        <time>2026-08-25T07:25:25Z</time>
      </trkpt>
      <trkpt lat="42.78567" lon="1.41296">
        <ele>670</ele>
        <time>2026-08-25T07:25:39Z</time>
      </trkpt>
      <trkpt lat="42.78566" lon="1.41288">
        <ele>670</ele>
        <time>2026-08-25T07:25:47Z</time>
      </trkpt>
      <trkpt lat="42.78556" lon="1.41277">
        <ele>671</ele>
        <time>2026-08-25T07:26:00Z</time>
      </trkpt>
      <trkpt lat="42.78541" lon="1.4127">
        <ele>671</ele>
        <time>2026-08-25T07:26:13Z</time>
      </trkpt>
      <trkpt lat="42.78536" lon="1.41269">
        <ele>671</ele>
        <time>2026-08-25T07:26:17Z</time>
      </trkpt>
      <trkpt lat="42.7853" lon="1.4127">
        <ele>671</ele>
        <time>2026-08-25T07:26:21Z</time>
      </trkpt>
      <trkpt lat="42.78525" lon="1.41273">
        <ele>671</ele>
        <time>2026-08-25T07:26:25Z</time>
      </trkpt>
      <trkpt lat="42.78519" lon="1.41274">
        <ele>671</ele>
        <time>2026-08-25T07:26:32Z</time>
      </trkpt>
      <trkpt lat="42.78513" lon="1.41273">
        <ele>671</ele>
        <time>2026-08-25T07:26:36Z</time>
      </trkpt>
      <trkpt lat="42.78502" lon="1.41275">
        <ele>671</ele>
        <time>2026-08-25T07:26:46Z</time>
      </trkpt>
      <trkpt lat="42.78476" lon="1.41267">
        <ele>671</ele>
        <time>2026-08-25T07:27:11Z</time>
      </trkpt>
      <trkpt lat="42.78472" lon="1.41264">
        <ele>671</ele>
        <time>2026-08-25T07:27:15Z</time>
      </trkpt>
      <trkpt lat="42.78458" lon="1.41248">
        <ele>671</ele>
        <time>2026-08-25T07:27:31Z</time>
      </trkpt>
      <trkpt lat="42.78452" lon="1.41238">
        <ele>672</ele>
        <time>2026-08-25T07:27:40Z</time>
      </trkpt>
      <trkpt lat="42.7845" lon="1.41229">
        <ele>672</ele>
        <time>2026-08-25T07:27:46Z</time>
      </trkpt>
      <trkpt lat="42.78443" lon="1.41216">
        <ele>672</ele>
        <time>2026-08-25T07:27:58Z</time>
      </trkpt>
      <trkpt lat="42.78438" lon="1.4122">
        <ele>672</ele>
        <time>2026-08-25T07:28:06Z</time>
      </trkpt>
      <trkpt lat="42.7844" lon="1.41234">
        <ele>672</ele>
        <time>2026-08-25T07:28:17Z</time>
      </trkpt>
      <trkpt lat="42.78441" lon="1.41238">
        <ele>672</ele>
        <time>2026-08-25T07:28:21Z</time>
      </trkpt>
      <trkpt lat="42.78443" lon="1.41252">
        <ele>672</ele>
        <time>2026-08-25T07:28:30Z</time>
      </trkpt>
      <trkpt lat="42.78455" lon="1.41298">
        <ele>672</ele>
        <time>2026-08-25T07:29:03Z</time>
      </trkpt>
      <trkpt lat="42.78456" lon="1.41311">
        <ele>672</ele>
        <time>2026-08-25T07:29:11Z</time>
      </trkpt>
      <trkpt lat="42.78454" lon="1.41333">
        <ele>673</ele>
        <time>2026-08-25T07:29:26Z</time>
      </trkpt>
      <trkpt lat="42.78455" lon="1.41361">
        <ele>673</ele>
        <time>2026-08-25T07:29:47Z</time>
      </trkpt>
      <trkpt lat="42.78457" lon="1.41372">
        <ele>673</ele>
        <time>2026-08-25T07:29:55Z</time>
      </trkpt>
      <trkpt lat="42.78455" lon="1.41368">
        <ele>673</ele>
        <time>2026-08-25T07:30:06Z</time>
      </trkpt>
      <trkpt lat="42.78451" lon="1.41373">
        <ele>673</ele>
        <time>2026-08-25T07:30:14Z</time>
      </trkpt>
      <trkpt lat="42.78445" lon="1.41373">
        <ele>673</ele>
        <time>2026-08-25T07:30:19Z</time>
      </trkpt>
      <trkpt lat="42.78443" lon="1.41366">
        <ele>673</ele>
        <time>2026-08-25T07:30:28Z</time>
      </trkpt>
      <trkpt lat="42.78443" lon="1.4136">
        <ele>673</ele>
        <time>2026-08-25T07:30:34Z</time>
      </trkpt>
      <trkpt lat="42.7844" lon="1.41354">
        <ele>673</ele>
        <time>2026-08-25T07:30:41Z</time>
      </trkpt>
      <trkpt lat="42.78437" lon="1.41345">
        <ele>673</ele>
        <time>2026-08-25T07:30:54Z</time>
      </trkpt>
      <trkpt lat="42.78432" lon="1.41343">
        <ele>674</ele>
        <time>2026-08-25T07:31:06Z</time>
      </trkpt>
      <trkpt lat="42.7843" lon="1.41339">
        <ele>674</ele>
        <time>2026-08-25T07:31:11Z</time>
      </trkpt>
      <trkpt lat="42.78428" lon="1.4133">
        <ele>674</ele>
        <time>2026-08-25T07:31:19Z</time>
      </trkpt>
      <trkpt lat="42.78425" lon="1.41327">
        <ele>674</ele>
        <time>2026-08-25T07:31:22Z</time>
      </trkpt>
      <trkpt lat="42.78422" lon="1.4132">
        <ele>674</ele>
        <time>2026-08-25T07:31:31Z</time>
      </trkpt>
      <trkpt lat="42.78419" lon="1.4133">
        <ele>674</ele>
        <time>2026-08-25T07:31:41Z</time>
      </trkpt>
      <trkpt lat="42.78415" lon="1.4134">
        <ele>674</ele>
        <time>2026-08-25T07:31:52Z</time>
      </trkpt>
      <trkpt lat="42.78413" lon="1.41347">
        <ele>674</ele>
        <time>2026-08-25T07:31:57Z</time>
      </trkpt>
      <trkpt lat="42.78409" lon="1.41345">
        <ele>674</ele>
        <time>2026-08-25T07:32:06Z</time>
      </trkpt>
      <trkpt lat="42.78404" lon="1.41342">
        <ele>674</ele>
        <time>2026-08-25T07:32:19Z</time>
      </trkpt>
      <trkpt lat="42.784" lon="1.41331">
        <ele>674</ele>
        <time>2026-08-25T07:32:28Z</time>
      </trkpt>
      <trkpt lat="42.78394" lon="1.41324">
        <ele>674</ele>
        <time>2026-08-25T07:32:35Z</time>
      </trkpt>
      <trkpt lat="42.78394" lon="1.41337">
        <ele>675</ele>
        <time>2026-08-25T07:32:44Z</time>
      </trkpt>
      <trkpt lat="42.78394" lon="1.41343">
        <ele>675</ele>
        <time>2026-08-25T07:32:48Z</time>
      </trkpt>
      <trkpt lat="42.78391" lon="1.41341">
        <ele>675</ele>
        <time>2026-08-25T07:32:59Z</time>
      </trkpt>
      <trkpt lat="42.78387" lon="1.4133">
        <ele>675</ele>
        <time>2026-08-25T07:33:07Z</time>
      </trkpt>
      <trkpt lat="42.7838" lon="1.41314">
        <ele>675</ele>
        <time>2026-08-25T07:33:20Z</time>
      </trkpt>
      <trkpt lat="42.78377" lon="1.41319">
        <ele>675</ele>
        <time>2026-08-25T07:33:26Z</time>
      </trkpt>
      <trkpt lat="42.78372" lon="1.41323">
        <ele>675</ele>
        <time>2026-08-25T07:33:41Z</time>
      </trkpt>
      <trkpt lat="42.78363" lon="1.4132">
        <ele>675</ele>
        <time>2026-08-25T07:34:16Z</time>
      </trkpt>
      <trkpt lat="42.78352" lon="1.41344">
        <ele>676</ele>
        <time>2026-08-25T07:34:40Z</time>
      </trkpt>
      <trkpt lat="42.78352" lon="1.4135">
        <ele>676</ele>
        <time>2026-08-25T07:34:44Z</time>
      </trkpt>
      <trkpt lat="42.78352" lon="1.41357">
        <ele>676</ele>
        <time>2026-08-25T07:34:52Z</time>
      </trkpt>
      <trkpt lat="42.78349" lon="1.41359">
        <ele>676</ele>
        <time>2026-08-25T07:34:55Z</time>
      </trkpt>
      <trkpt lat="42.78346" lon="1.41369">
        <ele>676</ele>
        <time>2026-08-25T07:35:02Z</time>
      </trkpt>
      <trkpt lat="42.78338" lon="1.41387">
        <ele>676</ele>
        <time>2026-08-25T07:35:14Z</time>
      </trkpt>
      <trkpt lat="42.78334" lon="1.41392">
        <ele>676</ele>
        <time>2026-08-25T07:35:19Z</time>
      </trkpt>
      <trkpt lat="42.78327" lon="1.41405">
        <ele>676</ele>
        <time>2026-08-25T07:35:29Z</time>
      </trkpt>
      <trkpt lat="42.78325" lon="1.41409">
        <ele>676</ele>
        <time>2026-08-25T07:35:32Z</time>
      </trkpt>
      <trkpt lat="42.7832" lon="1.41418">
        <ele>676</ele>
        <time>2026-08-25T07:35:40Z</time>
      </trkpt>
      <trkpt lat="42.78319" lon="1.41423">
        <ele>676</ele>
        <time>2026-08-25T07:35:42Z</time>
      </trkpt>
      <trkpt lat="42.78316" lon="1.41425">
        <ele>676</ele>
        <time>2026-08-25T07:35:46Z</time>
      </trkpt>
      <trkpt lat="42.78312" lon="1.41424">
        <ele>676</ele>
        <time>2026-08-25T07:35:49Z</time>
      </trkpt>
      <trkpt lat="42.78312" lon="1.41429">
        <ele>676</ele>
        <time>2026-08-25T07:35:52Z</time>
      </trkpt>
      <trkpt lat="42.78309" lon="1.41433">
        <ele>676</ele>
        <time>2026-08-25T07:35:55Z</time>
      </trkpt>
      <trkpt lat="42.783" lon="1.41434">
        <ele>677</ele>
        <time>2026-08-25T07:36:01Z</time>
      </trkpt>
      <trkpt lat="42.78297" lon="1.41435">
        <ele>677</ele>
        <time>2026-08-25T07:36:04Z</time>
      </trkpt>
      <trkpt lat="42.78287" lon="1.41445">
        <ele>677</ele>
        <time>2026-08-25T07:36:14Z</time>
      </trkpt>
      <trkpt lat="42.78278" lon="1.41465">
        <ele>677</ele>
        <time>2026-08-25T07:36:28Z</time>
      </trkpt>
      <trkpt lat="42.78279" lon="1.41462">
        <ele>677</ele>
        <time>2026-08-25T07:37:02Z</time>
      </trkpt>
      <trkpt lat="42.78261" lon="1.41484">
        <ele>677</ele>
        <time>2026-08-25T07:37:35Z</time>
      </trkpt>
      <trkpt lat="42.78257" lon="1.41486">
        <ele>678</ele>
        <time>2026-08-25T07:37:38Z</time>
      </trkpt>
      <trkpt lat="42.78235" lon="1.41505">
        <ele>678</ele>
        <time>2026-08-25T07:37:59Z</time>
      </trkpt>
      <trkpt lat="42.78231" lon="1.41508">
        <ele>678</ele>
        <time>2026-08-25T07:38:02Z</time>
      </trkpt>
      <trkpt lat="42.78228" lon="1.41509">
        <ele>678</ele>
        <time>2026-08-25T07:38:05Z</time>
      </trkpt>
      <trkpt lat="42.7822" lon="1.41513">
        <ele>678</ele>
        <time>2026-08-25T07:38:13Z</time>
      </trkpt>
      <trkpt lat="42.78212" lon="1.41525">
        <ele>678</ele>
        <time>2026-08-25T07:38:24Z</time>
      </trkpt>
      <trkpt lat="42.78206" lon="1.4154">
        <ele>678</ele>
        <time>2026-08-25T07:38:34Z</time>
      </trkpt>
      <trkpt lat="42.78204" lon="1.4155">
        <ele>678</ele>
        <time>2026-08-25T07:38:40Z</time>
      </trkpt>
      <trkpt lat="42.78201" lon="1.41559">
        <ele>678</ele>
        <time>2026-08-25T07:38:47Z</time>
      </trkpt>
      <trkpt lat="42.78199" lon="1.41564">
        <ele>678</ele>
        <time>2026-08-25T07:38:50Z</time>
      </trkpt>
      <trkpt lat="42.782" lon="1.41569">
        <ele>678</ele>
        <time>2026-08-25T07:38:54Z</time>
      </trkpt>
      <trkpt lat="42.78197" lon="1.41575">
        <ele>678</ele>
        <time>2026-08-25T07:39:02Z</time>
      </trkpt>
      <trkpt lat="42.78194" lon="1.41579">
        <ele>678</ele>
        <time>2026-08-25T07:39:07Z</time>
      </trkpt>
      <trkpt lat="42.7819" lon="1.41586">
        <ele>678</ele>
        <time>2026-08-25T07:39:16Z</time>
      </trkpt>
      <trkpt lat="42.78188" lon="1.41591">
        <ele>679</ele>
        <time>2026-08-25T07:39:19Z</time>
      </trkpt>
      <trkpt lat="42.78188" lon="1.41611">
        <ele>679</ele>
        <time>2026-08-25T07:39:33Z</time>
      </trkpt>
      <trkpt lat="42.78183" lon="1.41615">
        <ele>679</ele>
        <time>2026-08-25T07:39:38Z</time>
      </trkpt>
      <trkpt lat="42.78181" lon="1.41619">
        <ele>679</ele>
        <time>2026-08-25T07:39:41Z</time>
      </trkpt>
      <trkpt lat="42.78178" lon="1.41622">
        <ele>679</ele>
        <time>2026-08-25T07:39:45Z</time>
      </trkpt>
      <trkpt lat="42.78168" lon="1.4163">
        <ele>679</ele>
        <time>2026-08-25T07:39:55Z</time>
      </trkpt>
      <trkpt lat="42.78158" lon="1.41642">
        <ele>679</ele>
        <time>2026-08-25T07:40:06Z</time>
      </trkpt>
      <trkpt lat="42.78151" lon="1.41654">
        <ele>679</ele>
        <time>2026-08-25T07:40:16Z</time>
      </trkpt>
      <trkpt lat="42.78148" lon="1.41657">
        <ele>679</ele>
        <time>2026-08-25T07:40:19Z</time>
      </trkpt>
      <trkpt lat="42.78147" lon="1.41662">
        <ele>679</ele>
        <time>2026-08-25T07:40:23Z</time>
      </trkpt>
      <trkpt lat="42.78144" lon="1.41673">
        <ele>680</ele>
        <time>2026-08-25T07:41:23Z</time>
      </trkpt>
      <trkpt lat="42.78149" lon="1.41684">
        <ele>680</ele>
        <time>2026-08-25T07:41:29Z</time>
      </trkpt>
      <trkpt lat="42.78145" lon="1.41693">
        <ele>680</ele>
        <time>2026-08-25T07:41:41Z</time>
      </trkpt>
      <trkpt lat="42.7814" lon="1.41695">
        <ele>680</ele>
        <time>2026-08-25T07:41:46Z</time>
      </trkpt>
      <trkpt lat="42.78129" lon="1.41705">
        <ele>680</ele>
        <time>2026-08-25T07:41:58Z</time>
      </trkpt>
      <trkpt lat="42.78127" lon="1.4171">
        <ele>680</ele>
        <time>2026-08-25T07:42:02Z</time>
      </trkpt>
      <trkpt lat="42.7812" lon="1.41719">
        <ele>680</ele>
        <time>2026-08-25T07:42:09Z</time>
      </trkpt>
      <trkpt lat="42.78116" lon="1.41731">
        <ele>680</ele>
        <time>2026-08-25T07:42:17Z</time>
      </trkpt>
      <trkpt lat="42.78097" lon="1.41751">
        <ele>681</ele>
        <time>2026-08-25T07:42:38Z</time>
      </trkpt>
      <trkpt lat="42.7809" lon="1.41768">
        <ele>681</ele>
        <time>2026-08-25T07:42:49Z</time>
      </trkpt>
      <trkpt lat="42.78087" lon="1.41771">
        <ele>681</ele>
        <time>2026-08-25T07:42:52Z</time>
      </trkpt>
      <trkpt lat="42.78083" lon="1.41776">
        <ele>681</ele>
        <time>2026-08-25T07:42:57Z</time>
      </trkpt>
      <trkpt lat="42.78076" lon="1.41789">
        <ele>681</ele>
        <time>2026-08-25T07:43:06Z</time>
      </trkpt>
      <trkpt lat="42.78071" lon="1.41796">
        <ele>681</ele>
        <time>2026-08-25T07:43:13Z</time>
      </trkpt>
      <trkpt lat="42.78068" lon="1.41804">
        <ele>681</ele>
        <time>2026-08-25T07:43:20Z</time>
      </trkpt>
      <trkpt lat="42.78065" lon="1.41815">
        <ele>681</ele>
        <time>2026-08-25T07:43:27Z</time>
      </trkpt>
      <trkpt lat="42.78057" lon="1.41835">
        <ele>681</ele>
        <time>2026-08-25T07:43:41Z</time>
      </trkpt>
      <trkpt lat="42.78055" lon="1.41846">
        <ele>681</ele>
        <time>2026-08-25T07:43:49Z</time>
      </trkpt>
      <trkpt lat="42.78053" lon="1.41852">
        <ele>681</ele>
        <time>2026-08-25T07:43:56Z</time>
      </trkpt>
      <trkpt lat="42.7805" lon="1.41857">
        <ele>681</ele>
        <time>2026-08-25T07:44:02Z</time>
      </trkpt>
      <trkpt lat="42.78045" lon="1.41871">
        <ele>681</ele>
        <time>2026-08-25T07:44:13Z</time>
      </trkpt>
      <trkpt lat="42.78041" lon="1.41877">
        <ele>682</ele>
        <time>2026-08-25T07:44:22Z</time>
      </trkpt>
      <trkpt lat="42.78032" lon="1.41896">
        <ele>682</ele>
        <time>2026-08-25T07:44:40Z</time>
      </trkpt>
      <trkpt lat="42.7803" lon="1.41904">
        <ele>682</ele>
        <time>2026-08-25T07:44:47Z</time>
      </trkpt>
      <trkpt lat="42.78027" lon="1.41943">
        <ele>682</ele>
        <time>2026-08-25T07:45:16Z</time>
      </trkpt>
      <trkpt lat="42.78025" lon="1.41953">
        <ele>682</ele>
        <time>2026-08-25T07:45:23Z</time>
      </trkpt>
      <trkpt lat="42.78023" lon="1.41966">
        <ele>682</ele>
        <time>2026-08-25T07:45:32Z</time>
      </trkpt>
      <trkpt lat="42.78023" lon="1.41977">
        <ele>682</ele>
        <time>2026-08-25T07:45:40Z</time>
      </trkpt>
      <trkpt lat="42.7802" lon="1.41991">
        <ele>682</ele>
        <time>2026-08-25T07:45:50Z</time>
      </trkpt>
      <trkpt lat="42.78022" lon="1.42002">
        <ele>682</ele>
        <time>2026-08-25T07:45:57Z</time>
      </trkpt>
      <trkpt lat="42.78021" lon="1.4201">
        <ele>683</ele>
        <time>2026-08-25T07:46:03Z</time>
      </trkpt>
      <trkpt lat="42.78021" lon="1.42015">
        <ele>683</ele>
        <time>2026-08-25T07:46:06Z</time>
      </trkpt>
      <trkpt lat="42.78021" lon="1.42034">
        <ele>683</ele>
        <time>2026-08-25T07:46:19Z</time>
      </trkpt>
      <trkpt lat="42.78023" lon="1.42041">
        <ele>683</ele>
        <time>2026-08-25T07:46:25Z</time>
      </trkpt>
      <trkpt lat="42.78022" lon="1.42051">
        <ele>683</ele>
        <time>2026-08-25T07:46:31Z</time>
      </trkpt>
      <trkpt lat="42.7802" lon="1.42058">
        <ele>683</ele>
        <time>2026-08-25T07:46:37Z</time>
      </trkpt>
      <trkpt lat="42.7802" lon="1.42063">
        <ele>683</ele>
        <time>2026-08-25T07:46:40Z</time>
      </trkpt>
      <trkpt lat="42.78022" lon="1.42069">
        <ele>683</ele>
        <time>2026-08-25T07:46:48Z</time>
      </trkpt>
      <trkpt lat="42.7802" lon="1.42075">
        <ele>683</ele>
        <time>2026-08-25T07:46:54Z</time>
      </trkpt>
      <trkpt lat="42.78021" lon="1.42111">
        <ele>683</ele>
        <time>2026-08-25T07:47:19Z</time>
      </trkpt>
      <trkpt lat="42.78022" lon="1.42117">
        <ele>683</ele>
        <time>2026-08-25T07:47:25Z</time>
      </trkpt>
      <trkpt lat="42.7802" lon="1.42129">
        <ele>683</ele>
        <time>2026-08-25T07:47:35Z</time>
      </trkpt>
      <trkpt lat="42.7802" lon="1.42134">
        <ele>684</ele>
        <time>2026-08-25T07:47:39Z</time>
      </trkpt>
      <trkpt lat="42.78023" lon="1.42141">
        <ele>684</ele>
        <time>2026-08-25T07:47:44Z</time>
      </trkpt>
      <trkpt lat="42.78024" lon="1.42149">
        <ele>684</ele>
        <time>2026-08-25T07:47:52Z</time>
      </trkpt>
      <trkpt lat="42.78025" lon="1.42158">
        <ele>684</ele>
        <time>2026-08-25T07:48:00Z</time>
      </trkpt>
      <trkpt lat="42.78029" lon="1.42184">
        <ele>684</ele>
        <time>2026-08-25T07:48:21Z</time>
      </trkpt>
      <trkpt lat="42.78033" lon="1.42193">
        <ele>685</ele>
        <time>2026-08-25T07:49:28Z</time>
      </trkpt>
      <trkpt lat="42.78034" lon="1.42201">
        <ele>685</ele>
        <time>2026-08-25T07:49:33Z</time>
      </trkpt>
      <trkpt lat="42.78033" lon="1.42208">
        <ele>685</ele>
        <time>2026-08-25T07:49:41Z</time>
      </trkpt>
      <trkpt lat="42.78035" lon="1.42221">
        <ele>685</ele>
        <time>2026-08-25T07:49:53Z</time>
      </trkpt>
      <trkpt lat="42.78037" lon="1.42231">
        <ele>685</ele>
        <time>2026-08-25T07:50:02Z</time>
      </trkpt>
      <trkpt lat="42.7804" lon="1.42245">
        <ele>685</ele>
        <time>2026-08-25T07:50:14Z</time>
      </trkpt>
      <trkpt lat="42.78044" lon="1.42257">
        <ele>685</ele>
        <time>2026-08-25T07:50:31Z</time>
      </trkpt>
      <trkpt lat="42.78045" lon="1.42269">
        <ele>685</ele>
        <time>2026-08-25T07:50:39Z</time>
      </trkpt>
      <trkpt lat="42.78048" lon="1.42276">
        <ele>685</ele>
        <time>2026-08-25T07:50:47Z</time>
      </trkpt>
      <trkpt lat="42.78048" lon="1.42283">
        <ele>685</ele>
        <time>2026-08-25T07:50:53Z</time>
      </trkpt>
      <trkpt lat="42.78054" lon="1.42298">
        <ele>686</ele>
        <time>2026-08-25T07:51:03Z</time>
      </trkpt>
      <trkpt lat="42.78057" lon="1.4231">
        <ele>686</ele>
        <time>2026-08-25T07:51:14Z</time>
      </trkpt>
      <trkpt lat="42.78062" lon="1.42319">
        <ele>686</ele>
        <time>2026-08-25T07:51:25Z</time>
      </trkpt>
      <trkpt lat="42.78065" lon="1.42329">
        <ele>686</ele>
        <time>2026-08-25T07:51:36Z</time>
      </trkpt>
      <trkpt lat="42.78072" lon="1.42342">
        <ele>686</ele>
        <time>2026-08-25T07:51:50Z</time>
      </trkpt>
      <trkpt lat="42.78073" lon="1.42351">
        <ele>686</ele>
        <time>2026-08-25T07:51:55Z</time>
      </trkpt>
      <trkpt lat="42.78067" lon="1.42335">
        <ele>687</ele>
        <time>2026-08-25T07:53:07Z</time>
      </trkpt>
      <trkpt lat="42.7806" lon="1.42333">
        <ele>687</ele>
        <time>2026-08-25T07:53:25Z</time>
      </trkpt>
      <trkpt lat="42.7805" lon="1.42331">
        <ele>687</ele>
        <time>2026-08-25T07:53:39Z</time>
      </trkpt>
      <trkpt lat="42.78047" lon="1.42343">
        <ele>687</ele>
        <time>2026-08-25T07:53:52Z</time>
      </trkpt>
      <trkpt lat="42.78037" lon="1.42342">
        <ele>687</ele>
        <time>2026-08-25T07:54:08Z</time>
      </trkpt>
      <trkpt lat="42.78031" lon="1.42337">
        <ele>687</ele>
        <time>2026-08-25T07:54:15Z</time>
      </trkpt>
      <trkpt lat="42.78025" lon="1.42335">
        <ele>688</ele>
        <time>2026-08-25T07:54:21Z</time>
      </trkpt>
      <trkpt lat="42.78025" lon="1.42347">
        <ele>688</ele>
        <time>2026-08-25T07:54:37Z</time>
      </trkpt>
      <trkpt lat="42.78029" lon="1.42353">
        <ele>688</ele>
        <time>2026-08-25T07:54:42Z</time>
      </trkpt>
      <trkpt lat="42.7803" lon="1.4236">
        <ele>688</ele>
        <time>2026-08-25T07:54:47Z</time>
      </trkpt>
      <trkpt lat="42.78027" lon="1.42366">
        <ele>688</ele>
        <time>2026-08-25T07:54:51Z</time>
      </trkpt>
      <trkpt lat="42.78022" lon="1.42368">
        <ele>688</ele>
        <time>2026-08-25T07:54:55Z</time>
      </trkpt>
      <trkpt lat="42.7802" lon="1.42375">
        <ele>688</ele>
        <time>2026-08-25T07:55:00Z</time>
      </trkpt>
      <trkpt lat="42.78022" lon="1.42383">
        <ele>688</ele>
        <time>2026-08-25T07:55:04Z</time>
      </trkpt>
      <trkpt lat="42.78022" lon="1.42398">
        <ele>688</ele>
        <time>2026-08-25T07:55:13Z</time>
      </trkpt>
      <trkpt lat="42.78024" lon="1.42411">
        <ele>688</ele>
        <time>2026-08-25T07:55:20Z</time>
      </trkpt>
      <trkpt lat="42.78023" lon="1.42419">
        <ele>688</ele>
        <time>2026-08-25T07:55:24Z</time>
      </trkpt>
      <trkpt lat="42.78027" lon="1.42469">
        <ele>688</ele>
        <time>2026-08-25T07:55:55Z</time>
      </trkpt>
      <trkpt lat="42.78027" lon="1.42475">
        <ele>689</ele>
        <time>2026-08-25T07:55:58Z</time>
      </trkpt>
      <trkpt lat="42.78024" lon="1.42488">
        <ele>689</ele>
        <time>2026-08-25T07:56:07Z</time>
      </trkpt>
      <trkpt lat="42.78026" lon="1.42537">
        <ele>689</ele>
        <time>2026-08-25T07:56:39Z</time>
      </trkpt>
      <trkpt lat="42.78024" lon="1.42596">
        <ele>689</ele>
        <time>2026-08-25T07:57:13Z</time>
      </trkpt>
      <trkpt lat="42.78024" lon="1.42608">
        <ele>689</ele>
        <time>2026-08-25T07:57:18Z</time>
      </trkpt>
      <trkpt lat="42.7802" lon="1.42616">
        <ele>689</ele>
        <time>2026-08-25T07:57:23Z</time>
      </trkpt>
      <trkpt lat="42.78017" lon="1.42634">
        <ele>690</ele>
        <time>2026-08-25T07:58:02Z</time>
      </trkpt>
      <trkpt lat="42.78019" lon="1.42643">
        <ele>690</ele>
        <time>2026-08-25T07:58:07Z</time>
      </trkpt>
      <trkpt lat="42.78013" lon="1.42668">
        <ele>690</ele>
        <time>2026-08-25T07:58:23Z</time>
      </trkpt>
      <trkpt lat="42.78013" lon="1.42676">
        <ele>690</ele>
        <time>2026-08-25T07:58:28Z</time>
      </trkpt>
      <trkpt lat="42.78015" lon="1.42685">
        <ele>690</ele>
        <time>2026-08-25T07:58:33Z</time>
      </trkpt>
      <trkpt lat="42.78011" lon="1.42713">
        <ele>690</ele>
        <time>2026-08-25T07:58:52Z</time>
      </trkpt>
      <trkpt lat="42.78012" lon="1.42732">
        <ele>690</ele>
        <time>2026-08-25T07:59:01Z</time>
      </trkpt>
      <trkpt lat="42.78004" lon="1.42775">
        <ele>691</ele>
        <time>2026-08-25T07:59:28Z</time>
      </trkpt>
      <trkpt lat="42.78001" lon="1.42783">
        <ele>691</ele>
        <time>2026-08-25T07:59:34Z</time>
      </trkpt>
      <trkpt lat="42.78" lon="1.42796">
        <ele>691</ele>
        <time>2026-08-25T07:59:41Z</time>
      </trkpt>
      <trkpt lat="42.78003" lon="1.42806">
        <ele>691</ele>
        <time>2026-08-25T07:59:47Z</time>
      </trkpt>
      <trkpt lat="42.78006" lon="1.42866">
        <ele>691</ele>
        <time>2026-08-25T08:00:19Z</time>
      </trkpt>
      <trkpt lat="42.78007" lon="1.42878">
        <ele>691</ele>
        <time>2026-08-25T08:00:28Z</time>
      </trkpt>
      <trkpt lat="42.78012" lon="1.429">
        <ele>691</ele>
        <time>2026-08-25T08:00:39Z</time>
      </trkpt>
      <trkpt lat="42.78012" lon="1.42935">
        <ele>692</ele>
        <time>2026-08-25T08:01:00Z</time>
      </trkpt>
      <trkpt lat="42.78017" lon="1.42953">
        <ele>692</ele>
        <time>2026-08-25T08:01:12Z</time>
      </trkpt>
      <trkpt lat="42.78016" lon="1.42977">
        <ele>692</ele>
        <time>2026-08-25T08:01:28Z</time>
      </trkpt>
      <trkpt lat="42.7801" lon="1.42996">
        <ele>692</ele>
        <time>2026-08-25T08:01:41Z</time>
      </trkpt>
      <trkpt lat="42.78007" lon="1.43015">
        <ele>692</ele>
        <time>2026-08-25T08:01:50Z</time>
      </trkpt>
      <trkpt lat="42.78004" lon="1.43023">
        <ele>692</ele>
        <time>2026-08-25T08:01:55Z</time>
      </trkpt>
      <trkpt lat="42.78" lon="1.4305">
        <ele>692</ele>
        <time>2026-08-25T08:02:11Z</time>
      </trkpt>
      <trkpt lat="42.78" lon="1.43079">
        <ele>692</ele>
        <time>2026-08-25T08:02:28Z</time>
      </trkpt>
      <trkpt lat="42.77991" lon="1.43135">
        <ele>693</ele>
        <time>2026-08-25T08:03:02Z</time>
      </trkpt>
      <trkpt lat="42.77982" lon="1.43177">
        <ele>693</ele>
        <time>2026-08-25T08:03:25Z</time>
      </trkpt>
      <trkpt lat="42.77978" lon="1.43184">
        <ele>693</ele>
        <time>2026-08-25T08:03:32Z</time>
      </trkpt>
      <trkpt lat="42.77972" lon="1.43223">
        <ele>693</ele>
        <time>2026-08-25T08:03:56Z</time>
      </trkpt>
      <trkpt lat="42.77975" lon="1.43232">
        <ele>693</ele>
        <time>2026-08-25T08:04:01Z</time>
      </trkpt>
      <trkpt lat="42.77966" lon="1.43242">
        <ele>693</ele>
        <time>2026-08-25T08:04:11Z</time>
      </trkpt>
      <trkpt lat="42.77964" lon="1.43248">
        <ele>693</ele>
        <time>2026-08-25T08:04:15Z</time>
      </trkpt>
      <trkpt lat="42.77964" lon="1.43255">
        <ele>694</ele>
        <time>2026-08-25T08:04:20Z</time>
      </trkpt>
      <trkpt lat="42.77957" lon="1.43271">
        <ele>694</ele>
        <time>2026-08-25T08:04:32Z</time>
      </trkpt>
      <trkpt lat="42.77947" lon="1.43285">
        <ele>694</ele>
        <time>2026-08-25T08:04:43Z</time>
      </trkpt>
      <trkpt lat="42.77934" lon="1.43317">
        <ele>694</ele>
        <time>2026-08-25T08:05:04Z</time>
      </trkpt>
      <trkpt lat="42.77933" lon="1.43337">
        <ele>694</ele>
        <time>2026-08-25T08:05:14Z</time>
      </trkpt>
      <trkpt lat="42.7792" lon="1.43378">
        <ele>694</ele>
        <time>2026-08-25T08:05:48Z</time>
      </trkpt>
      <trkpt lat="42.77903" lon="1.43418">
        <ele>695</ele>
        <time>2026-08-25T08:06:20Z</time>
      </trkpt>
      <trkpt lat="42.77888" lon="1.43458">
        <ele>695</ele>
        <time>2026-08-25T08:06:49Z</time>
      </trkpt>
      <trkpt lat="42.77882" lon="1.43515">
        <ele>695</ele>
        <time>2026-08-25T08:07:24Z</time>
      </trkpt>
      <trkpt lat="42.77879" lon="1.43563">
        <ele>696</ele>
        <time>2026-08-25T08:08:11Z</time>
      </trkpt>
      <trkpt lat="42.77879" lon="1.43576">
        <ele>696</ele>
        <time>2026-08-25T08:08:18Z</time>
      </trkpt>
      <trkpt lat="42.7786" lon="1.43615">
        <ele>696</ele>
        <time>2026-08-25T08:08:54Z</time>
      </trkpt>
      <trkpt lat="42.77854" lon="1.43631">
        <ele>696</ele>
        <time>2026-08-25T08:09:12Z</time>
      </trkpt>
      <trkpt lat="42.77845" lon="1.4366">
        <ele>697</ele>
        <time>2026-08-25T08:09:32Z</time>
      </trkpt>
      <trkpt lat="42.7784" lon="1.4369">
        <ele>697</ele>
        <time>2026-08-25T08:09:52Z</time>
      </trkpt>
      <trkpt lat="42.77821" lon="1.43733">
        <ele>697</ele>
        <time>2026-08-25T08:10:20Z</time>
      </trkpt>
      <trkpt lat="42.77807" lon="1.43753">
        <ele>697</ele>
        <time>2026-08-25T08:10:36Z</time>
      </trkpt>
      <trkpt lat="42.77796" lon="1.43761">
        <ele>697</ele>
        <time>2026-08-25T08:10:47Z</time>
      </trkpt>
      <trkpt lat="42.77792" lon="1.43768">
        <ele>697</ele>
        <time>2026-08-25T08:10:52Z</time>
      </trkpt>
      <trkpt lat="42.77783" lon="1.43799">
        <ele>698</ele>
        <time>2026-08-25T08:11:14Z</time>
      </trkpt>
      <trkpt lat="42.77782" lon="1.4381">
        <ele>698</ele>
        <time>2026-08-25T08:11:21Z</time>
      </trkpt>
      <trkpt lat="42.77767" lon="1.43838">
        <ele>698</ele>
        <time>2026-08-25T08:11:43Z</time>
      </trkpt>
      <trkpt lat="42.77762" lon="1.43843">
        <ele>698</ele>
        <time>2026-08-25T08:11:49Z</time>
      </trkpt>
      <trkpt lat="42.77738" lon="1.43889">
        <ele>698</ele>
        <time>2026-08-25T08:12:21Z</time>
      </trkpt>
      <trkpt lat="42.77736" lon="1.43903">
        <ele>698</ele>
        <time>2026-08-25T08:12:28Z</time>
      </trkpt>
      <trkpt lat="42.7774" lon="1.4391">
        <ele>698</ele>
        <time>2026-08-25T08:12:37Z</time>
      </trkpt>
      <trkpt lat="42.77734" lon="1.43907">
        <ele>701</ele>
        <time>2026-08-25T08:16:18Z</time>
      </trkpt>
      <trkpt lat="42.77733" lon="1.439">
        <ele>701</ele>
        <time>2026-08-25T08:16:23Z</time>
      </trkpt>
      <trkpt lat="42.77735" lon="1.43892">
        <ele>701</ele>
        <time>2026-08-25T08:16:29Z</time>
      </trkpt>
      <trkpt lat="42.77738" lon="1.43887">
        <ele>701</ele>
        <time>2026-08-25T08:16:33Z</time>
      </trkpt>
      <trkpt lat="42.7774" lon="1.4388">
        <ele>701</ele>
        <time>2026-08-25T08:16:38Z</time>
      </trkpt>
      <trkpt lat="42.7774" lon="1.43872">
        <ele>701</ele>
        <time>2026-08-25T08:16:43Z</time>
      </trkpt>
      <trkpt lat="42.77735" lon="1.43849">
        <ele>701</ele>
        <time>2026-08-25T08:17:08Z</time>
      </trkpt>
      <trkpt lat="42.77736" lon="1.43861">
        <ele>712</ele>
        <time>2026-08-25T08:35:06Z</time>
      </trkpt>
      <trkpt lat="42.77738" lon="1.43868">
        <ele>712</ele>
        <time>2026-08-25T08:35:12Z</time>
      </trkpt>
      <trkpt lat="42.77739" lon="1.43881">
        <ele>712</ele>
        <time>2026-08-25T08:35:30Z</time>
      </trkpt>
      <trkpt lat="42.77738" lon="1.43888">
        <ele>712</ele>
        <time>2026-08-25T08:35:35Z</time>
      </trkpt>
      <trkpt lat="42.77737" lon="1.43913">
        <ele>712</ele>
        <time>2026-08-25T08:35:50Z</time>
      </trkpt>
      <trkpt lat="42.7774" lon="1.43919">
        <ele>712</ele>
        <time>2026-08-25T08:35:54Z</time>
      </trkpt>
      <trkpt lat="42.7775" lon="1.43937">
        <ele>713</ele>
        <time>2026-08-25T08:36:09Z</time>
      </trkpt>
      <trkpt lat="42.77762" lon="1.43948">
        <ele>713</ele>
        <time>2026-08-25T08:36:24Z</time>
      </trkpt>
      <trkpt lat="42.7777" lon="1.43976">
        <ele>713</ele>
        <time>2026-08-25T08:36:58Z</time>
      </trkpt>
      <trkpt lat="42.77774" lon="1.43985">
        <ele>713</ele>
        <time>2026-08-25T08:37:06Z</time>
      </trkpt>
      <trkpt lat="42.77773" lon="1.43993">
        <ele>713</ele>
        <time>2026-08-25T08:37:13Z</time>
      </trkpt>
      <trkpt lat="42.77783" lon="1.44041">
        <ele>714</ele>
        <time>2026-08-25T08:37:45Z</time>
      </trkpt>
      <trkpt lat="42.77785" lon="1.44054">
        <ele>714</ele>
        <time>2026-08-25T08:37:53Z</time>
      </trkpt>
      <trkpt lat="42.77783" lon="1.44066">
        <ele>714</ele>
        <time>2026-08-25T08:38:02Z</time>
      </trkpt>
      <trkpt lat="42.77784" lon="1.44113">
        <ele>714</ele>
        <time>2026-08-25T08:38:35Z</time>
      </trkpt>
      <trkpt lat="42.7779" lon="1.4414">
        <ele>714</ele>
        <time>2026-08-25T08:38:56Z</time>
      </trkpt>
      <trkpt lat="42.77789" lon="1.44152">
        <ele>714</ele>
        <time>2026-08-25T08:39:05Z</time>
      </trkpt>
      <trkpt lat="42.77793" lon="1.44167">
        <ele>714</ele>
        <time>2026-08-25T08:39:17Z</time>
      </trkpt>
      <trkpt lat="42.77799" lon="1.44177">
        <ele>715</ele>
        <time>2026-08-25T08:39:26Z</time>
      </trkpt>
      <trkpt lat="42.77804" lon="1.44189">
        <ele>715</ele>
        <time>2026-08-25T08:39:32Z</time>
      </trkpt>
      <trkpt lat="42.77806" lon="1.44199">
        <ele>715</ele>
        <time>2026-08-25T08:39:39Z</time>
      </trkpt>
      <trkpt lat="42.7781" lon="1.44212">
        <ele>715</ele>
        <time>2026-08-25T08:39:49Z</time>
      </trkpt>
      <trkpt lat="42.77805" lon="1.44258">
        <ele>715</ele>
        <time>2026-08-25T08:40:16Z</time>
      </trkpt>
      <trkpt lat="42.77796" lon="1.44322">
        <ele>715</ele>
        <time>2026-08-25T08:40:51Z</time>
      </trkpt>
      <trkpt lat="42.77792" lon="1.44333">
        <ele>715</ele>
        <time>2026-08-25T08:40:57Z</time>
      </trkpt>
      <trkpt lat="42.77782" lon="1.44396">
        <ele>716</ele>
        <time>2026-08-25T08:41:35Z</time>
      </trkpt>
      <trkpt lat="42.77772" lon="1.44447">
        <ele>716</ele>
        <time>2026-08-25T08:42:08Z</time>
      </trkpt>
      <trkpt lat="42.77768" lon="1.44476">
        <ele>716</ele>
        <time>2026-08-25T08:42:27Z</time>
      </trkpt>
      <trkpt lat="42.77773" lon="1.44531">
        <ele>717</ele>
        <time>2026-08-25T08:42:59Z</time>
      </trkpt>
      <trkpt lat="42.77784" lon="1.44555">
        <ele>717</ele>
        <time>2026-08-25T08:43:15Z</time>
      </trkpt>
      <trkpt lat="42.7778" lon="1.44597">
        <ele>717</ele>
        <time>2026-08-25T08:43:37Z</time>
      </trkpt>
      <trkpt lat="42.77772" lon="1.44636">
        <ele>717</ele>
        <time>2026-08-25T08:44:03Z</time>
      </trkpt>
      <trkpt lat="42.77769" lon="1.44701">
        <ele>718</ele>
        <time>2026-08-25T08:44:41Z</time>
      </trkpt>
      <trkpt lat="42.77773" lon="1.44717">
        <ele>718</ele>
        <time>2026-08-25T08:44:52Z</time>
      </trkpt>
      <trkpt lat="42.77767" lon="1.44758">
        <ele>719</ele>
        <time>2026-08-25T08:45:59Z</time>
      </trkpt>
      <trkpt lat="42.77762" lon="1.44822">
        <ele>719</ele>
        <time>2026-08-25T08:46:38Z</time>
      </trkpt>
      <trkpt lat="42.77762" lon="1.4488">
        <ele>719</ele>
        <time>2026-08-25T08:47:12Z</time>
      </trkpt>
      <trkpt lat="42.77763" lon="1.44896">
        <ele>719</ele>
        <time>2026-08-25T08:47:20Z</time>
      </trkpt>
      <trkpt lat="42.7776" lon="1.44922">
        <ele>719</ele>
        <time>2026-08-25T08:47:34Z</time>
      </trkpt>
      <trkpt lat="42.77753" lon="1.44964">
        <ele>720</ele>
        <time>2026-08-25T08:48:02Z</time>
      </trkpt>
      <trkpt lat="42.77755" lon="1.45025">
        <ele>720</ele>
        <time>2026-08-25T08:48:37Z</time>
      </trkpt>
      <trkpt lat="42.77757" lon="1.45082">
        <ele>720</ele>
        <time>2026-08-25T08:49:10Z</time>
      </trkpt>
      <trkpt lat="42.77764" lon="1.45107">
        <ele>721</ele>
        <time>2026-08-25T08:49:25Z</time>
      </trkpt>
      <trkpt lat="42.77771" lon="1.45118">
        <ele>721</ele>
        <time>2026-08-25T08:49:34Z</time>
      </trkpt>
      <trkpt lat="42.77756" lon="1.45165">
        <ele>721</ele>
        <time>2026-08-25T08:50:06Z</time>
      </trkpt>
      <trkpt lat="42.77743" lon="1.45199">
        <ele>721</ele>
        <time>2026-08-25T08:50:26Z</time>
      </trkpt>
      <trkpt lat="42.7773" lon="1.45252">
        <ele>721</ele>
        <time>2026-08-25T08:50:57Z</time>
      </trkpt>
      <trkpt lat="42.77723" lon="1.45305">
        <ele>722</ele>
        <time>2026-08-25T08:51:30Z</time>
      </trkpt>
      <trkpt lat="42.77722" lon="1.45321">
        <ele>722</ele>
        <time>2026-08-25T08:51:38Z</time>
      </trkpt>
      <trkpt lat="42.77723" lon="1.4535">
        <ele>722</ele>
        <time>2026-08-25T08:51:53Z</time>
      </trkpt>
      <trkpt lat="42.77721" lon="1.45364">
        <ele>722</ele>
        <time>2026-08-25T08:52:02Z</time>
      </trkpt>
      <trkpt lat="42.77722" lon="1.45392">
        <ele>722</ele>
        <time>2026-08-25T08:52:17Z</time>
      </trkpt>
      <trkpt lat="42.77717" lon="1.45421">
        <ele>722</ele>
        <time>2026-08-25T08:52:32Z</time>
      </trkpt>
      <trkpt lat="42.7772" lon="1.45471">
        <ele>723</ele>
        <time>2026-08-25T08:53:03Z</time>
      </trkpt>
      <trkpt lat="42.77739" lon="1.45532">
        <ele>723</ele>
        <time>2026-08-25T08:53:38Z</time>
      </trkpt>
      <trkpt lat="42.77744" lon="1.45542">
        <ele>723</ele>
        <time>2026-08-25T08:53:45Z</time>
      </trkpt>
      <trkpt lat="42.77739" lon="1.45567">
        <ele>724</ele>
        <time>2026-08-25T08:54:23Z</time>
      </trkpt>
      <trkpt lat="42.7775" lon="1.45572">
        <ele>724</ele>
        <time>2026-08-25T08:54:34Z</time>
      </trkpt>
      <trkpt lat="42.77769" lon="1.45614">
        <ele>724</ele>
        <time>2026-08-25T08:55:06Z</time>
      </trkpt>
      <trkpt lat="42.7779" lon="1.45663">
        <ele>724</ele>
        <time>2026-08-25T08:55:37Z</time>
      </trkpt>
      <trkpt lat="42.77795" lon="1.4568">
        <ele>724</ele>
        <time>2026-08-25T08:55:49Z</time>
      </trkpt>
      <trkpt lat="42.778" lon="1.45701">
        <ele>726</ele>
        <time>2026-08-25T08:58:14Z</time>
      </trkpt>
      <trkpt lat="42.77805" lon="1.45723">
        <ele>726</ele>
        <time>2026-08-25T08:58:31Z</time>
      </trkpt>
      <trkpt lat="42.77803" lon="1.45733">
        <ele>726</ele>
        <time>2026-08-25T08:58:39Z</time>
      </trkpt>
      <trkpt lat="42.77805" lon="1.45742">
        <ele>726</ele>
        <time>2026-08-25T08:58:44Z</time>
      </trkpt>
      <trkpt lat="42.77802" lon="1.45785">
        <ele>726</ele>
        <time>2026-08-25T08:59:13Z</time>
      </trkpt>
      <trkpt lat="42.778" lon="1.45803">
        <ele>727</ele>
        <time>2026-08-25T08:59:23Z</time>
      </trkpt>
      <trkpt lat="42.77806" lon="1.45819">
        <ele>727</ele>
        <time>2026-08-25T08:59:35Z</time>
      </trkpt>
      <trkpt lat="42.77812" lon="1.45825">
        <ele>727</ele>
        <time>2026-08-25T08:59:43Z</time>
      </trkpt>
      <trkpt lat="42.77822" lon="1.45845">
        <ele>727</ele>
        <time>2026-08-25T09:00:00Z</time>
      </trkpt>
      <trkpt lat="42.77823" lon="1.4589">
        <ele>727</ele>
        <time>2026-08-25T09:00:24Z</time>
      </trkpt>
      <trkpt lat="42.77816" lon="1.45934">
        <ele>728</ele>
        <time>2026-08-25T09:01:05Z</time>
      </trkpt>
      <trkpt lat="42.77811" lon="1.45958">
        <ele>728</ele>
        <time>2026-08-25T09:01:26Z</time>
      </trkpt>
      <trkpt lat="42.7781" lon="1.46005">
        <ele>728</ele>
        <time>2026-08-25T09:01:58Z</time>
      </trkpt>
      <trkpt lat="42.7781" lon="1.46067">
        <ele>728</ele>
        <time>2026-08-25T09:02:37Z</time>
      </trkpt>
      <trkpt lat="42.77807" lon="1.46137">
        <ele>729</ele>
        <time>2026-08-25T09:03:16Z</time>
      </trkpt>
      <trkpt lat="42.77813" lon="1.46194">
        <ele>729</ele>
        <time>2026-08-25T09:03:49Z</time>
      </trkpt>
      <trkpt lat="42.77818" lon="1.46216">
        <ele>729</ele>
        <time>2026-08-25T09:04:02Z</time>
      </trkpt>
      <trkpt lat="42.77819" lon="1.46257">
        <ele>730</ele>
        <time>2026-08-25T09:04:27Z</time>
      </trkpt>
      <trkpt lat="42.77821" lon="1.46262">
        <ele>730</ele>
        <time>2026-08-25T09:05:11Z</time>
      </trkpt>
      <trkpt lat="42.77829" lon="1.46257">
        <ele>730</ele>
        <time>2026-08-25T09:05:46Z</time>
      </trkpt>
      <trkpt lat="42.77857" lon="1.46233">
        <ele>731</ele>
        <time>2026-08-25T09:06:21Z</time>
      </trkpt>
      <trkpt lat="42.77884" lon="1.46207">
        <ele>731</ele>
        <time>2026-08-25T09:06:53Z</time>
      </trkpt>
      <trkpt lat="42.7789" lon="1.46203">
        <ele>731</ele>
        <time>2026-08-25T09:07:06Z</time>
      </trkpt>
      <trkpt lat="42.77887" lon="1.46244">
        <ele>732</ele>
        <time>2026-08-25T09:07:39Z</time>
      </trkpt>
      <trkpt lat="42.77883" lon="1.46257">
        <ele>732</ele>
        <time>2026-08-25T09:07:49Z</time>
      </trkpt>
      <trkpt lat="42.77861" lon="1.46306">
        <ele>732</ele>
        <time>2026-08-25T09:08:29Z</time>
      </trkpt>
      <trkpt lat="42.77867" lon="1.4631">
        <ele>732</ele>
        <time>2026-08-25T09:08:52Z</time>
      </trkpt>
      <trkpt lat="42.779" lon="1.46288">
        <ele>733</ele>
        <time>2026-08-25T09:09:25Z</time>
      </trkpt>
      <trkpt lat="42.77915" lon="1.46278">
        <ele>733</ele>
        <time>2026-08-25T09:09:43Z</time>
      </trkpt>
      <trkpt lat="42.77916" lon="1.46287">
        <ele>733</ele>
        <time>2026-08-25T09:10:03Z</time>
      </trkpt>
      <trkpt lat="42.77903" lon="1.4632">
        <ele>733</ele>
        <time>2026-08-25T09:10:34Z</time>
      </trkpt>
      <trkpt lat="42.77893" lon="1.46337">
        <ele>733</ele>
        <time>2026-08-25T09:10:51Z</time>
      </trkpt>
      <trkpt lat="42.77913" lon="1.46339">
        <ele>734</ele>
        <time>2026-08-25T09:11:21Z</time>
      </trkpt>
      <trkpt lat="42.77918" lon="1.46334">
        <ele>734</ele>
        <time>2026-08-25T09:11:29Z</time>
      </trkpt>
      <trkpt lat="42.77928" lon="1.46329">
        <ele>734</ele>
        <time>2026-08-25T09:11:40Z</time>
      </trkpt>
      <trkpt lat="42.77934" lon="1.46324">
        <ele>734</ele>
        <time>2026-08-25T09:11:46Z</time>
      </trkpt>
      <trkpt lat="42.77939" lon="1.4632">
        <ele>734</ele>
        <time>2026-08-25T09:11:54Z</time>
      </trkpt>
      <trkpt lat="42.77951" lon="1.46307">
        <ele>734</ele>
        <time>2026-08-25T09:12:07Z</time>
      </trkpt>
      <trkpt lat="42.77963" lon="1.46302">
        <ele>734</ele>
        <time>2026-08-25T09:12:18Z</time>
      </trkpt>
      <trkpt lat="42.77968" lon="1.46269">
        <ele>735</ele>
        <time>2026-08-25T09:12:44Z</time>
      </trkpt>
      <trkpt lat="42.77991" lon="1.46223">
        <ele>735</ele>
        <time>2026-08-25T09:13:20Z</time>
      </trkpt>
      <trkpt lat="42.78011" lon="1.46196">
        <ele>735</ele>
        <time>2026-08-25T09:13:47Z</time>
      </trkpt>
      <trkpt lat="42.78016" lon="1.46191">
        <ele>735</ele>
        <time>2026-08-25T09:13:53Z</time>
      </trkpt>
      <trkpt lat="42.78023" lon="1.46181">
        <ele>735</ele>
        <time>2026-08-25T09:14:03Z</time>
      </trkpt>
      <trkpt lat="42.78054" lon="1.4616">
        <ele>736</ele>
        <time>2026-08-25T09:14:30Z</time>
      </trkpt>
      <trkpt lat="42.78088" lon="1.4617">
        <ele>736</ele>
        <time>2026-08-25T09:15:41Z</time>
      </trkpt>
      <trkpt lat="42.78127" lon="1.46183">
        <ele>737</ele>
        <time>2026-08-25T09:16:20Z</time>
      </trkpt>
      <trkpt lat="42.78147" lon="1.46188">
        <ele>737</ele>
        <time>2026-08-25T09:16:46Z</time>
      </trkpt>
      <trkpt lat="42.78155" lon="1.46189">
        <ele>737</ele>
        <time>2026-08-25T09:16:54Z</time>
      </trkpt>
      <trkpt lat="42.78169" lon="1.46194">
        <ele>737</ele>
        <time>2026-08-25T09:17:10Z</time>
      </trkpt>
      <trkpt lat="42.7818" lon="1.4619">
        <ele>737</ele>
        <time>2026-08-25T09:17:24Z</time>
      </trkpt>
      <trkpt lat="42.78184" lon="1.46174">
        <ele>738</ele>
        <time>2026-08-25T09:17:39Z</time>
      </trkpt>
      <trkpt lat="42.78184" lon="1.4616">
        <ele>738</ele>
        <time>2026-08-25T09:17:51Z</time>
      </trkpt>
      <trkpt lat="42.78195" lon="1.46127">
        <ele>738</ele>
        <time>2026-08-25T09:18:14Z</time>
      </trkpt>
      <trkpt lat="42.78199" lon="1.4611">
        <ele>738</ele>
        <time>2026-08-25T09:18:25Z</time>
      </trkpt>
      <trkpt lat="42.78211" lon="1.4607">
        <ele>738</ele>
        <time>2026-08-25T09:18:56Z</time>
      </trkpt>
      <trkpt lat="42.78214" lon="1.46061">
        <ele>738</ele>
        <time>2026-08-25T09:19:02Z</time>
      </trkpt>
      <trkpt lat="42.78243" lon="1.4602">
        <ele>739</ele>
        <time>2026-08-25T09:19:35Z</time>
      </trkpt>
      <trkpt lat="42.7825" lon="1.46005">
        <ele>739</ele>
        <time>2026-08-25T09:20:01Z</time>
      </trkpt>
      <trkpt lat="42.7826" lon="1.45994">
        <ele>739</ele>
        <time>2026-08-25T09:20:15Z</time>
      </trkpt>
      <trkpt lat="42.78282" lon="1.4596">
        <ele>739</ele>
        <time>2026-08-25T09:20:44Z</time>
      </trkpt>
      <trkpt lat="42.78296" lon="1.45944">
        <ele>740</ele>
        <time>2026-08-25T09:21:06Z</time>
      </trkpt>
      <trkpt lat="42.78307" lon="1.45937">
        <ele>740</ele>
        <time>2026-08-25T09:21:16Z</time>
      </trkpt>
      <trkpt lat="42.78314" lon="1.45931">
        <ele>740</ele>
        <time>2026-08-25T09:21:23Z</time>
      </trkpt>
      <trkpt lat="42.78324" lon="1.45928">
        <ele>740</ele>
        <time>2026-08-25T09:21:37Z</time>
      </trkpt>
      <trkpt lat="42.7836" lon="1.45925">
        <ele>740</ele>
        <time>2026-08-25T09:22:13Z</time>
      </trkpt>
      <trkpt lat="42.78368" lon="1.45934">
        <ele>740</ele>
        <time>2026-08-25T09:22:28Z</time>
      </trkpt>
      <trkpt lat="42.78377" lon="1.45938">
        <ele>741</ele>
        <time>2026-08-25T09:22:44Z</time>
      </trkpt>
      <trkpt lat="42.78405" lon="1.45915">
        <ele>741</ele>
        <time>2026-08-25T09:23:19Z</time>
      </trkpt>
      <trkpt lat="42.78413" lon="1.45906">
        <ele>741</ele>
        <time>2026-08-25T09:23:33Z</time>
      </trkpt>
      <trkpt lat="42.78418" lon="1.45896">
        <ele>741</ele>
        <time>2026-08-25T09:23:43Z</time>
      </trkpt>
      <trkpt lat="42.78422" lon="1.45873">
        <ele>741</ele>
        <time>2026-08-25T09:24:09Z</time>
      </trkpt>
      <trkpt lat="42.78435" lon="1.45837">
        <ele>742</ele>
        <time>2026-08-25T09:24:40Z</time>
      </trkpt>
      <trkpt lat="42.7844" lon="1.45809">
        <ele>742</ele>
        <time>2026-08-25T09:25:03Z</time>
      </trkpt>
      <trkpt lat="42.78452" lon="1.45764">
        <ele>742</ele>
        <time>2026-08-25T09:25:44Z</time>
      </trkpt>
      <trkpt lat="42.78469" lon="1.45724">
        <ele>743</ele>
        <time>2026-08-25T09:26:17Z</time>
      </trkpt>
      <trkpt lat="42.78472" lon="1.45712">
        <ele>743</ele>
        <time>2026-08-25T09:26:25Z</time>
      </trkpt>
      <trkpt lat="42.78471" lon="1.45702">
        <ele>743</ele>
        <time>2026-08-25T09:26:35Z</time>
      </trkpt>
      <trkpt lat="42.78475" lon="1.45691">
        <ele>743</ele>
        <time>2026-08-25T09:26:43Z</time>
      </trkpt>
      <trkpt lat="42.78489" lon="1.45676">
        <ele>744</ele>
        <time>2026-08-25T09:28:27Z</time>
      </trkpt>
      <trkpt lat="42.78505" lon="1.45666">
        <ele>745</ele>
        <time>2026-08-25T09:29:23Z</time>
      </trkpt>
      <trkpt lat="42.78521" lon="1.45652">
        <ele>745</ele>
        <time>2026-08-25T09:29:40Z</time>
      </trkpt>
      <trkpt lat="42.78527" lon="1.45641">
        <ele>745</ele>
        <time>2026-08-25T09:29:49Z</time>
      </trkpt>
      <trkpt lat="42.78531" lon="1.45659">
        <ele>745</ele>
        <time>2026-08-25T09:30:06Z</time>
      </trkpt>
      <trkpt lat="42.78544" lon="1.45638">
        <ele>745</ele>
        <time>2026-08-25T09:30:54Z</time>
      </trkpt>
      <trkpt lat="42.78548" lon="1.45623">
        <ele>746</ele>
        <time>2026-08-25T09:31:03Z</time>
      </trkpt>
      <trkpt lat="42.78569" lon="1.45598">
        <ele>746</ele>
        <time>2026-08-25T09:31:29Z</time>
      </trkpt>
      <trkpt lat="42.78584" lon="1.45577">
        <ele>746</ele>
        <time>2026-08-25T09:31:54Z</time>
      </trkpt>
      <trkpt lat="42.78582" lon="1.45565">
        <ele>746</ele>
        <time>2026-08-25T09:32:05Z</time>
      </trkpt>
      <trkpt lat="42.78593" lon="1.45557">
        <ele>746</ele>
        <time>2026-08-25T09:32:20Z</time>
      </trkpt>
      <trkpt lat="42.78598" lon="1.45543">
        <ele>746</ele>
        <time>2026-08-25T09:32:35Z</time>
      </trkpt>
      <trkpt lat="42.78602" lon="1.45526">
        <ele>747</ele>
        <time>2026-08-25T09:32:54Z</time>
      </trkpt>
      <trkpt lat="42.78606" lon="1.45508">
        <ele>747</ele>
        <time>2026-08-25T09:33:10Z</time>
      </trkpt>
      <trkpt lat="42.78613" lon="1.45493">
        <ele>747</ele>
        <time>2026-08-25T09:33:24Z</time>
      </trkpt>
      <trkpt lat="42.7862" lon="1.45489">
        <ele>747</ele>
        <time>2026-08-25T09:33:30Z</time>
      </trkpt>
      <trkpt lat="42.78626" lon="1.45478">
        <ele>747</ele>
        <time>2026-08-25T09:33:40Z</time>
      </trkpt>
      <trkpt lat="42.78632" lon="1.45461">
        <ele>747</ele>
        <time>2026-08-25T09:33:55Z</time>
      </trkpt>
      <trkpt lat="42.78641" lon="1.45457">
        <ele>747</ele>
        <time>2026-08-25T09:34:11Z</time>
      </trkpt>
      <trkpt lat="42.78645" lon="1.45438">
        <ele>748</ele>
        <time>2026-08-25T09:34:24Z</time>
      </trkpt>
      <trkpt lat="42.7865" lon="1.4543">
        <ele>748</ele>
        <time>2026-08-25T09:34:30Z</time>
      </trkpt>
      <trkpt lat="42.7865" lon="1.45419">
        <ele>748</ele>
        <time>2026-08-25T09:34:43Z</time>
      </trkpt>
      <trkpt lat="42.78656" lon="1.45403">
        <ele>748</ele>
        <time>2026-08-25T09:34:57Z</time>
      </trkpt>
      <trkpt lat="42.7866" lon="1.45373">
        <ele>748</ele>
        <time>2026-08-25T09:35:21Z</time>
      </trkpt>
      <trkpt lat="42.7867" lon="1.45336">
        <ele>748</ele>
        <time>2026-08-25T09:35:56Z</time>
      </trkpt>
      <trkpt lat="42.78683" lon="1.45295">
        <ele>749</ele>
        <time>2026-08-25T09:36:33Z</time>
      </trkpt>
      <trkpt lat="42.78688" lon="1.45286">
        <ele>749</ele>
        <time>2026-08-25T09:36:46Z</time>
      </trkpt>
      <trkpt lat="42.78694" lon="1.45278">
        <ele>749</ele>
        <time>2026-08-25T09:36:53Z</time>
      </trkpt>
      <trkpt lat="42.78694" lon="1.45264">
        <ele>749</ele>
        <time>2026-08-25T09:37:02Z</time>
      </trkpt>
      <trkpt lat="42.78692" lon="1.45247">
        <ele>749</ele>
        <time>2026-08-25T09:37:19Z</time>
      </trkpt>
      <trkpt lat="42.78696" lon="1.45237">
        <ele>749</ele>
        <time>2026-08-25T09:37:27Z</time>
      </trkpt>
      <trkpt lat="42.78705" lon="1.45225">
        <ele>750</ele>
        <time>2026-08-25T09:37:39Z</time>
      </trkpt>
      <trkpt lat="42.78713" lon="1.45215">
        <ele>750</ele>
        <time>2026-08-25T09:37:54Z</time>
      </trkpt>
      <trkpt lat="42.78715" lon="1.45202">
        <ele>750</ele>
        <time>2026-08-25T09:38:07Z</time>
      </trkpt>
      <trkpt lat="42.78727" lon="1.45173">
        <ele>750</ele>
        <time>2026-08-25T09:38:36Z</time>
      </trkpt>
      <trkpt lat="42.78733" lon="1.45165">
        <ele>750</ele>
        <time>2026-08-25T09:38:44Z</time>
      </trkpt>
      <trkpt lat="42.78737" lon="1.45156">
        <ele>750</ele>
        <time>2026-08-25T09:38:51Z</time>
      </trkpt>
      <trkpt lat="42.7874" lon="1.45123">
        <ele>750</ele>
        <time>2026-08-25T09:39:11Z</time>
      </trkpt>
      <trkpt lat="42.78761" lon="1.45084">
        <ele>751</ele>
        <time>2026-08-25T09:39:42Z</time>
      </trkpt>
      <trkpt lat="42.78764" lon="1.45076">
        <ele>751</ele>
        <time>2026-08-25T09:39:48Z</time>
      </trkpt>
      <trkpt lat="42.78767" lon="1.45034">
        <ele>751</ele>
        <time>2026-08-25T09:40:20Z</time>
      </trkpt>
      <trkpt lat="42.78772" lon="1.45029">
        <ele>751</ele>
        <time>2026-08-25T09:40:26Z</time>
      </trkpt>
      <trkpt lat="42.78783" lon="1.44994">
        <ele>752</ele>
        <time>2026-08-25T09:40:58Z</time>
      </trkpt>
      <trkpt lat="42.78792" lon="1.44955">
        <ele>752</ele>
        <time>2026-08-25T09:41:21Z</time>
      </trkpt>
      <trkpt lat="42.78809" lon="1.44929">
        <ele>752</ele>
        <time>2026-08-25T09:41:44Z</time>
      </trkpt>
      <trkpt lat="42.78813" lon="1.44919">
        <ele>752</ele>
        <time>2026-08-25T09:41:51Z</time>
      </trkpt>
      <trkpt lat="42.78819" lon="1.44912">
        <ele>752</ele>
        <time>2026-08-25T09:42:00Z</time>
      </trkpt>
      <trkpt lat="42.78824" lon="1.44904">
        <ele>752</ele>
        <time>2026-08-25T09:42:05Z</time>
      </trkpt>
      <trkpt lat="42.78835" lon="1.44859">
        <ele>752</ele>
        <time>2026-08-25T09:42:36Z</time>
      </trkpt>
      <trkpt lat="42.78843" lon="1.4485">
        <ele>753</ele>
        <time>2026-08-25T09:42:45Z</time>
      </trkpt>
      <trkpt lat="42.78846" lon="1.44841">
        <ele>753</ele>
        <time>2026-08-25T09:42:52Z</time>
      </trkpt>
      <trkpt lat="42.78871" lon="1.44821">
        <ele>753</ele>
        <time>2026-08-25T09:43:16Z</time>
      </trkpt>
      <trkpt lat="42.7888" lon="1.44818">
        <ele>753</ele>
        <time>2026-08-25T09:43:21Z</time>
      </trkpt>
      <trkpt lat="42.78891" lon="1.448">
        <ele>753</ele>
        <time>2026-08-25T09:43:35Z</time>
      </trkpt>
      <trkpt lat="42.78906" lon="1.44789">
        <ele>753</ele>
        <time>2026-08-25T09:43:50Z</time>
      </trkpt>
      <trkpt lat="42.78909" lon="1.4478">
        <ele>753</ele>
        <time>2026-08-25T09:43:57Z</time>
      </trkpt>
      <trkpt lat="42.78915" lon="1.44773">
        <ele>753</ele>
        <time>2026-08-25T09:44:03Z</time>
      </trkpt>
      <trkpt lat="42.78916" lon="1.44764">
        <ele>753</ele>
        <time>2026-08-25T09:44:09Z</time>
      </trkpt>
      <trkpt lat="42.78915" lon="1.44754">
        <ele>753</ele>
        <time>2026-08-25T09:44:14Z</time>
      </trkpt>
      <trkpt lat="42.78903" lon="1.44745">
        <ele>754</ele>
        <time>2026-08-25T09:44:29Z</time>
      </trkpt>
      <trkpt lat="42.78907" lon="1.44734">
        <ele>754</ele>
        <time>2026-08-25T09:44:37Z</time>
      </trkpt>
      <trkpt lat="42.78916" lon="1.44714">
        <ele>754</ele>
        <time>2026-08-25T09:44:52Z</time>
      </trkpt>
      <trkpt lat="42.78925" lon="1.44704">
        <ele>754</ele>
        <time>2026-08-25T09:45:03Z</time>
      </trkpt>
      <trkpt lat="42.78925" lon="1.44692">
        <ele>754</ele>
        <time>2026-08-25T09:45:14Z</time>
      </trkpt>
      <trkpt lat="42.78928" lon="1.44679">
        <ele>754</ele>
        <time>2026-08-25T09:45:27Z</time>
      </trkpt>
      <trkpt lat="42.78939" lon="1.44667">
        <ele>754</ele>
        <time>2026-08-25T09:45:42Z</time>
      </trkpt>
      <trkpt lat="42.78956" lon="1.44661">
        <ele>755</ele>
        <time>2026-08-25T09:46:01Z</time>
      </trkpt>
      <trkpt lat="42.78977" lon="1.44634">
        <ele>755</ele>
        <time>2026-08-25T09:46:35Z</time>
      </trkpt>
      <trkpt lat="42.7899" lon="1.44616">
        <ele>755</ele>
        <time>2026-08-25T09:46:58Z</time>
      </trkpt>
      <trkpt lat="42.78991" lon="1.44603">
        <ele>755</ele>
        <time>2026-08-25T09:47:12Z</time>
      </trkpt>
      <trkpt lat="42.78993" lon="1.44594">
        <ele>755</ele>
        <time>2026-08-25T09:47:20Z</time>
      </trkpt>
      <trkpt lat="42.78998" lon="1.44562">
        <ele>756</ele>
        <time>2026-08-25T09:47:56Z</time>
      </trkpt>
      <trkpt lat="42.79011" lon="1.44558">
        <ele>756</ele>
        <time>2026-08-25T09:48:10Z</time>
      </trkpt>
      <trkpt lat="42.79019" lon="1.44552">
        <ele>756</ele>
        <time>2026-08-25T09:48:18Z</time>
      </trkpt>
      <trkpt lat="42.79042" lon="1.4455">
        <ele>756</ele>
        <time>2026-08-25T09:48:42Z</time>
      </trkpt>
      <trkpt lat="42.79048" lon="1.44562">
        <ele>756</ele>
        <time>2026-08-25T09:48:58Z</time>
      </trkpt>
      <trkpt lat="42.7906" lon="1.44561">
        <ele>756</ele>
        <time>2026-08-25T09:49:14Z</time>
      </trkpt>
      <trkpt lat="42.79067" lon="1.44555">
        <ele>757</ele>
        <time>2026-08-25T09:49:28Z</time>
      </trkpt>
      <trkpt lat="42.7907" lon="1.44547">
        <ele>757</ele>
        <time>2026-08-25T09:49:40Z</time>
      </trkpt>
      <trkpt lat="42.79075" lon="1.44539">
        <ele>757</ele>
        <time>2026-08-25T09:49:58Z</time>
      </trkpt>
      <trkpt lat="42.79078" lon="1.44531">
        <ele>757</ele>
        <time>2026-08-25T09:50:10Z</time>
      </trkpt>
      <trkpt lat="42.7909" lon="1.44518">
        <ele>757</ele>
        <time>2026-08-25T09:50:29Z</time>
      </trkpt>
      <trkpt lat="42.79096" lon="1.44515">
        <ele>757</ele>
        <time>2026-08-25T09:50:37Z</time>
      </trkpt>
      <trkpt lat="42.79105" lon="1.44504">
        <ele>757</ele>
        <time>2026-08-25T09:50:50Z</time>
      </trkpt>
      <trkpt lat="42.79111" lon="1.44498">
        <ele>758</ele>
        <time>2026-08-25T09:51:02Z</time>
      </trkpt>
      <trkpt lat="42.79116" lon="1.44492">
        <ele>758</ele>
        <time>2026-08-25T09:51:09Z</time>
      </trkpt>
      <trkpt lat="42.79122" lon="1.44488">
        <ele>758</ele>
        <time>2026-08-25T09:51:15Z</time>
      </trkpt>
      <trkpt lat="42.79128" lon="1.44481">
        <ele>758</ele>
        <time>2026-08-25T09:51:24Z</time>
      </trkpt>
      <trkpt lat="42.79135" lon="1.44473">
        <ele>758</ele>
        <time>2026-08-25T09:51:37Z</time>
      </trkpt>
      <trkpt lat="42.79137" lon="1.44464">
        <ele>758</ele>
        <time>2026-08-25T09:51:49Z</time>
      </trkpt>
      <trkpt lat="42.79155" lon="1.44445">
        <ele>758</ele>
        <time>2026-08-25T09:52:16Z</time>
      </trkpt>
      <trkpt lat="42.79168" lon="1.44415">
        <ele>759</ele>
        <time>2026-08-25T09:52:47Z</time>
      </trkpt>
      <trkpt lat="42.79173" lon="1.44409">
        <ele>759</ele>
        <time>2026-08-25T09:52:53Z</time>
      </trkpt>
      <trkpt lat="42.79178" lon="1.44395">
        <ele>759</ele>
        <time>2026-08-25T09:53:06Z</time>
      </trkpt>
      <trkpt lat="42.79181" lon="1.44383">
        <ele>759</ele>
        <time>2026-08-25T09:53:17Z</time>
      </trkpt>
      <trkpt lat="42.79185" lon="1.44374">
        <ele>759</ele>
        <time>2026-08-25T09:53:25Z</time>
      </trkpt>
      <trkpt lat="42.79185" lon="1.4435">
        <ele>759</ele>
        <time>2026-08-25T09:53:50Z</time>
      </trkpt>
      <trkpt lat="42.79191" lon="1.44324">
        <ele>759</ele>
        <time>2026-08-25T09:54:11Z</time>
      </trkpt>
      <trkpt lat="42.79191" lon="1.4431">
        <ele>760</ele>
        <time>2026-08-25T09:54:21Z</time>
      </trkpt>
      <trkpt lat="42.79193" lon="1.44297">
        <ele>760</ele>
        <time>2026-08-25T09:54:35Z</time>
      </trkpt>
      <trkpt lat="42.79197" lon="1.44288">
        <ele>760</ele>
        <time>2026-08-25T09:54:41Z</time>
      </trkpt>
      <trkpt lat="42.79199" lon="1.44279">
        <ele>760</ele>
        <time>2026-08-25T09:54:55Z</time>
      </trkpt>
      <trkpt lat="42.79204" lon="1.44272">
        <ele>760</ele>
        <time>2026-08-25T09:55:07Z</time>
      </trkpt>
      <trkpt lat="42.79208" lon="1.44263">
        <ele>760</ele>
        <time>2026-08-25T09:55:20Z</time>
      </trkpt>
      <trkpt lat="42.79209" lon="1.44241">
        <ele>760</ele>
        <time>2026-08-25T09:55:40Z</time>
      </trkpt>
      <trkpt lat="42.79207" lon="1.44222">
        <ele>760</ele>
        <time>2026-08-25T09:55:57Z</time>
      </trkpt>
      <trkpt lat="42.79213" lon="1.44212">
        <ele>761</ele>
        <time>2026-08-25T09:56:04Z</time>
      </trkpt>
      <trkpt lat="42.79218" lon="1.44175">
        <ele>761</ele>
        <time>2026-08-25T09:56:35Z</time>
      </trkpt>
      <trkpt lat="42.7923" lon="1.44156">
        <ele>761</ele>
        <time>2026-08-25T09:56:59Z</time>
      </trkpt>
      <trkpt lat="42.79232" lon="1.44141">
        <ele>761</ele>
        <time>2026-08-25T09:57:10Z</time>
      </trkpt>
      <trkpt lat="42.7924" lon="1.44134">
        <ele>761</ele>
        <time>2026-08-25T09:57:36Z</time>
      </trkpt>
      <trkpt lat="42.79252" lon="1.44131">
        <ele>762</ele>
        <time>2026-08-25T09:58:10Z</time>
      </trkpt>
      <trkpt lat="42.7926" lon="1.44131">
        <ele>762</ele>
        <time>2026-08-25T09:58:17Z</time>
      </trkpt>
      <trkpt lat="42.79266" lon="1.44127">
        <ele>762</ele>
        <time>2026-08-25T09:58:32Z</time>
      </trkpt>
      <trkpt lat="42.79274" lon="1.44134">
        <ele>762</ele>
        <time>2026-08-25T09:58:44Z</time>
      </trkpt>
      <trkpt lat="42.79279" lon="1.4412">
        <ele>762</ele>
        <time>2026-08-25T09:58:59Z</time>
      </trkpt>
      <trkpt lat="42.79283" lon="1.44105">
        <ele>762</ele>
        <time>2026-08-25T09:59:13Z</time>
      </trkpt>
      <trkpt lat="42.79291" lon="1.44093">
        <ele>763</ele>
        <time>2026-08-25T09:59:28Z</time>
      </trkpt>
      <trkpt lat="42.79304" lon="1.44064">
        <ele>763</ele>
        <time>2026-08-25T10:00:04Z</time>
      </trkpt>
      <trkpt lat="42.79322" lon="1.44057">
        <ele>763</ele>
        <time>2026-08-25T10:00:24Z</time>
      </trkpt>
      <trkpt lat="42.79337" lon="1.4407">
        <ele>763</ele>
        <time>2026-08-25T10:00:38Z</time>
      </trkpt>
      <trkpt lat="42.79345" lon="1.44082">
        <ele>763</ele>
        <time>2026-08-25T10:00:54Z</time>
      </trkpt>
      <trkpt lat="42.79346" lon="1.44095">
        <ele>764</ele>
        <time>2026-08-25T10:01:06Z</time>
      </trkpt>
      <trkpt lat="42.79354" lon="1.44104">
        <ele>764</ele>
        <time>2026-08-25T10:01:24Z</time>
      </trkpt>
      <trkpt lat="42.79366" lon="1.44101">
        <ele>764</ele>
        <time>2026-08-25T10:01:38Z</time>
      </trkpt>
      <trkpt lat="42.79374" lon="1.44096">
        <ele>764</ele>
        <time>2026-08-25T10:01:48Z</time>
      </trkpt>
      <trkpt lat="42.79381" lon="1.44095">
        <ele>764</ele>
        <time>2026-08-25T10:01:55Z</time>
      </trkpt>
      <trkpt lat="42.79402" lon="1.44084">
        <ele>764</ele>
        <time>2026-08-25T10:02:20Z</time>
      </trkpt>
      <trkpt lat="42.79419" lon="1.44077">
        <ele>765</ele>
        <time>2026-08-25T10:02:43Z</time>
      </trkpt>
      <trkpt lat="42.79429" lon="1.44069">
        <ele>765</ele>
        <time>2026-08-25T10:02:59Z</time>
      </trkpt>
      <trkpt lat="42.79437" lon="1.44065">
        <ele>765</ele>
        <time>2026-08-25T10:03:07Z</time>
      </trkpt>
      <trkpt lat="42.79445" lon="1.44069">
        <ele>765</ele>
        <time>2026-08-25T10:03:13Z</time>
      </trkpt>
      <trkpt lat="42.79453" lon="1.44073">
        <ele>765</ele>
        <time>2026-08-25T10:03:27Z</time>
      </trkpt>
      <trkpt lat="42.79472" lon="1.44084">
        <ele>765</ele>
        <time>2026-08-25T10:03:49Z</time>
      </trkpt>
      <trkpt lat="42.79481" lon="1.44068">
        <ele>766</ele>
        <time>2026-08-25T10:05:06Z</time>
      </trkpt>
      <trkpt lat="42.79485" lon="1.44054">
        <ele>766</ele>
        <time>2026-08-25T10:05:19Z</time>
      </trkpt>
      <trkpt lat="42.79503" lon="1.4404">
        <ele>766</ele>
        <time>2026-08-25T10:05:39Z</time>
      </trkpt>
      <trkpt lat="42.79512" lon="1.44024">
        <ele>766</ele>
        <time>2026-08-25T10:05:55Z</time>
      </trkpt>
      <trkpt lat="42.7952" lon="1.44023">
        <ele>767</ele>
        <time>2026-08-25T10:06:05Z</time>
      </trkpt>
      <trkpt lat="42.79528" lon="1.44027">
        <ele>767</ele>
        <time>2026-08-25T10:06:13Z</time>
      </trkpt>
      <trkpt lat="42.79548" lon="1.44027">
        <ele>767</ele>
        <time>2026-08-25T10:06:33Z</time>
      </trkpt>
      <trkpt lat="42.79554" lon="1.44028">
        <ele>767</ele>
        <time>2026-08-25T10:06:39Z</time>
      </trkpt>
      <trkpt lat="42.7956" lon="1.44028">
        <ele>767</ele>
        <time>2026-08-25T10:06:48Z</time>
      </trkpt>
      <trkpt lat="42.79567" lon="1.44026">
        <ele>767</ele>
        <time>2026-08-25T10:06:55Z</time>
      </trkpt>
      <trkpt lat="42.79585" lon="1.44011">
        <ele>767</ele>
        <time>2026-08-25T10:07:22Z</time>
      </trkpt>
      <trkpt lat="42.79592" lon="1.43997">
        <ele>767</ele>
        <time>2026-08-25T10:07:36Z</time>
      </trkpt>
      <trkpt lat="42.79602" lon="1.43987">
        <ele>768</ele>
        <time>2026-08-25T10:07:48Z</time>
      </trkpt>
      <trkpt lat="42.7961" lon="1.43972">
        <ele>768</ele>
        <time>2026-08-25T10:08:05Z</time>
      </trkpt>
      <trkpt lat="42.79631" lon="1.43954">
        <ele>768</ele>
        <time>2026-08-25T10:08:25Z</time>
      </trkpt>
      <trkpt lat="42.79638" lon="1.43954">
        <ele>768</ele>
        <time>2026-08-25T10:08:33Z</time>
      </trkpt>
      <trkpt lat="42.79646" lon="1.43958">
        <ele>768</ele>
        <time>2026-08-25T10:08:41Z</time>
      </trkpt>
      <trkpt lat="42.79671" lon="1.4396">
        <ele>768</ele>
        <time>2026-08-25T10:09:03Z</time>
      </trkpt>
      <trkpt lat="42.79678" lon="1.43957">
        <ele>768</ele>
        <time>2026-08-25T10:09:10Z</time>
      </trkpt>
      <trkpt lat="42.79684" lon="1.43952">
        <ele>769</ele>
        <time>2026-08-25T10:09:18Z</time>
      </trkpt>
      <trkpt lat="42.79688" lon="1.43939">
        <ele>769</ele>
        <time>2026-08-25T10:09:30Z</time>
      </trkpt>
      <trkpt lat="42.79689" lon="1.4392">
        <ele>769</ele>
        <time>2026-08-25T10:09:40Z</time>
      </trkpt>
      <trkpt lat="42.79696" lon="1.43883">
        <ele>769</ele>
        <time>2026-08-25T10:10:04Z</time>
      </trkpt>
      <trkpt lat="42.79701" lon="1.43873">
        <ele>769</ele>
        <time>2026-08-25T10:10:11Z</time>
      </trkpt>
      <trkpt lat="42.79705" lon="1.43849">
        <ele>769</ele>
        <time>2026-08-25T10:10:30Z</time>
      </trkpt>
      <trkpt lat="42.79705" lon="1.43821">
        <ele>769</ele>
        <time>2026-08-25T10:10:48Z</time>
      </trkpt>
      <trkpt lat="42.79709" lon="1.43813">
        <ele>769</ele>
        <time>2026-08-25T10:10:54Z</time>
      </trkpt>
      <trkpt lat="42.79713" lon="1.43792">
        <ele>770</ele>
        <time>2026-08-25T10:11:08Z</time>
      </trkpt>
      <trkpt lat="42.79712" lon="1.43769">
        <ele>770</ele>
        <time>2026-08-25T10:11:24Z</time>
      </trkpt>
      <trkpt lat="42.79711" lon="1.4376">
        <ele>770</ele>
        <time>2026-08-25T10:11:30Z</time>
      </trkpt>
      <trkpt lat="42.79713" lon="1.43719">
        <ele>770</ele>
        <time>2026-08-25T10:11:55Z</time>
      </trkpt>
      <trkpt lat="42.79717" lon="1.43708">
        <ele>770</ele>
        <time>2026-08-25T10:12:01Z</time>
      </trkpt>
      <trkpt lat="42.79715" lon="1.43699">
        <ele>770</ele>
        <time>2026-08-25T10:12:07Z</time>
      </trkpt>
      <trkpt lat="42.79718" lon="1.43668">
        <ele>770</ele>
        <time>2026-08-25T10:12:27Z</time>
      </trkpt>
      <trkpt lat="42.79721" lon="1.43661">
        <ele>770</ele>
        <time>2026-08-25T10:12:32Z</time>
      </trkpt>
      <trkpt lat="42.79722" lon="1.43613">
        <ele>771</ele>
        <time>2026-08-25T10:13:07Z</time>
      </trkpt>
      <trkpt lat="42.79721" lon="1.43602">
        <ele>771</ele>
        <time>2026-08-25T10:13:13Z</time>
      </trkpt>
      <trkpt lat="42.79728" lon="1.43576">
        <ele>771</ele>
        <time>2026-08-25T10:13:30Z</time>
      </trkpt>
      <trkpt lat="42.79726" lon="1.43568">
        <ele>771</ele>
        <time>2026-08-25T10:13:36Z</time>
      </trkpt>
      <trkpt lat="42.79722" lon="1.4356">
        <ele>771</ele>
        <time>2026-08-25T10:13:43Z</time>
      </trkpt>
      <trkpt lat="42.79716" lon="1.43553">
        <ele>771</ele>
        <time>2026-08-25T10:13:50Z</time>
      </trkpt>
      <trkpt lat="42.79715" lon="1.43543">
        <ele>771</ele>
        <time>2026-08-25T10:13:56Z</time>
      </trkpt>
      <trkpt lat="42.79732" lon="1.43502">
        <ele>772</ele>
        <time>2026-08-25T10:14:26Z</time>
      </trkpt>
      <trkpt lat="42.79736" lon="1.43475">
        <ele>772</ele>
        <time>2026-08-25T10:14:44Z</time>
      </trkpt>
      <trkpt lat="42.79739" lon="1.43467">
        <ele>772</ele>
        <time>2026-08-25T10:14:49Z</time>
      </trkpt>
      <trkpt lat="42.7974" lon="1.43458">
        <ele>772</ele>
        <time>2026-08-25T10:14:55Z</time>
      </trkpt>
      <trkpt lat="42.79752" lon="1.43421">
        <ele>772</ele>
        <time>2026-08-25T10:15:22Z</time>
      </trkpt>
      <trkpt lat="42.79751" lon="1.43401">
        <ele>772</ele>
        <time>2026-08-25T10:15:35Z</time>
      </trkpt>
      <trkpt lat="42.79753" lon="1.43383">
        <ele>772</ele>
        <time>2026-08-25T10:15:48Z</time>
      </trkpt>
      <trkpt lat="42.79752" lon="1.43374">
        <ele>772</ele>
        <time>2026-08-25T10:15:54Z</time>
      </trkpt>
      <trkpt lat="42.79743" lon="1.43346">
        <ele>773</ele>
        <time>2026-08-25T10:16:13Z</time>
      </trkpt>
      <trkpt lat="42.79739" lon="1.43339">
        <ele>773</ele>
        <time>2026-08-25T10:16:19Z</time>
      </trkpt>
      <trkpt lat="42.79729" lon="1.4333">
        <ele>773</ele>
        <time>2026-08-25T10:16:32Z</time>
      </trkpt>
      <trkpt lat="42.79727" lon="1.4332">
        <ele>773</ele>
        <time>2026-08-25T10:16:38Z</time>
      </trkpt>
      <trkpt lat="42.79735" lon="1.43317">
        <ele>773</ele>
        <time>2026-08-25T10:16:48Z</time>
      </trkpt>
      <trkpt lat="42.79752" lon="1.43302">
        <ele>773</ele>
        <time>2026-08-25T10:17:05Z</time>
      </trkpt>
      <trkpt lat="42.79759" lon="1.43287">
        <ele>773</ele>
        <time>2026-08-25T10:17:17Z</time>
      </trkpt>
      <trkpt lat="42.79777" lon="1.43273">
        <ele>773</ele>
        <time>2026-08-25T10:17:35Z</time>
      </trkpt>
      <trkpt lat="42.7979" lon="1.43256">
        <ele>774</ele>
        <time>2026-08-25T10:17:52Z</time>
      </trkpt>
      <trkpt lat="42.79806" lon="1.4322">
        <ele>774</ele>
        <time>2026-08-25T10:18:18Z</time>
      </trkpt>
      <trkpt lat="42.79811" lon="1.43213">
        <ele>774</ele>
        <time>2026-08-25T10:18:24Z</time>
      </trkpt>
      <trkpt lat="42.79823" lon="1.43188">
        <ele>774</ele>
        <time>2026-08-25T10:18:41Z</time>
      </trkpt>
      <trkpt lat="42.79841" lon="1.43163">
        <ele>774</ele>
        <time>2026-08-25T10:19:02Z</time>
      </trkpt>
      <trkpt lat="42.79857" lon="1.4315">
        <ele>775</ele>
        <time>2026-08-25T10:19:21Z</time>
      </trkpt>
      <trkpt lat="42.7986" lon="1.43145">
        <ele>775</ele>
        <time>2026-08-25T10:19:26Z</time>
      </trkpt>
      <trkpt lat="42.79866" lon="1.4314">
        <ele>775</ele>
        <time>2026-08-25T10:19:35Z</time>
      </trkpt>
      <trkpt lat="42.79903" lon="1.43116">
        <ele>775</ele>
        <time>2026-08-25T10:20:09Z</time>
      </trkpt>
      <trkpt lat="42.79923" lon="1.43105">
        <ele>775</ele>
        <time>2026-08-25T10:20:28Z</time>
      </trkpt>
      <trkpt lat="42.7993" lon="1.431">
        <ele>775</ele>
        <time>2026-08-25T10:20:36Z</time>
      </trkpt>
      <trkpt lat="42.79966" lon="1.43085">
        <ele>776</ele>
        <time>2026-08-25T10:21:12Z</time>
      </trkpt>
      <trkpt lat="42.7999" lon="1.43081">
        <ele>776</ele>
        <time>2026-08-25T10:21:34Z</time>
      </trkpt>
      <trkpt lat="42.79996" lon="1.43078">
        <ele>776</ele>
        <time>2026-08-25T10:21:39Z</time>
      </trkpt>
      <trkpt lat="42.8001" lon="1.43079">
        <ele>776</ele>
        <time>2026-08-25T10:21:47Z</time>
      </trkpt>
      <trkpt lat="42.80024" lon="1.43091">
        <ele>776</ele>
        <time>2026-08-25T10:22:02Z</time>
      </trkpt>
      <trkpt lat="42.8002" lon="1.43094">
        <ele>778</ele>
        <time>2026-08-25T10:25:15Z</time>
      </trkpt>
      <trkpt lat="42.80022" lon="1.431">
        <ele>778</ele>
        <time>2026-08-25T10:25:22Z</time>
      </trkpt>
      <trkpt lat="42.80029" lon="1.43097">
        <ele>779</ele>
        <time>2026-08-25T10:26:19Z</time>
      </trkpt>
      <trkpt lat="42.80033" lon="1.43094">
        <ele>779</ele>
        <time>2026-08-25T10:26:36Z</time>
      </trkpt>
      <trkpt lat="42.80044" lon="1.4308">
        <ele>779</ele>
        <time>2026-08-25T10:26:48Z</time>
      </trkpt>
      <trkpt lat="42.80048" lon="1.43077">
        <ele>779</ele>
        <time>2026-08-25T10:26:51Z</time>
      </trkpt>
      <trkpt lat="42.80052" lon="1.43072">
        <ele>779</ele>
        <time>2026-08-25T10:26:54Z</time>
      </trkpt>
      <trkpt lat="42.80065" lon="1.4307">
        <ele>779</ele>
        <time>2026-08-25T10:27:05Z</time>
      </trkpt>
      <trkpt lat="42.80071" lon="1.43072">
        <ele>779</ele>
        <time>2026-08-25T10:27:09Z</time>
      </trkpt>
      <trkpt lat="42.80076" lon="1.43072">
        <ele>779</ele>
        <time>2026-08-25T10:27:13Z</time>
      </trkpt>
      <trkpt lat="42.80092" lon="1.43079">
        <ele>779</ele>
        <time>2026-08-25T10:27:29Z</time>
      </trkpt>
      <trkpt lat="42.80107" lon="1.43074">
        <ele>780</ele>
        <time>2026-08-25T10:27:43Z</time>
      </trkpt>
      <trkpt lat="42.8013" lon="1.43047">
        <ele>780</ele>
        <time>2026-08-25T10:28:08Z</time>
      </trkpt>
      <trkpt lat="42.80133" lon="1.43042">
        <ele>780</ele>
        <time>2026-08-25T10:28:12Z</time>
      </trkpt>
      <trkpt lat="42.80137" lon="1.43038">
        <ele>780</ele>
        <time>2026-08-25T10:28:16Z</time>
      </trkpt>
      <trkpt lat="42.80146" lon="1.43006">
        <ele>780</ele>
        <time>2026-08-25T10:28:37Z</time>
      </trkpt>
      <trkpt lat="42.80146" lon="1.43">
        <ele>780</ele>
        <time>2026-08-25T10:28:41Z</time>
      </trkpt>
      <trkpt lat="42.80146" lon="1.42993">
        <ele>780</ele>
        <time>2026-08-25T10:28:46Z</time>
      </trkpt>
      <trkpt lat="42.80148" lon="1.42977">
        <ele>780</ele>
        <time>2026-08-25T10:28:57Z</time>
      </trkpt>
      <trkpt lat="42.80147" lon="1.42959">
        <ele>780</ele>
        <time>2026-08-25T10:29:09Z</time>
      </trkpt>
      <trkpt lat="42.80144" lon="1.42946">
        <ele>780</ele>
        <time>2026-08-25T10:29:17Z</time>
      </trkpt>
      <trkpt lat="42.80147" lon="1.42914">
        <ele>781</ele>
        <time>2026-08-25T10:29:37Z</time>
      </trkpt>
      <trkpt lat="42.80146" lon="1.42908">
        <ele>781</ele>
        <time>2026-08-25T10:29:42Z</time>
      </trkpt>
      <trkpt lat="42.80154" lon="1.42859">
        <ele>781</ele>
        <time>2026-08-25T10:30:06Z</time>
      </trkpt>
      <trkpt lat="42.80154" lon="1.42852">
        <ele>781</ele>
        <time>2026-08-25T10:30:09Z</time>
      </trkpt>
      <trkpt lat="42.80161" lon="1.42822">
        <ele>781</ele>
        <time>2026-08-25T10:30:27Z</time>
      </trkpt>
      <trkpt lat="42.80161" lon="1.42801">
        <ele>781</ele>
        <time>2026-08-25T10:30:39Z</time>
      </trkpt>
      <trkpt lat="42.80162" lon="1.42787">
        <ele>781</ele>
        <time>2026-08-25T10:30:47Z</time>
      </trkpt>
      <trkpt lat="42.80166" lon="1.42774">
        <ele>781</ele>
        <time>2026-08-25T10:30:54Z</time>
      </trkpt>
      <trkpt lat="42.80166" lon="1.42767">
        <ele>782</ele>
        <time>2026-08-25T10:30:59Z</time>
      </trkpt>
      <trkpt lat="42.80165" lon="1.42761">
        <ele>782</ele>
        <time>2026-08-25T10:31:03Z</time>
      </trkpt>
      <trkpt lat="42.80169" lon="1.42731">
        <ele>782</ele>
        <time>2026-08-25T10:31:26Z</time>
      </trkpt>
      <trkpt lat="42.80172" lon="1.42717">
        <ele>782</ele>
        <time>2026-08-25T10:31:36Z</time>
      </trkpt>
      <trkpt lat="42.80173" lon="1.42703">
        <ele>782</ele>
        <time>2026-08-25T10:31:44Z</time>
      </trkpt>
      <trkpt lat="42.80175" lon="1.42696">
        <ele>782</ele>
        <time>2026-08-25T10:31:49Z</time>
      </trkpt>
      <trkpt lat="42.80174" lon="1.4269">
        <ele>782</ele>
        <time>2026-08-25T10:31:53Z</time>
      </trkpt>
      <trkpt lat="42.80165" lon="1.42658">
        <ele>782</ele>
        <time>2026-08-25T10:32:11Z</time>
      </trkpt>
      <trkpt lat="42.80154" lon="1.42641">
        <ele>782</ele>
        <time>2026-08-25T10:32:27Z</time>
      </trkpt>
      <trkpt lat="42.8015" lon="1.42637">
        <ele>782</ele>
        <time>2026-08-25T10:32:31Z</time>
      </trkpt>
      <trkpt lat="42.80144" lon="1.42627">
        <ele>783</ele>
        <time>2026-08-25T10:32:39Z</time>
      </trkpt>
      <trkpt lat="42.80142" lon="1.42622">
        <ele>783</ele>
        <time>2026-08-25T10:32:43Z</time>
      </trkpt>
      <trkpt lat="42.80139" lon="1.42617">
        <ele>783</ele>
        <time>2026-08-25T10:32:47Z</time>
      </trkpt>
      <trkpt lat="42.80136" lon="1.42613">
        <ele>783</ele>
        <time>2026-08-25T10:32:51Z</time>
      </trkpt>
      <trkpt lat="42.80134" lon="1.426">
        <ele>783</ele>
        <time>2026-08-25T10:32:59Z</time>
      </trkpt>
      <trkpt lat="42.80125" lon="1.42581">
        <ele>783</ele>
        <time>2026-08-25T10:33:10Z</time>
      </trkpt>
      <trkpt lat="42.80117" lon="1.42575">
        <ele>783</ele>
        <time>2026-08-25T10:33:20Z</time>
      </trkpt>
      <trkpt lat="42.80113" lon="1.42565">
        <ele>783</ele>
        <time>2026-08-25T10:33:32Z</time>
      </trkpt>
      <trkpt lat="42.80113" lon="1.42559">
        <ele>783</ele>
        <time>2026-08-25T10:33:37Z</time>
      </trkpt>
      <trkpt lat="42.80111" lon="1.42553">
        <ele>783</ele>
        <time>2026-08-25T10:33:41Z</time>
      </trkpt>
      <trkpt lat="42.80111" lon="1.42543">
        <ele>783</ele>
        <time>2026-08-25T10:33:48Z</time>
      </trkpt>
      <trkpt lat="42.80116" lon="1.42529">
        <ele>783</ele>
        <time>2026-08-25T10:33:58Z</time>
      </trkpt>
      <trkpt lat="42.80115" lon="1.42523">
        <ele>783</ele>
        <time>2026-08-25T10:34:03Z</time>
      </trkpt>
      <trkpt lat="42.80104" lon="1.42514">
        <ele>783</ele>
        <time>2026-08-25T10:34:16Z</time>
      </trkpt>
      <trkpt lat="42.801" lon="1.42514">
        <ele>784</ele>
        <time>2026-08-25T10:34:19Z</time>
      </trkpt>
      <trkpt lat="42.80096" lon="1.42509">
        <ele>784</ele>
        <time>2026-08-25T10:34:24Z</time>
      </trkpt>
      <trkpt lat="42.80085" lon="1.42484">
        <ele>784</ele>
        <time>2026-08-25T10:34:41Z</time>
      </trkpt>
      <trkpt lat="42.80085" lon="1.42477">
        <ele>784</ele>
        <time>2026-08-25T10:34:46Z</time>
      </trkpt>
      <trkpt lat="42.80081" lon="1.42471">
        <ele>784</ele>
        <time>2026-08-25T10:34:52Z</time>
      </trkpt>
      <trkpt lat="42.80079" lon="1.42461">
        <ele>784</ele>
        <time>2026-08-25T10:34:59Z</time>
      </trkpt>
      <trkpt lat="42.80079" lon="1.42453">
        <ele>784</ele>
        <time>2026-08-25T10:35:04Z</time>
      </trkpt>
      <trkpt lat="42.80079" lon="1.42447">
        <ele>784</ele>
        <time>2026-08-25T10:35:08Z</time>
      </trkpt>
      <trkpt lat="42.80065" lon="1.42413">
        <ele>784</ele>
        <time>2026-08-25T10:35:36Z</time>
      </trkpt>
      <trkpt lat="42.80063" lon="1.42405">
        <ele>784</ele>
        <time>2026-08-25T10:35:43Z</time>
      </trkpt>
      <trkpt lat="42.80051" lon="1.42383">
        <ele>785</ele>
        <time>2026-08-25T10:36:05Z</time>
      </trkpt>
      <trkpt lat="42.80049" lon="1.42377">
        <ele>785</ele>
        <time>2026-08-25T10:36:09Z</time>
      </trkpt>
      <trkpt lat="42.8005" lon="1.42369">
        <ele>785</ele>
        <time>2026-08-25T10:36:13Z</time>
      </trkpt>
      <trkpt lat="42.80048" lon="1.42347">
        <ele>785</ele>
        <time>2026-08-25T10:36:28Z</time>
      </trkpt>
      <trkpt lat="42.80051" lon="1.42342">
        <ele>785</ele>
        <time>2026-08-25T10:36:31Z</time>
      </trkpt>
      <trkpt lat="42.80051" lon="1.4233">
        <ele>785</ele>
        <time>2026-08-25T10:36:37Z</time>
      </trkpt>
      <trkpt lat="42.80054" lon="1.42325">
        <ele>785</ele>
        <time>2026-08-25T10:36:40Z</time>
      </trkpt>
      <trkpt lat="42.80058" lon="1.42306">
        <ele>785</ele>
        <time>2026-08-25T10:36:53Z</time>
      </trkpt>
      <trkpt lat="42.80063" lon="1.42305">
        <ele>785</ele>
        <time>2026-08-25T10:36:56Z</time>
      </trkpt>
      <trkpt lat="42.80066" lon="1.42298">
        <ele>785</ele>
        <time>2026-08-25T10:37:02Z</time>
      </trkpt>
      <trkpt lat="42.80067" lon="1.42293">
        <ele>785</ele>
        <time>2026-08-25T10:37:06Z</time>
      </trkpt>
      <trkpt lat="42.80072" lon="1.42281">
        <ele>785</ele>
        <time>2026-08-25T10:37:18Z</time>
      </trkpt>
      <trkpt lat="42.80081" lon="1.42271">
        <ele>785</ele>
        <time>2026-08-25T10:37:29Z</time>
      </trkpt>
      <trkpt lat="42.80098" lon="1.42264">
        <ele>786</ele>
        <time>2026-08-25T10:37:50Z</time>
      </trkpt>
      <trkpt lat="42.80104" lon="1.42251">
        <ele>786</ele>
        <time>2026-08-25T10:37:58Z</time>
      </trkpt>
      <trkpt lat="42.80122" lon="1.42234">
        <ele>786</ele>
        <time>2026-08-25T10:38:16Z</time>
      </trkpt>
      <trkpt lat="42.80126" lon="1.42232">
        <ele>786</ele>
        <time>2026-08-25T10:38:20Z</time>
      </trkpt>
      <trkpt lat="42.80137" lon="1.4222">
        <ele>786</ele>
        <time>2026-08-25T10:38:34Z</time>
      </trkpt>
      <trkpt lat="42.80144" lon="1.42205">
        <ele>786</ele>
        <time>2026-08-25T10:38:45Z</time>
      </trkpt>
      <trkpt lat="42.80157" lon="1.42188">
        <ele>786</ele>
        <time>2026-08-25T10:39:02Z</time>
      </trkpt>
      <trkpt lat="42.80162" lon="1.42186">
        <ele>786</ele>
        <time>2026-08-25T10:39:07Z</time>
      </trkpt>
      <trkpt lat="42.80165" lon="1.42181">
        <ele>786</ele>
        <time>2026-08-25T10:39:10Z</time>
      </trkpt>
      <trkpt lat="42.80166" lon="1.42174">
        <ele>786</ele>
        <time>2026-08-25T10:39:16Z</time>
      </trkpt>
      <trkpt lat="42.80168" lon="1.42166">
        <ele>787</ele>
        <time>2026-08-25T10:39:22Z</time>
      </trkpt>
      <trkpt lat="42.80175" lon="1.42158">
        <ele>787</ele>
        <time>2026-08-25T10:39:31Z</time>
      </trkpt>
      <trkpt lat="42.80201" lon="1.42116">
        <ele>787</ele>
        <time>2026-08-25T10:40:05Z</time>
      </trkpt>
      <trkpt lat="42.80202" lon="1.42111">
        <ele>787</ele>
        <time>2026-08-25T10:40:09Z</time>
      </trkpt>
      <trkpt lat="42.80204" lon="1.42106">
        <ele>787</ele>
        <time>2026-08-25T10:40:13Z</time>
      </trkpt>
      <trkpt lat="42.80207" lon="1.42099">
        <ele>787</ele>
        <time>2026-08-25T10:40:17Z</time>
      </trkpt>
      <trkpt lat="42.80211" lon="1.42088">
        <ele>787</ele>
        <time>2026-08-25T10:40:25Z</time>
      </trkpt>
      <trkpt lat="42.80215" lon="1.42084">
        <ele>787</ele>
        <time>2026-08-25T10:40:29Z</time>
      </trkpt>
      <trkpt lat="42.80218" lon="1.42079">
        <ele>787</ele>
        <time>2026-08-25T10:40:33Z</time>
      </trkpt>
      <trkpt lat="42.80226" lon="1.42069">
        <ele>787</ele>
        <time>2026-08-25T10:40:41Z</time>
      </trkpt>
      <trkpt lat="42.80232" lon="1.42049">
        <ele>787</ele>
        <time>2026-08-25T10:40:57Z</time>
      </trkpt>
      <trkpt lat="42.80235" lon="1.42044">
        <ele>788</ele>
        <time>2026-08-25T10:41:01Z</time>
      </trkpt>
      <trkpt lat="42.80237" lon="1.42037">
        <ele>788</ele>
        <time>2026-08-25T10:41:06Z</time>
      </trkpt>
      <trkpt lat="42.80244" lon="1.42027">
        <ele>788</ele>
        <time>2026-08-25T10:41:14Z</time>
      </trkpt>
      <trkpt lat="42.80263" lon="1.42016">
        <ele>788</ele>
        <time>2026-08-25T10:41:33Z</time>
      </trkpt>
      <trkpt lat="42.80269" lon="1.42006">
        <ele>788</ele>
        <time>2026-08-25T10:41:42Z</time>
      </trkpt>
      <trkpt lat="42.80276" lon="1.4199">
        <ele>788</ele>
        <time>2026-08-25T10:41:54Z</time>
      </trkpt>
      <trkpt lat="42.8028" lon="1.41986">
        <ele>788</ele>
        <time>2026-08-25T10:41:59Z</time>
      </trkpt>
      <trkpt lat="42.8029" lon="1.41992">
        <ele>788</ele>
        <time>2026-08-25T10:42:08Z</time>
      </trkpt>
      <trkpt lat="42.80299" lon="1.41989">
        <ele>788</ele>
        <time>2026-08-25T10:42:16Z</time>
      </trkpt>
      <trkpt lat="42.80306" lon="1.4199">
        <ele>788</ele>
        <time>2026-08-25T10:42:24Z</time>
      </trkpt>
      <trkpt lat="42.8031" lon="1.41987">
        <ele>788</ele>
        <time>2026-08-25T10:42:29Z</time>
      </trkpt>
      <trkpt lat="42.80309" lon="1.4198">
        <ele>789</ele>
        <time>2026-08-25T10:42:56Z</time>
      </trkpt>
      <trkpt lat="42.80306" lon="1.41987">
        <ele>789</ele>
        <time>2026-08-25T10:43:16Z</time>
      </trkpt>
      <trkpt lat="42.80309" lon="1.41985">
        <ele>790</ele>
        <time>2026-08-25T10:44:18Z</time>
      </trkpt>
      <trkpt lat="42.80314" lon="1.41988">
        <ele>790</ele>
        <time>2026-08-25T10:44:34Z</time>
      </trkpt>
      <trkpt lat="42.80311" lon="1.41994">
        <ele>790</ele>
        <time>2026-08-25T10:44:49Z</time>
      </trkpt>
      <trkpt lat="42.80311" lon="1.41993">
        <ele>790</ele>
        <time>2026-08-25T10:45:25Z</time>
      </trkpt>
      <trkpt lat="42.80316" lon="1.41992">
        <ele>791</ele>
        <time>2026-08-25T10:46:12Z</time>
      </trkpt>
      <trkpt lat="42.80318" lon="1.41979">
        <ele>791</ele>
        <time>2026-08-25T10:46:47Z</time>
      </trkpt>
      <trkpt lat="42.8032" lon="1.41971">
        <ele>791</ele>
        <time>2026-08-25T10:46:57Z</time>
      </trkpt>
      <trkpt lat="42.80327" lon="1.41959">
        <ele>791</ele>
        <time>2026-08-25T10:47:11Z</time>
      </trkpt>
      <trkpt lat="42.8033" lon="1.41955">
        <ele>791</ele>
        <time>2026-08-25T10:47:15Z</time>
      </trkpt>
      <trkpt lat="42.80336" lon="1.41945">
        <ele>791</ele>
        <time>2026-08-25T10:47:23Z</time>
      </trkpt>
      <trkpt lat="42.80348" lon="1.41936">
        <ele>791</ele>
        <time>2026-08-25T10:47:36Z</time>
      </trkpt>
      <trkpt lat="42.80354" lon="1.41935">
        <ele>792</ele>
        <time>2026-08-25T10:47:44Z</time>
      </trkpt>
      <trkpt lat="42.80365" lon="1.41943">
        <ele>792</ele>
        <time>2026-08-25T10:48:01Z</time>
      </trkpt>
      <trkpt lat="42.8037" lon="1.41941">
        <ele>792</ele>
        <time>2026-08-25T10:48:23Z</time>
      </trkpt>
      <trkpt lat="42.80377" lon="1.41937">
        <ele>792</ele>
        <time>2026-08-25T10:48:33Z</time>
      </trkpt>
      <trkpt lat="42.8038" lon="1.4194">
        <ele>792</ele>
        <time>2026-08-25T10:48:36Z</time>
      </trkpt>
      <trkpt lat="42.80393" lon="1.41926">
        <ele>792</ele>
        <time>2026-08-25T10:48:53Z</time>
      </trkpt>
      <trkpt lat="42.80411" lon="1.41915">
        <ele>792</ele>
        <time>2026-08-25T10:49:13Z</time>
      </trkpt>
      <trkpt lat="42.80427" lon="1.4194">
        <ele>793</ele>
        <time>2026-08-25T10:49:50Z</time>
      </trkpt>
      <trkpt lat="42.80458" lon="1.4197">
        <ele>793</ele>
        <time>2026-08-25T10:50:25Z</time>
      </trkpt>
      <trkpt lat="42.80473" lon="1.41987">
        <ele>793</ele>
        <time>2026-08-25T10:50:40Z</time>
      </trkpt>
      <trkpt lat="42.80484" lon="1.42013">
        <ele>794</ele>
        <time>2026-08-25T10:51:01Z</time>
      </trkpt>
      <trkpt lat="42.80488" lon="1.42007">
        <ele>794</ele>
        <time>2026-08-25T10:51:22Z</time>
      </trkpt>
      <trkpt lat="42.80489" lon="1.41997">
        <ele>794</ele>
        <time>2026-08-25T10:51:28Z</time>
      </trkpt>
      <trkpt lat="42.805" lon="1.41967">
        <ele>794</ele>
        <time>2026-08-25T10:51:51Z</time>
      </trkpt>
      <trkpt lat="42.80503" lon="1.41961">
        <ele>794</ele>
        <time>2026-08-25T10:51:56Z</time>
      </trkpt>
      <trkpt lat="42.80505" lon="1.41953">
        <ele>794</ele>
        <time>2026-08-25T10:52:03Z</time>
      </trkpt>
      <trkpt lat="42.80509" lon="1.41949">
        <ele>794</ele>
        <time>2026-08-25T10:52:08Z</time>
      </trkpt>
      <trkpt lat="42.8051" lon="1.41942">
        <ele>794</ele>
        <time>2026-08-25T10:52:12Z</time>
      </trkpt>
      <trkpt lat="42.80509" lon="1.41935">
        <ele>794</ele>
        <time>2026-08-25T10:52:16Z</time>
      </trkpt>
      <trkpt lat="42.80513" lon="1.41907">
        <ele>794</ele>
        <time>2026-08-25T10:52:37Z</time>
      </trkpt>
      <trkpt lat="42.80516" lon="1.41901">
        <ele>795</ele>
        <time>2026-08-25T10:52:42Z</time>
      </trkpt>
      <trkpt lat="42.80518" lon="1.4188">
        <ele>795</ele>
        <time>2026-08-25T10:53:01Z</time>
      </trkpt>
      <trkpt lat="42.80519" lon="1.41873">
        <ele>795</ele>
        <time>2026-08-25T10:53:06Z</time>
      </trkpt>
      <trkpt lat="42.8052" lon="1.41864">
        <ele>795</ele>
        <time>2026-08-25T10:53:13Z</time>
      </trkpt>
      <trkpt lat="42.80516" lon="1.4185">
        <ele>795</ele>
        <time>2026-08-25T10:53:25Z</time>
      </trkpt>
      <trkpt lat="42.80516" lon="1.41819">
        <ele>795</ele>
        <time>2026-08-25T10:53:53Z</time>
      </trkpt>
      <trkpt lat="42.80521" lon="1.41811">
        <ele>795</ele>
        <time>2026-08-25T10:54:03Z</time>
      </trkpt>
      <trkpt lat="42.80526" lon="1.418">
        <ele>795</ele>
        <time>2026-08-25T10:54:14Z</time>
      </trkpt>
      <trkpt lat="42.80531" lon="1.41792">
        <ele>796</ele>
        <time>2026-08-25T10:54:25Z</time>
      </trkpt>
      <trkpt lat="42.80534" lon="1.4178">
        <ele>796</ele>
        <time>2026-08-25T10:54:36Z</time>
      </trkpt>
      <trkpt lat="42.80534" lon="1.41762">
        <ele>796</ele>
        <time>2026-08-25T10:54:50Z</time>
      </trkpt>
      <trkpt lat="42.80533" lon="1.41756">
        <ele>796</ele>
        <time>2026-08-25T10:54:55Z</time>
      </trkpt>
      <trkpt lat="42.80536" lon="1.41726">
        <ele>796</ele>
        <time>2026-08-25T10:55:24Z</time>
      </trkpt>
      <trkpt lat="42.80539" lon="1.4172">
        <ele>796</ele>
        <time>2026-08-25T10:55:29Z</time>
      </trkpt>
      <trkpt lat="42.80536" lon="1.4171">
        <ele>796</ele>
        <time>2026-08-25T10:55:38Z</time>
      </trkpt>
      <trkpt lat="42.80536" lon="1.41676">
        <ele>797</ele>
        <time>2026-08-25T10:56:09Z</time>
      </trkpt>
      <trkpt lat="42.80536" lon="1.41668">
        <ele>797</ele>
        <time>2026-08-25T10:56:19Z</time>
      </trkpt>
      <trkpt lat="42.80532" lon="1.4166">
        <ele>797</ele>
        <time>2026-08-25T10:56:29Z</time>
      </trkpt>
      <trkpt lat="42.8053" lon="1.41651">
        <ele>797</ele>
        <time>2026-08-25T10:56:40Z</time>
      </trkpt>
      <trkpt lat="42.80527" lon="1.41623">
        <ele>797</ele>
        <time>2026-08-25T10:57:09Z</time>
      </trkpt>
      <trkpt lat="42.80533" lon="1.41605">
        <ele>797</ele>
        <time>2026-08-25T10:57:29Z</time>
      </trkpt>
      <trkpt lat="42.80535" lon="1.416">
        <ele>797</ele>
        <time>2026-08-25T10:57:34Z</time>
      </trkpt>
      <trkpt lat="42.80534" lon="1.41594">
        <ele>798</ele>
        <time>2026-08-25T10:57:41Z</time>
      </trkpt>
      <trkpt lat="42.80534" lon="1.41586">
        <ele>798</ele>
        <time>2026-08-25T10:57:51Z</time>
      </trkpt>
      <trkpt lat="42.80536" lon="1.41579">
        <ele>798</ele>
        <time>2026-08-25T10:58:06Z</time>
      </trkpt>
      <trkpt lat="42.80537" lon="1.41571">
        <ele>798</ele>
        <time>2026-08-25T10:58:17Z</time>
      </trkpt>
      <trkpt lat="42.80541" lon="1.41564">
        <ele>798</ele>
        <time>2026-08-25T10:58:27Z</time>
      </trkpt>
      <trkpt lat="42.80546" lon="1.41551">
        <ele>798</ele>
        <time>2026-08-25T10:58:49Z</time>
      </trkpt>
      <trkpt lat="42.80552" lon="1.41539">
        <ele>798</ele>
        <time>2026-08-25T10:59:10Z</time>
      </trkpt>
      <trkpt lat="42.80551" lon="1.41531">
        <ele>799</ele>
        <time>2026-08-25T10:59:21Z</time>
      </trkpt>
      <trkpt lat="42.80553" lon="1.41525">
        <ele>799</ele>
        <time>2026-08-25T10:59:31Z</time>
      </trkpt>
      <trkpt lat="42.80556" lon="1.4152">
        <ele>799</ele>
        <time>2026-08-25T10:59:41Z</time>
      </trkpt>
      <trkpt lat="42.8056" lon="1.41503">
        <ele>799</ele>
        <time>2026-08-25T11:00:03Z</time>
      </trkpt>
      <trkpt lat="42.80567" lon="1.41483">
        <ele>799</ele>
        <time>2026-08-25T11:00:33Z</time>
      </trkpt>
      <trkpt lat="42.80569" lon="1.41477">
        <ele>799</ele>
        <time>2026-08-25T11:00:43Z</time>
      </trkpt>
      <trkpt lat="42.80571" lon="1.4147">
        <ele>799</ele>
        <time>2026-08-25T11:00:55Z</time>
      </trkpt>
      <trkpt lat="42.80575" lon="1.41454">
        <ele>800</ele>
        <time>2026-08-25T11:01:16Z</time>
      </trkpt>
      <trkpt lat="42.80582" lon="1.41434">
        <ele>800</ele>
        <time>2026-08-25T11:01:46Z</time>
      </trkpt>
      <trkpt lat="42.80589" lon="1.41417">
        <ele>800</ele>
        <time>2026-08-25T11:02:12Z</time>
      </trkpt>
      <trkpt lat="42.8059" lon="1.4141">
        <ele>800</ele>
        <time>2026-08-25T11:02:22Z</time>
      </trkpt>
      <trkpt lat="42.80593" lon="1.41403">
        <ele>800</ele>
        <time>2026-08-25T11:02:32Z</time>
      </trkpt>
      <trkpt lat="42.80599" lon="1.41379">
        <ele>801</ele>
        <time>2026-08-25T11:03:03Z</time>
      </trkpt>
      <trkpt lat="42.80604" lon="1.41353">
        <ele>801</ele>
        <time>2026-08-25T11:03:34Z</time>
      </trkpt>
      <trkpt lat="42.80606" lon="1.41339">
        <ele>801</ele>
        <time>2026-08-25T11:03:54Z</time>
      </trkpt>
      <trkpt lat="42.80603" lon="1.41334">
        <ele>801</ele>
        <time>2026-08-25T11:04:00Z</time>
      </trkpt>
      <trkpt lat="42.80603" lon="1.41324">
        <ele>801</ele>
        <time>2026-08-25T11:04:12Z</time>
      </trkpt>
      <trkpt lat="42.80608" lon="1.4131">
        <ele>802</ele>
        <time>2026-08-25T11:04:28Z</time>
      </trkpt>
      <trkpt lat="42.80611" lon="1.41304">
        <ele>802</ele>
        <time>2026-08-25T11:04:35Z</time>
      </trkpt>
      <trkpt lat="42.80611" lon="1.41295">
        <ele>802</ele>
        <time>2026-08-25T11:04:45Z</time>
      </trkpt>
      <trkpt lat="42.80617" lon="1.41281">
        <ele>802</ele>
        <time>2026-08-25T11:05:01Z</time>
      </trkpt>
      <trkpt lat="42.80622" lon="1.41255">
        <ele>802</ele>
        <time>2026-08-25T11:05:29Z</time>
      </trkpt>
      <trkpt lat="42.80624" lon="1.41249">
        <ele>802</ele>
        <time>2026-08-25T11:05:33Z</time>
      </trkpt>
      <trkpt lat="42.80631" lon="1.41212">
        <ele>803</ele>
        <time>2026-08-25T11:06:03Z</time>
      </trkpt>
      <trkpt lat="42.80632" lon="1.41206">
        <ele>803</ele>
        <time>2026-08-25T11:06:08Z</time>
      </trkpt>
      <trkpt lat="42.80632" lon="1.412">
        <ele>803</ele>
        <time>2026-08-25T11:06:13Z</time>
      </trkpt>
      <trkpt lat="42.80634" lon="1.41194">
        <ele>803</ele>
        <time>2026-08-25T11:06:18Z</time>
      </trkpt>
      <trkpt lat="42.80642" lon="1.41166">
        <ele>803</ele>
        <time>2026-08-25T11:06:42Z</time>
      </trkpt>
      <trkpt lat="42.80645" lon="1.41162">
        <ele>803</ele>
        <time>2026-08-25T11:06:46Z</time>
      </trkpt>
      <trkpt lat="42.80649" lon="1.41157">
        <ele>803</ele>
        <time>2026-08-25T11:06:55Z</time>
      </trkpt>
    </trkseg>
  </trk>
</gpx>